<?xml version="1.0" encoding="UTF-8" standalone="no" ?>
<gpx xmlns="http://www.topografix.com/GPX/1/1" xmlns:xsi="http://www.w3.org/2001/XMLSchema-instance" xsi:schemaLocation="http://www.topografix.com/GPX/1/1 http://www.topografix.com/GPX/1/1/gpx.xsd" version="1.1" creator="VisuGPX - https://www.visugpx.com">
  <metadata>
    <name>Pic saint-Loup</name>
    <desc><![CDATA[Pic Saint-Loup depuis Cazevieille en redescendant pas l\'arête est]]></desc>
  </metadata>
  <trk>
    <name><![CDATA[28-MARS-14 15:23:53]]></name>
    <trkseg>
      <trkpt lat="43.77035" lon="3.79276">
        <ele>302.95</ele>
        <time>2014-03-28T09:02:31Z</time>
      </trkpt>
      <trkpt lat="43.77035" lon="3.79277">
        <ele>291.9</ele>
        <time>2014-03-28T09:02:40Z</time>
      </trkpt>
      <trkpt lat="43.77035" lon="3.79277">
        <ele>302.47</ele>
        <time>2014-03-28T09:02:41Z</time>
      </trkpt>
      <trkpt lat="43.77035" lon="3.79278">
        <ele>301.03</ele>
        <time>2014-03-28T09:02:52Z</time>
      </trkpt>
      <trkpt lat="43.77035" lon="3.79278">
        <ele>302.95</ele>
        <time>2014-03-28T09:02:57Z</time>
      </trkpt>
      <trkpt lat="43.77035" lon="3.79278">
        <ele>295.74</ele>
        <time>2014-03-28T09:02:58Z</time>
      </trkpt>
      <trkpt lat="43.77035" lon="3.79278">
        <ele>299.11</ele>
        <time>2014-03-28T09:02:59Z</time>
      </trkpt>
      <trkpt lat="43.77035" lon="3.79278">
        <ele>301.99</ele>
        <time>2014-03-28T09:03:02Z</time>
      </trkpt>
      <trkpt lat="43.77035" lon="3.79278">
        <ele>310.64</ele>
        <time>2014-03-28T09:03:14Z</time>
      </trkpt>
      <trkpt lat="43.77036" lon="3.79278">
        <ele>301.99</ele>
        <time>2014-03-28T09:03:15Z</time>
      </trkpt>
      <trkpt lat="43.77036" lon="3.79279">
        <ele>301.03</ele>
        <time>2014-03-28T09:03:44Z</time>
      </trkpt>
      <trkpt lat="43.77036" lon="3.79279">
        <ele>300.55</ele>
        <time>2014-03-28T09:04:33Z</time>
      </trkpt>
      <trkpt lat="43.77036" lon="3.79279">
        <ele>301.99</ele>
        <time>2014-03-28T09:05:05Z</time>
      </trkpt>
      <trkpt lat="43.77036" lon="3.79276">
        <ele>301.99</ele>
        <time>2014-03-28T09:05:25Z</time>
      </trkpt>
      <trkpt lat="43.77037" lon="3.79275">
        <ele>301.99</ele>
        <time>2014-03-28T09:05:26Z</time>
      </trkpt>
      <trkpt lat="43.7704" lon="3.79268">
        <ele>301.99</ele>
        <time>2014-03-28T09:05:31Z</time>
      </trkpt>
      <trkpt lat="43.77041" lon="3.79265">
        <ele>302.47</ele>
        <time>2014-03-28T09:05:33Z</time>
      </trkpt>
      <trkpt lat="43.77043" lon="3.79262">
        <ele>302.47</ele>
        <time>2014-03-28T09:05:36Z</time>
      </trkpt>
      <trkpt lat="43.77053" lon="3.79234">
        <ele>302.95</ele>
        <time>2014-03-28T09:05:56Z</time>
      </trkpt>
      <trkpt lat="43.77058" lon="3.79216">
        <ele>302.95</ele>
        <time>2014-03-28T09:06:11Z</time>
      </trkpt>
      <trkpt lat="43.7706" lon="3.79211">
        <ele>302.95</ele>
        <time>2014-03-28T09:06:15Z</time>
      </trkpt>
      <trkpt lat="43.77064" lon="3.79192">
        <ele>303.91</ele>
        <time>2014-03-28T09:06:29Z</time>
      </trkpt>
      <trkpt lat="43.77067" lon="3.79186">
        <ele>304.39</ele>
        <time>2014-03-28T09:06:36Z</time>
      </trkpt>
      <trkpt lat="43.77074" lon="3.7917">
        <ele>305.84</ele>
        <time>2014-03-28T09:06:53Z</time>
      </trkpt>
      <trkpt lat="43.77081" lon="3.79164">
        <ele>308.24</ele>
        <time>2014-03-28T09:07:06Z</time>
      </trkpt>
      <trkpt lat="43.77082" lon="3.79163">
        <ele>308.72</ele>
        <time>2014-03-28T09:07:08Z</time>
      </trkpt>
      <trkpt lat="43.77087" lon="3.79159">
        <ele>309.68</ele>
        <time>2014-03-28T09:07:14Z</time>
      </trkpt>
      <trkpt lat="43.77094" lon="3.79145">
        <ele>311.12</ele>
        <time>2014-03-28T09:07:28Z</time>
      </trkpt>
      <trkpt lat="43.77095" lon="3.79139">
        <ele>311.6</ele>
        <time>2014-03-28T09:07:32Z</time>
      </trkpt>
      <trkpt lat="43.77099" lon="3.79132">
        <ele>312.09</ele>
        <time>2014-03-28T09:07:38Z</time>
      </trkpt>
      <trkpt lat="43.77102" lon="3.7913">
        <ele>312.57</ele>
        <time>2014-03-28T09:07:42Z</time>
      </trkpt>
      <trkpt lat="43.77104" lon="3.79129">
        <ele>313.53</ele>
        <time>2014-03-28T09:07:45Z</time>
      </trkpt>
      <trkpt lat="43.77106" lon="3.7913">
        <ele>314.01</ele>
        <time>2014-03-28T09:07:47Z</time>
      </trkpt>
      <trkpt lat="43.77113" lon="3.79133">
        <ele>314.49</ele>
        <time>2014-03-28T09:07:55Z</time>
      </trkpt>
      <trkpt lat="43.77119" lon="3.79135">
        <ele>315.45</ele>
        <time>2014-03-28T09:08:01Z</time>
      </trkpt>
      <trkpt lat="43.77124" lon="3.79137">
        <ele>316.41</ele>
        <time>2014-03-28T09:08:07Z</time>
      </trkpt>
      <trkpt lat="43.77126" lon="3.79138">
        <ele>316.89</ele>
        <time>2014-03-28T09:08:09Z</time>
      </trkpt>
      <trkpt lat="43.77133" lon="3.79138">
        <ele>317.85</ele>
        <time>2014-03-28T09:08:18Z</time>
      </trkpt>
      <trkpt lat="43.77138" lon="3.7914">
        <ele>318.81</ele>
        <time>2014-03-28T09:08:25Z</time>
      </trkpt>
      <trkpt lat="43.77149" lon="3.79146">
        <ele>321.22</ele>
        <time>2014-03-28T09:08:41Z</time>
      </trkpt>
      <trkpt lat="43.7716" lon="3.79155">
        <ele>323.62</ele>
        <time>2014-03-28T09:08:59Z</time>
      </trkpt>
      <trkpt lat="43.77164" lon="3.79158">
        <ele>324.58</ele>
        <time>2014-03-28T09:09:06Z</time>
      </trkpt>
      <trkpt lat="43.77168" lon="3.79159">
        <ele>325.54</ele>
        <time>2014-03-28T09:09:11Z</time>
      </trkpt>
      <trkpt lat="43.77171" lon="3.79165">
        <ele>326.99</ele>
        <time>2014-03-28T09:09:18Z</time>
      </trkpt>
      <trkpt lat="43.77175" lon="3.7917">
        <ele>327.95</ele>
        <time>2014-03-28T09:09:26Z</time>
      </trkpt>
      <trkpt lat="43.77177" lon="3.79174">
        <ele>328.43</ele>
        <time>2014-03-28T09:09:30Z</time>
      </trkpt>
      <trkpt lat="43.77182" lon="3.79191">
        <ele>331.31</ele>
        <time>2014-03-28T09:09:47Z</time>
      </trkpt>
      <trkpt lat="43.77187" lon="3.79208">
        <ele>334.2</ele>
        <time>2014-03-28T09:10:04Z</time>
      </trkpt>
      <trkpt lat="43.77191" lon="3.7922">
        <ele>336.12</ele>
        <time>2014-03-28T09:10:16Z</time>
      </trkpt>
      <trkpt lat="43.77194" lon="3.79224">
        <ele>337.08</ele>
        <time>2014-03-28T09:10:22Z</time>
      </trkpt>
      <trkpt lat="43.77205" lon="3.79226">
        <ele>339.48</ele>
        <time>2014-03-28T09:10:39Z</time>
      </trkpt>
      <trkpt lat="43.77213" lon="3.79224">
        <ele>340.92</ele>
        <time>2014-03-28T09:10:47Z</time>
      </trkpt>
      <trkpt lat="43.77215" lon="3.79222">
        <ele>341.41</ele>
        <time>2014-03-28T09:10:50Z</time>
      </trkpt>
      <trkpt lat="43.77227" lon="3.79222">
        <ele>344.29</ele>
        <time>2014-03-28T09:11:06Z</time>
      </trkpt>
      <trkpt lat="43.77235" lon="3.79224">
        <ele>346.21</ele>
        <time>2014-03-28T09:11:18Z</time>
      </trkpt>
      <trkpt lat="43.77237" lon="3.79228">
        <ele>346.69</ele>
        <time>2014-03-28T09:11:22Z</time>
      </trkpt>
      <trkpt lat="43.77246" lon="3.79239">
        <ele>350.06</ele>
        <time>2014-03-28T09:11:39Z</time>
      </trkpt>
      <trkpt lat="43.77253" lon="3.7925">
        <ele>352.46</ele>
        <time>2014-03-28T09:11:56Z</time>
      </trkpt>
      <trkpt lat="43.77263" lon="3.79259">
        <ele>355.34</ele>
        <time>2014-03-28T09:12:13Z</time>
      </trkpt>
      <trkpt lat="43.77271" lon="3.7927">
        <ele>358.23</ele>
        <time>2014-03-28T09:12:30Z</time>
      </trkpt>
      <trkpt lat="43.77278" lon="3.79279">
        <ele>360.63</ele>
        <time>2014-03-28T09:12:46Z</time>
      </trkpt>
      <trkpt lat="43.77285" lon="3.79289">
        <ele>364</ele>
        <time>2014-03-28T09:13:02Z</time>
      </trkpt>
      <trkpt lat="43.7729" lon="3.79303">
        <ele>366.4</ele>
        <time>2014-03-28T09:13:18Z</time>
      </trkpt>
      <trkpt lat="43.77293" lon="3.79317">
        <ele>369.76</ele>
        <time>2014-03-28T09:13:34Z</time>
      </trkpt>
      <trkpt lat="43.77294" lon="3.79326">
        <ele>370.24</ele>
        <time>2014-03-28T09:13:50Z</time>
      </trkpt>
      <trkpt lat="43.77294" lon="3.79326">
        <ele>370.73</ele>
        <time>2014-03-28T09:14:11Z</time>
      </trkpt>
      <trkpt lat="43.77296" lon="3.79329">
        <ele>372.17</ele>
        <time>2014-03-28T09:14:31Z</time>
      </trkpt>
      <trkpt lat="43.77297" lon="3.7934">
        <ele>374.09</ele>
        <time>2014-03-28T09:14:42Z</time>
      </trkpt>
      <trkpt lat="43.773" lon="3.7935">
        <ele>376.97</ele>
        <time>2014-03-28T09:14:54Z</time>
      </trkpt>
      <trkpt lat="43.77303" lon="3.79359">
        <ele>379.38</ele>
        <time>2014-03-28T09:15:06Z</time>
      </trkpt>
      <trkpt lat="43.77302" lon="3.79368">
        <ele>380.34</ele>
        <time>2014-03-28T09:15:14Z</time>
      </trkpt>
      <trkpt lat="43.77302" lon="3.79386">
        <ele>383.7</ele>
        <time>2014-03-28T09:15:33Z</time>
      </trkpt>
      <trkpt lat="43.77302" lon="3.79387">
        <ele>384.18</ele>
        <time>2014-03-28T09:15:34Z</time>
      </trkpt>
      <trkpt lat="43.77305" lon="3.79402">
        <ele>386.59</ele>
        <time>2014-03-28T09:15:49Z</time>
      </trkpt>
      <trkpt lat="43.77307" lon="3.79413">
        <ele>388.99</ele>
        <time>2014-03-28T09:16:01Z</time>
      </trkpt>
      <trkpt lat="43.77315" lon="3.79416">
        <ele>390.43</ele>
        <time>2014-03-28T09:16:14Z</time>
      </trkpt>
      <trkpt lat="43.77318" lon="3.79418">
        <ele>391.39</ele>
        <time>2014-03-28T09:16:17Z</time>
      </trkpt>
      <trkpt lat="43.77328" lon="3.79424">
        <ele>393.8</ele>
        <time>2014-03-28T09:16:34Z</time>
      </trkpt>
      <trkpt lat="43.77335" lon="3.79439">
        <ele>396.68</ele>
        <time>2014-03-28T09:16:52Z</time>
      </trkpt>
      <trkpt lat="43.77336" lon="3.79441">
        <ele>396.68</ele>
        <time>2014-03-28T09:16:54Z</time>
      </trkpt>
      <trkpt lat="43.77345" lon="3.79459">
        <ele>399.57</ele>
        <time>2014-03-28T09:17:13Z</time>
      </trkpt>
      <trkpt lat="43.77352" lon="3.79477">
        <ele>401.97</ele>
        <time>2014-03-28T09:17:31Z</time>
      </trkpt>
      <trkpt lat="43.77354" lon="3.79488">
        <ele>403.41</ele>
        <time>2014-03-28T09:17:40Z</time>
      </trkpt>
      <trkpt lat="43.77363" lon="3.79509">
        <ele>404.37</ele>
        <time>2014-03-28T09:17:58Z</time>
      </trkpt>
      <trkpt lat="43.77371" lon="3.79523">
        <ele>405.33</ele>
        <time>2014-03-28T09:18:10Z</time>
      </trkpt>
      <trkpt lat="43.77374" lon="3.79535">
        <ele>406.29</ele>
        <time>2014-03-28T09:18:19Z</time>
      </trkpt>
      <trkpt lat="43.77376" lon="3.7954">
        <ele>406.77</ele>
        <time>2014-03-28T09:18:23Z</time>
      </trkpt>
      <trkpt lat="43.77388" lon="3.79568">
        <ele>408.22</ele>
        <time>2014-03-28T09:18:45Z</time>
      </trkpt>
      <trkpt lat="43.77393" lon="3.79576">
        <ele>408.7</ele>
        <time>2014-03-28T09:18:52Z</time>
      </trkpt>
      <trkpt lat="43.77394" lon="3.79583">
        <ele>409.18</ele>
        <time>2014-03-28T09:18:57Z</time>
      </trkpt>
      <trkpt lat="43.77395" lon="3.79586">
        <ele>409.18</ele>
        <time>2014-03-28T09:18:59Z</time>
      </trkpt>
      <trkpt lat="43.7741" lon="3.79601">
        <ele>412.06</ele>
        <time>2014-03-28T09:19:18Z</time>
      </trkpt>
      <trkpt lat="43.7742" lon="3.79614">
        <ele>414.47</ele>
        <time>2014-03-28T09:19:34Z</time>
      </trkpt>
      <trkpt lat="43.77422" lon="3.79618">
        <ele>414.95</ele>
        <time>2014-03-28T09:19:38Z</time>
      </trkpt>
      <trkpt lat="43.77431" lon="3.79638">
        <ele>418.79</ele>
        <time>2014-03-28T09:19:58Z</time>
      </trkpt>
      <trkpt lat="43.77435" lon="3.79644">
        <ele>419.75</ele>
        <time>2014-03-28T09:20:05Z</time>
      </trkpt>
      <trkpt lat="43.77435" lon="3.79651">
        <ele>420.71</ele>
        <time>2014-03-28T09:20:11Z</time>
      </trkpt>
      <trkpt lat="43.77438" lon="3.79667">
        <ele>423.12</ele>
        <time>2014-03-28T09:20:26Z</time>
      </trkpt>
      <trkpt lat="43.7744" lon="3.79679">
        <ele>424.56</ele>
        <time>2014-03-28T09:20:35Z</time>
      </trkpt>
      <trkpt lat="43.7744" lon="3.79683">
        <ele>424.08</ele>
        <time>2014-03-28T09:20:38Z</time>
      </trkpt>
      <trkpt lat="43.77441" lon="3.7969">
        <ele>424.56</ele>
        <time>2014-03-28T09:20:46Z</time>
      </trkpt>
      <trkpt lat="43.77445" lon="3.79703">
        <ele>426</ele>
        <time>2014-03-28T09:20:57Z</time>
      </trkpt>
      <trkpt lat="43.77446" lon="3.79706">
        <ele>425.52</ele>
        <time>2014-03-28T09:20:59Z</time>
      </trkpt>
      <trkpt lat="43.77449" lon="3.79729">
        <ele>425.52</ele>
        <time>2014-03-28T09:21:14Z</time>
      </trkpt>
      <trkpt lat="43.77451" lon="3.79744">
        <ele>425.52</ele>
        <time>2014-03-28T09:21:23Z</time>
      </trkpt>
      <trkpt lat="43.7745" lon="3.7975">
        <ele>425.04</ele>
        <time>2014-03-28T09:21:27Z</time>
      </trkpt>
      <trkpt lat="43.77455" lon="3.79774">
        <ele>425.04</ele>
        <time>2014-03-28T09:21:45Z</time>
      </trkpt>
      <trkpt lat="43.77456" lon="3.79775">
        <ele>425.52</ele>
        <time>2014-03-28T09:21:56Z</time>
      </trkpt>
      <trkpt lat="43.77461" lon="3.79788">
        <ele>425.52</ele>
        <time>2014-03-28T09:22:06Z</time>
      </trkpt>
      <trkpt lat="43.77462" lon="3.79799">
        <ele>426</ele>
        <time>2014-03-28T09:22:14Z</time>
      </trkpt>
      <trkpt lat="43.77464" lon="3.79804">
        <ele>425.52</ele>
        <time>2014-03-28T09:22:19Z</time>
      </trkpt>
      <trkpt lat="43.77467" lon="3.7981">
        <ele>425.52</ele>
        <time>2014-03-28T09:22:23Z</time>
      </trkpt>
      <trkpt lat="43.77472" lon="3.79827">
        <ele>424.08</ele>
        <time>2014-03-28T09:22:42Z</time>
      </trkpt>
      <trkpt lat="43.77473" lon="3.79827">
        <ele>424.56</ele>
        <time>2014-03-28T09:22:49Z</time>
      </trkpt>
      <trkpt lat="43.77475" lon="3.7984">
        <ele>423.6</ele>
        <time>2014-03-28T09:23:05Z</time>
      </trkpt>
      <trkpt lat="43.77476" lon="3.7984">
        <ele>424.08</ele>
        <time>2014-03-28T09:23:10Z</time>
      </trkpt>
      <trkpt lat="43.77479" lon="3.79841">
        <ele>424.56</ele>
        <time>2014-03-28T09:23:21Z</time>
      </trkpt>
      <trkpt lat="43.77482" lon="3.79853">
        <ele>424.08</ele>
        <time>2014-03-28T09:23:29Z</time>
      </trkpt>
      <trkpt lat="43.77485" lon="3.79862">
        <ele>423.6</ele>
        <time>2014-03-28T09:23:35Z</time>
      </trkpt>
      <trkpt lat="43.77492" lon="3.79875">
        <ele>423.12</ele>
        <time>2014-03-28T09:23:51Z</time>
      </trkpt>
      <trkpt lat="43.77495" lon="3.79883">
        <ele>423.12</ele>
        <time>2014-03-28T09:23:56Z</time>
      </trkpt>
      <trkpt lat="43.77499" lon="3.79893">
        <ele>422.64</ele>
        <time>2014-03-28T09:24:04Z</time>
      </trkpt>
      <trkpt lat="43.775" lon="3.79895">
        <ele>422.16</ele>
        <time>2014-03-28T09:24:08Z</time>
      </trkpt>
      <trkpt lat="43.77506" lon="3.79915">
        <ele>422.64</ele>
        <time>2014-03-28T09:24:25Z</time>
      </trkpt>
      <trkpt lat="43.77506" lon="3.7992">
        <ele>422.64</ele>
        <time>2014-03-28T09:24:28Z</time>
      </trkpt>
      <trkpt lat="43.77504" lon="3.79944">
        <ele>422.16</ele>
        <time>2014-03-28T09:24:44Z</time>
      </trkpt>
      <trkpt lat="43.77505" lon="3.79958">
        <ele>423.12</ele>
        <time>2014-03-28T09:24:55Z</time>
      </trkpt>
      <trkpt lat="43.7751" lon="3.7998">
        <ele>425.52</ele>
        <time>2014-03-28T09:25:11Z</time>
      </trkpt>
      <trkpt lat="43.77511" lon="3.79985">
        <ele>425.52</ele>
        <time>2014-03-28T09:25:15Z</time>
      </trkpt>
      <trkpt lat="43.77515" lon="3.80009">
        <ele>426.96</ele>
        <time>2014-03-28T09:25:34Z</time>
      </trkpt>
      <trkpt lat="43.7752" lon="3.80025">
        <ele>429.85</ele>
        <time>2014-03-28T09:25:50Z</time>
      </trkpt>
      <trkpt lat="43.77522" lon="3.8004">
        <ele>429.85</ele>
        <time>2014-03-28T09:26:02Z</time>
      </trkpt>
      <trkpt lat="43.77527" lon="3.80052">
        <ele>431.77</ele>
        <time>2014-03-28T09:26:15Z</time>
      </trkpt>
      <trkpt lat="43.77532" lon="3.80065">
        <ele>432.73</ele>
        <time>2014-03-28T09:26:27Z</time>
      </trkpt>
      <trkpt lat="43.77532" lon="3.80069">
        <ele>432.73</ele>
        <time>2014-03-28T09:26:30Z</time>
      </trkpt>
      <trkpt lat="43.77533" lon="3.80081">
        <ele>432.73</ele>
        <time>2014-03-28T09:26:38Z</time>
      </trkpt>
      <trkpt lat="43.77534" lon="3.80092">
        <ele>433.69</ele>
        <time>2014-03-28T09:26:46Z</time>
      </trkpt>
      <trkpt lat="43.77539" lon="3.80109">
        <ele>436.58</ele>
        <time>2014-03-28T09:27:04Z</time>
      </trkpt>
      <trkpt lat="43.77542" lon="3.80126">
        <ele>439.46</ele>
        <time>2014-03-28T09:27:21Z</time>
      </trkpt>
      <trkpt lat="43.77543" lon="3.8013">
        <ele>439.94</ele>
        <time>2014-03-28T09:27:24Z</time>
      </trkpt>
      <trkpt lat="43.77547" lon="3.80151">
        <ele>442.82</ele>
        <time>2014-03-28T09:27:45Z</time>
      </trkpt>
      <trkpt lat="43.77549" lon="3.80162">
        <ele>444.75</ele>
        <time>2014-03-28T09:27:57Z</time>
      </trkpt>
      <trkpt lat="43.77551" lon="3.8018">
        <ele>446.19</ele>
        <time>2014-03-28T09:28:13Z</time>
      </trkpt>
      <trkpt lat="43.77551" lon="3.80194">
        <ele>446.67</ele>
        <time>2014-03-28T09:28:26Z</time>
      </trkpt>
      <trkpt lat="43.77552" lon="3.80202">
        <ele>447.15</ele>
        <time>2014-03-28T09:28:32Z</time>
      </trkpt>
      <trkpt lat="43.77554" lon="3.80214">
        <ele>448.11</ele>
        <time>2014-03-28T09:28:49Z</time>
      </trkpt>
      <trkpt lat="43.77558" lon="3.80217">
        <ele>448.59</ele>
        <time>2014-03-28T09:28:56Z</time>
      </trkpt>
      <trkpt lat="43.77558" lon="3.80219">
        <ele>449.07</ele>
        <time>2014-03-28T09:28:58Z</time>
      </trkpt>
      <trkpt lat="43.77557" lon="3.80228">
        <ele>448.59</ele>
        <time>2014-03-28T09:29:07Z</time>
      </trkpt>
      <trkpt lat="43.77559" lon="3.80249">
        <ele>448.59</ele>
        <time>2014-03-28T09:29:25Z</time>
      </trkpt>
      <trkpt lat="43.77559" lon="3.80255">
        <ele>447.63</ele>
        <time>2014-03-28T09:29:49Z</time>
      </trkpt>
      <trkpt lat="43.77557" lon="3.80262">
        <ele>445.23</ele>
        <time>2014-03-28T09:30:13Z</time>
      </trkpt>
      <trkpt lat="43.77555" lon="3.80264">
        <ele>444.27</ele>
        <time>2014-03-28T09:30:27Z</time>
      </trkpt>
      <trkpt lat="43.77556" lon="3.80268">
        <ele>444.75</ele>
        <time>2014-03-28T09:30:37Z</time>
      </trkpt>
      <trkpt lat="43.77557" lon="3.80273">
        <ele>444.75</ele>
        <time>2014-03-28T09:30:42Z</time>
      </trkpt>
      <trkpt lat="43.77559" lon="3.80281">
        <ele>444.27</ele>
        <time>2014-03-28T09:30:51Z</time>
      </trkpt>
      <trkpt lat="43.77562" lon="3.80297">
        <ele>442.34</ele>
        <time>2014-03-28T09:31:08Z</time>
      </trkpt>
      <trkpt lat="43.77565" lon="3.80312">
        <ele>440.42</ele>
        <time>2014-03-28T09:31:22Z</time>
      </trkpt>
      <trkpt lat="43.77564" lon="3.80314">
        <ele>440.42</ele>
        <time>2014-03-28T09:31:25Z</time>
      </trkpt>
      <trkpt lat="43.77567" lon="3.8033">
        <ele>439.46</ele>
        <time>2014-03-28T09:31:35Z</time>
      </trkpt>
      <trkpt lat="43.7757" lon="3.80356">
        <ele>442.34</ele>
        <time>2014-03-28T09:31:56Z</time>
      </trkpt>
      <trkpt lat="43.77569" lon="3.80368">
        <ele>444.27</ele>
        <time>2014-03-28T09:32:13Z</time>
      </trkpt>
      <trkpt lat="43.77571" lon="3.80374">
        <ele>444.75</ele>
        <time>2014-03-28T09:32:32Z</time>
      </trkpt>
      <trkpt lat="43.77571" lon="3.80389">
        <ele>447.63</ele>
        <time>2014-03-28T09:32:51Z</time>
      </trkpt>
      <trkpt lat="43.77573" lon="3.804">
        <ele>449.55</ele>
        <time>2014-03-28T09:33:04Z</time>
      </trkpt>
      <trkpt lat="43.77573" lon="3.80404">
        <ele>449.55</ele>
        <time>2014-03-28T09:33:08Z</time>
      </trkpt>
      <trkpt lat="43.77573" lon="3.80421">
        <ele>451</ele>
        <time>2014-03-28T09:33:22Z</time>
      </trkpt>
      <trkpt lat="43.77571" lon="3.80435">
        <ele>451</ele>
        <time>2014-03-28T09:33:32Z</time>
      </trkpt>
      <trkpt lat="43.7757" lon="3.80442">
        <ele>450.52</ele>
        <time>2014-03-28T09:33:37Z</time>
      </trkpt>
      <trkpt lat="43.7757" lon="3.80445">
        <ele>451</ele>
        <time>2014-03-28T09:33:39Z</time>
      </trkpt>
      <trkpt lat="43.7757" lon="3.8045">
        <ele>451.48</ele>
        <time>2014-03-28T09:33:42Z</time>
      </trkpt>
      <trkpt lat="43.7757" lon="3.80452">
        <ele>451.96</ele>
        <time>2014-03-28T09:33:44Z</time>
      </trkpt>
      <trkpt lat="43.7757" lon="3.80457">
        <ele>452.44</ele>
        <time>2014-03-28T09:33:48Z</time>
      </trkpt>
      <trkpt lat="43.77572" lon="3.8046">
        <ele>452.92</ele>
        <time>2014-03-28T09:33:50Z</time>
      </trkpt>
      <trkpt lat="43.77571" lon="3.80463">
        <ele>452.92</ele>
        <time>2014-03-28T09:33:52Z</time>
      </trkpt>
      <trkpt lat="43.77571" lon="3.80466">
        <ele>453.4</ele>
        <time>2014-03-28T09:33:54Z</time>
      </trkpt>
      <trkpt lat="43.7757" lon="3.80472">
        <ele>453.4</ele>
        <time>2014-03-28T09:33:58Z</time>
      </trkpt>
      <trkpt lat="43.77573" lon="3.80499">
        <ele>455.8</ele>
        <time>2014-03-28T09:34:18Z</time>
      </trkpt>
      <trkpt lat="43.77575" lon="3.80525">
        <ele>457.72</ele>
        <time>2014-03-28T09:34:37Z</time>
      </trkpt>
      <trkpt lat="43.77581" lon="3.80551">
        <ele>460.61</ele>
        <time>2014-03-28T09:34:56Z</time>
      </trkpt>
      <trkpt lat="43.77586" lon="3.80561">
        <ele>463.01</ele>
        <time>2014-03-28T09:35:08Z</time>
      </trkpt>
      <trkpt lat="43.77583" lon="3.80573">
        <ele>463.01</ele>
        <time>2014-03-28T09:35:17Z</time>
      </trkpt>
      <trkpt lat="43.77584" lon="3.80591">
        <ele>463.49</ele>
        <time>2014-03-28T09:35:29Z</time>
      </trkpt>
      <trkpt lat="43.77583" lon="3.80615">
        <ele>463.49</ele>
        <time>2014-03-28T09:35:48Z</time>
      </trkpt>
      <trkpt lat="43.77582" lon="3.80619">
        <ele>463.97</ele>
        <time>2014-03-28T09:36:18Z</time>
      </trkpt>
      <trkpt lat="43.77585" lon="3.80633">
        <ele>464.93</ele>
        <time>2014-03-28T09:36:33Z</time>
      </trkpt>
      <trkpt lat="43.77587" lon="3.80648">
        <ele>465.42</ele>
        <time>2014-03-28T09:36:43Z</time>
      </trkpt>
      <trkpt lat="43.77589" lon="3.8066">
        <ele>464.45</ele>
        <time>2014-03-28T09:36:51Z</time>
      </trkpt>
      <trkpt lat="43.77589" lon="3.80669">
        <ele>464.45</ele>
        <time>2014-03-28T09:36:57Z</time>
      </trkpt>
      <trkpt lat="43.77589" lon="3.80684">
        <ele>463.01</ele>
        <time>2014-03-28T09:37:06Z</time>
      </trkpt>
      <trkpt lat="43.77593" lon="3.80694">
        <ele>463.97</ele>
        <time>2014-03-28T09:37:14Z</time>
      </trkpt>
      <trkpt lat="43.77595" lon="3.80696">
        <ele>463.97</ele>
        <time>2014-03-28T09:37:16Z</time>
      </trkpt>
      <trkpt lat="43.77598" lon="3.80698">
        <ele>464.93</ele>
        <time>2014-03-28T09:37:19Z</time>
      </trkpt>
      <trkpt lat="43.77601" lon="3.80706">
        <ele>465.42</ele>
        <time>2014-03-28T09:37:26Z</time>
      </trkpt>
      <trkpt lat="43.77611" lon="3.80731">
        <ele>466.86</ele>
        <time>2014-03-28T09:37:45Z</time>
      </trkpt>
      <trkpt lat="43.77617" lon="3.80744">
        <ele>467.82</ele>
        <time>2014-03-28T09:38:00Z</time>
      </trkpt>
      <trkpt lat="43.77617" lon="3.80747">
        <ele>468.3</ele>
        <time>2014-03-28T09:38:02Z</time>
      </trkpt>
      <trkpt lat="43.77624" lon="3.8076">
        <ele>468.78</ele>
        <time>2014-03-28T09:38:10Z</time>
      </trkpt>
      <trkpt lat="43.7763" lon="3.80773">
        <ele>470.22</ele>
        <time>2014-03-28T09:38:21Z</time>
      </trkpt>
      <trkpt lat="43.77639" lon="3.80804">
        <ele>471.66</ele>
        <time>2014-03-28T09:38:43Z</time>
      </trkpt>
      <trkpt lat="43.77641" lon="3.8081">
        <ele>472.63</ele>
        <time>2014-03-28T09:38:48Z</time>
      </trkpt>
      <trkpt lat="43.77643" lon="3.80817">
        <ele>473.11</ele>
        <time>2014-03-28T09:38:54Z</time>
      </trkpt>
      <trkpt lat="43.77645" lon="3.80825">
        <ele>474.55</ele>
        <time>2014-03-28T09:39:02Z</time>
      </trkpt>
      <trkpt lat="43.77646" lon="3.80837">
        <ele>475.03</ele>
        <time>2014-03-28T09:39:10Z</time>
      </trkpt>
      <trkpt lat="43.77651" lon="3.80862">
        <ele>477.43</ele>
        <time>2014-03-28T09:39:28Z</time>
      </trkpt>
      <trkpt lat="43.77652" lon="3.80864">
        <ele>477.91</ele>
        <time>2014-03-28T09:39:30Z</time>
      </trkpt>
      <trkpt lat="43.77659" lon="3.80891">
        <ele>480.8</ele>
        <time>2014-03-28T09:39:52Z</time>
      </trkpt>
      <trkpt lat="43.7766" lon="3.80898">
        <ele>480.8</ele>
        <time>2014-03-28T09:39:57Z</time>
      </trkpt>
      <trkpt lat="43.77664" lon="3.80914">
        <ele>482.72</ele>
        <time>2014-03-28T09:40:10Z</time>
      </trkpt>
      <trkpt lat="43.7767" lon="3.80937">
        <ele>485.12</ele>
        <time>2014-03-28T09:40:28Z</time>
      </trkpt>
      <trkpt lat="43.77673" lon="3.80956">
        <ele>488.01</ele>
        <time>2014-03-28T09:40:46Z</time>
      </trkpt>
      <trkpt lat="43.77674" lon="3.80974">
        <ele>490.89</ele>
        <time>2014-03-28T09:41:03Z</time>
      </trkpt>
      <trkpt lat="43.77676" lon="3.80992">
        <ele>492.81</ele>
        <time>2014-03-28T09:41:17Z</time>
      </trkpt>
      <trkpt lat="43.77679" lon="3.81008">
        <ele>496.18</ele>
        <time>2014-03-28T09:41:33Z</time>
      </trkpt>
      <trkpt lat="43.77679" lon="3.81024">
        <ele>498.1</ele>
        <time>2014-03-28T09:41:49Z</time>
      </trkpt>
      <trkpt lat="43.77678" lon="3.81027">
        <ele>498.58</ele>
        <time>2014-03-28T09:41:51Z</time>
      </trkpt>
      <trkpt lat="43.77676" lon="3.81039">
        <ele>499.54</ele>
        <time>2014-03-28T09:42:01Z</time>
      </trkpt>
      <trkpt lat="43.77673" lon="3.81051">
        <ele>500.98</ele>
        <time>2014-03-28T09:42:12Z</time>
      </trkpt>
      <trkpt lat="43.77672" lon="3.81054">
        <ele>501.46</ele>
        <time>2014-03-28T09:42:14Z</time>
      </trkpt>
      <trkpt lat="43.77671" lon="3.81056">
        <ele>501.46</ele>
        <time>2014-03-28T09:42:16Z</time>
      </trkpt>
      <trkpt lat="43.77668" lon="3.81066">
        <ele>503.39</ele>
        <time>2014-03-28T09:42:26Z</time>
      </trkpt>
      <trkpt lat="43.77666" lon="3.8107">
        <ele>503.87</ele>
        <time>2014-03-28T09:42:30Z</time>
      </trkpt>
      <trkpt lat="43.77663" lon="3.81088">
        <ele>506.27</ele>
        <time>2014-03-28T09:42:46Z</time>
      </trkpt>
      <trkpt lat="43.77658" lon="3.81111">
        <ele>508.67</ele>
        <time>2014-03-28T09:43:04Z</time>
      </trkpt>
      <trkpt lat="43.77658" lon="3.8113">
        <ele>510.6</ele>
        <time>2014-03-28T09:43:21Z</time>
      </trkpt>
      <trkpt lat="43.77661" lon="3.81149">
        <ele>513.48</ele>
        <time>2014-03-28T09:43:40Z</time>
      </trkpt>
      <trkpt lat="43.77664" lon="3.81171">
        <ele>516.37</ele>
        <time>2014-03-28T09:44:01Z</time>
      </trkpt>
      <trkpt lat="43.77666" lon="3.81184">
        <ele>517.81</ele>
        <time>2014-03-28T09:44:12Z</time>
      </trkpt>
      <trkpt lat="43.77669" lon="3.81203">
        <ele>520.69</ele>
        <time>2014-03-28T09:44:30Z</time>
      </trkpt>
      <trkpt lat="43.7767" lon="3.81207">
        <ele>521.17</ele>
        <time>2014-03-28T09:44:34Z</time>
      </trkpt>
      <trkpt lat="43.77673" lon="3.81226">
        <ele>524.54</ele>
        <time>2014-03-28T09:44:52Z</time>
      </trkpt>
      <trkpt lat="43.77674" lon="3.81237">
        <ele>526.46</ele>
        <time>2014-03-28T09:45:02Z</time>
      </trkpt>
      <trkpt lat="43.77675" lon="3.81241">
        <ele>526.46</ele>
        <time>2014-03-28T09:45:06Z</time>
      </trkpt>
      <trkpt lat="43.77674" lon="3.81257">
        <ele>528.38</ele>
        <time>2014-03-28T09:45:25Z</time>
      </trkpt>
      <trkpt lat="43.77675" lon="3.81258">
        <ele>527.9</ele>
        <time>2014-03-28T09:46:03Z</time>
      </trkpt>
      <trkpt lat="43.77675" lon="3.81259">
        <ele>528.38</ele>
        <time>2014-03-28T09:46:28Z</time>
      </trkpt>
      <trkpt lat="43.77676" lon="3.8126">
        <ele>534.15</ele>
        <time>2014-03-28T09:46:45Z</time>
      </trkpt>
      <trkpt lat="43.77676" lon="3.8126">
        <ele>529.82</ele>
        <time>2014-03-28T09:46:46Z</time>
      </trkpt>
      <trkpt lat="43.77675" lon="3.8126">
        <ele>525.5</ele>
        <time>2014-03-28T09:46:47Z</time>
      </trkpt>
      <trkpt lat="43.77675" lon="3.8126">
        <ele>521.17</ele>
        <time>2014-03-28T09:46:48Z</time>
      </trkpt>
      <trkpt lat="43.77675" lon="3.8126">
        <ele>528.86</ele>
        <time>2014-03-28T09:46:49Z</time>
      </trkpt>
      <trkpt lat="43.77675" lon="3.8126">
        <ele>527.9</ele>
        <time>2014-03-28T09:46:50Z</time>
      </trkpt>
      <trkpt lat="43.77675" lon="3.8126">
        <ele>516.37</ele>
        <time>2014-03-28T09:46:52Z</time>
      </trkpt>
      <trkpt lat="43.77675" lon="3.8126">
        <ele>531.75</ele>
        <time>2014-03-28T09:46:53Z</time>
      </trkpt>
      <trkpt lat="43.77675" lon="3.8126">
        <ele>527.9</ele>
        <time>2014-03-28T09:46:54Z</time>
      </trkpt>
      <trkpt lat="43.77675" lon="3.8126">
        <ele>532.23</ele>
        <time>2014-03-28T09:46:55Z</time>
      </trkpt>
      <trkpt lat="43.77675" lon="3.8126">
        <ele>527.9</ele>
        <time>2014-03-28T09:46:56Z</time>
      </trkpt>
      <trkpt lat="43.77676" lon="3.8126">
        <ele>520.69</ele>
        <time>2014-03-28T09:47:01Z</time>
      </trkpt>
      <trkpt lat="43.77676" lon="3.81261">
        <ele>527.9</ele>
        <time>2014-03-28T09:47:02Z</time>
      </trkpt>
      <trkpt lat="43.77676" lon="3.81261">
        <ele>523.58</ele>
        <time>2014-03-28T09:47:25Z</time>
      </trkpt>
      <trkpt lat="43.77676" lon="3.81261">
        <ele>527.9</ele>
        <time>2014-03-28T09:47:26Z</time>
      </trkpt>
      <trkpt lat="43.77676" lon="3.81262">
        <ele>527.42</ele>
        <time>2014-03-28T09:47:30Z</time>
      </trkpt>
      <trkpt lat="43.77676" lon="3.81263">
        <ele>528.86</ele>
        <time>2014-03-28T09:47:47Z</time>
      </trkpt>
      <trkpt lat="43.7767" lon="3.81276">
        <ele>529.34</ele>
        <time>2014-03-28T09:48:00Z</time>
      </trkpt>
      <trkpt lat="43.77666" lon="3.8129">
        <ele>531.27</ele>
        <time>2014-03-28T09:48:14Z</time>
      </trkpt>
      <trkpt lat="43.77665" lon="3.8131">
        <ele>535.11</ele>
        <time>2014-03-28T09:48:32Z</time>
      </trkpt>
      <trkpt lat="43.77663" lon="3.81327">
        <ele>536.07</ele>
        <time>2014-03-28T09:48:47Z</time>
      </trkpt>
      <trkpt lat="43.77663" lon="3.81338">
        <ele>538.48</ele>
        <time>2014-03-28T09:48:59Z</time>
      </trkpt>
      <trkpt lat="43.77664" lon="3.81353">
        <ele>539.92</ele>
        <time>2014-03-28T09:49:13Z</time>
      </trkpt>
      <trkpt lat="43.77665" lon="3.81355">
        <ele>540.4</ele>
        <time>2014-03-28T09:49:15Z</time>
      </trkpt>
      <trkpt lat="43.77673" lon="3.8137">
        <ele>541.84</ele>
        <time>2014-03-28T09:49:29Z</time>
      </trkpt>
      <trkpt lat="43.77687" lon="3.81375">
        <ele>545.2</ele>
        <time>2014-03-28T09:49:47Z</time>
      </trkpt>
      <trkpt lat="43.77697" lon="3.81382">
        <ele>547.13</ele>
        <time>2014-03-28T09:50:04Z</time>
      </trkpt>
      <trkpt lat="43.77699" lon="3.81381">
        <ele>547.61</ele>
        <time>2014-03-28T09:50:10Z</time>
      </trkpt>
      <trkpt lat="43.77706" lon="3.81378">
        <ele>549.53</ele>
        <time>2014-03-28T09:50:28Z</time>
      </trkpt>
      <trkpt lat="43.77713" lon="3.81377">
        <ele>552.41</ele>
        <time>2014-03-28T09:50:43Z</time>
      </trkpt>
      <trkpt lat="43.77719" lon="3.81375">
        <ele>554.82</ele>
        <time>2014-03-28T09:50:58Z</time>
      </trkpt>
      <trkpt lat="43.77725" lon="3.81368">
        <ele>558.18</ele>
        <time>2014-03-28T09:51:13Z</time>
      </trkpt>
      <trkpt lat="43.77732" lon="3.81366">
        <ele>560.59</ele>
        <time>2014-03-28T09:51:28Z</time>
      </trkpt>
      <trkpt lat="43.77735" lon="3.81368">
        <ele>563.47</ele>
        <time>2014-03-28T09:51:41Z</time>
      </trkpt>
      <trkpt lat="43.77739" lon="3.81379">
        <ele>564.43</ele>
        <time>2014-03-28T09:51:57Z</time>
      </trkpt>
      <trkpt lat="43.77743" lon="3.81372">
        <ele>566.83</ele>
        <time>2014-03-28T09:52:12Z</time>
      </trkpt>
      <trkpt lat="43.77743" lon="3.81371">
        <ele>567.32</ele>
        <time>2014-03-28T09:52:13Z</time>
      </trkpt>
      <trkpt lat="43.77744" lon="3.81357">
        <ele>568.76</ele>
        <time>2014-03-28T09:52:27Z</time>
      </trkpt>
      <trkpt lat="43.77748" lon="3.81341">
        <ele>570.68</ele>
        <time>2014-03-28T09:52:43Z</time>
      </trkpt>
      <trkpt lat="43.77752" lon="3.81326">
        <ele>572.12</ele>
        <time>2014-03-28T09:52:58Z</time>
      </trkpt>
      <trkpt lat="43.77756" lon="3.81313">
        <ele>574.04</ele>
        <time>2014-03-28T09:53:12Z</time>
      </trkpt>
      <trkpt lat="43.77759" lon="3.813">
        <ele>575.49</ele>
        <time>2014-03-28T09:53:26Z</time>
      </trkpt>
      <trkpt lat="43.77762" lon="3.81306">
        <ele>578.37</ele>
        <time>2014-03-28T09:53:41Z</time>
      </trkpt>
      <trkpt lat="43.77766" lon="3.81302">
        <ele>579.81</ele>
        <time>2014-03-28T09:53:52Z</time>
      </trkpt>
      <trkpt lat="43.77766" lon="3.81299">
        <ele>580.29</ele>
        <time>2014-03-28T09:53:55Z</time>
      </trkpt>
      <trkpt lat="43.77769" lon="3.81293">
        <ele>581.25</ele>
        <time>2014-03-28T09:54:11Z</time>
      </trkpt>
      <trkpt lat="43.77773" lon="3.81282">
        <ele>583.18</ele>
        <time>2014-03-28T09:54:29Z</time>
      </trkpt>
      <trkpt lat="43.77775" lon="3.81275">
        <ele>583.66</ele>
        <time>2014-03-28T09:54:36Z</time>
      </trkpt>
      <trkpt lat="43.7778" lon="3.81267">
        <ele>587.5</ele>
        <time>2014-03-28T09:54:53Z</time>
      </trkpt>
      <trkpt lat="43.77784" lon="3.81277">
        <ele>589.91</ele>
        <time>2014-03-28T09:55:09Z</time>
      </trkpt>
      <trkpt lat="43.77785" lon="3.81284">
        <ele>590.39</ele>
        <time>2014-03-28T09:55:16Z</time>
      </trkpt>
      <trkpt lat="43.77789" lon="3.81283">
        <ele>592.79</ele>
        <time>2014-03-28T09:55:32Z</time>
      </trkpt>
      <trkpt lat="43.77792" lon="3.81272">
        <ele>594.23</ele>
        <time>2014-03-28T09:55:43Z</time>
      </trkpt>
      <trkpt lat="43.77793" lon="3.81259">
        <ele>594.71</ele>
        <time>2014-03-28T09:55:52Z</time>
      </trkpt>
      <trkpt lat="43.77795" lon="3.81253">
        <ele>595.67</ele>
        <time>2014-03-28T09:55:57Z</time>
      </trkpt>
      <trkpt lat="43.77793" lon="3.81234">
        <ele>597.12</ele>
        <time>2014-03-28T09:56:14Z</time>
      </trkpt>
      <trkpt lat="43.77796" lon="3.81226">
        <ele>599.52</ele>
        <time>2014-03-28T09:56:30Z</time>
      </trkpt>
      <trkpt lat="43.77796" lon="3.81229">
        <ele>600</ele>
        <time>2014-03-28T09:56:35Z</time>
      </trkpt>
      <trkpt lat="43.77801" lon="3.81238">
        <ele>601.44</ele>
        <time>2014-03-28T09:56:47Z</time>
      </trkpt>
      <trkpt lat="43.77805" lon="3.81256">
        <ele>603.36</ele>
        <time>2014-03-28T09:57:04Z</time>
      </trkpt>
      <trkpt lat="43.77808" lon="3.81256">
        <ele>604.81</ele>
        <time>2014-03-28T09:57:13Z</time>
      </trkpt>
      <trkpt lat="43.77812" lon="3.81251">
        <ele>607.21</ele>
        <time>2014-03-28T09:57:29Z</time>
      </trkpt>
      <trkpt lat="43.77816" lon="3.81249">
        <ele>610.57</ele>
        <time>2014-03-28T09:57:45Z</time>
      </trkpt>
      <trkpt lat="43.7782" lon="3.81244">
        <ele>612.98</ele>
        <time>2014-03-28T09:58:02Z</time>
      </trkpt>
      <trkpt lat="43.77823" lon="3.81241">
        <ele>616.34</ele>
        <time>2014-03-28T09:58:18Z</time>
      </trkpt>
      <trkpt lat="43.77828" lon="3.81234">
        <ele>618.75</ele>
        <time>2014-03-28T09:58:34Z</time>
      </trkpt>
      <trkpt lat="43.77831" lon="3.81235">
        <ele>621.15</ele>
        <time>2014-03-28T09:58:46Z</time>
      </trkpt>
      <trkpt lat="43.77833" lon="3.8124">
        <ele>622.11</ele>
        <time>2014-03-28T09:58:52Z</time>
      </trkpt>
      <trkpt lat="43.77838" lon="3.81241">
        <ele>624.99</ele>
        <time>2014-03-28T09:59:08Z</time>
      </trkpt>
      <trkpt lat="43.77842" lon="3.81236">
        <ele>626.92</ele>
        <time>2014-03-28T09:59:23Z</time>
      </trkpt>
      <trkpt lat="43.77843" lon="3.81231">
        <ele>628.36</ele>
        <time>2014-03-28T09:59:39Z</time>
      </trkpt>
      <trkpt lat="43.77849" lon="3.81222">
        <ele>631.24</ele>
        <time>2014-03-28T09:59:55Z</time>
      </trkpt>
      <trkpt lat="43.77855" lon="3.81217">
        <ele>634.13</ele>
        <time>2014-03-28T10:00:10Z</time>
      </trkpt>
      <trkpt lat="43.77856" lon="3.81217">
        <ele>634.13</ele>
        <time>2014-03-28T10:00:11Z</time>
      </trkpt>
      <trkpt lat="43.77853" lon="3.81201">
        <ele>637.01</ele>
        <time>2014-03-28T10:00:30Z</time>
      </trkpt>
      <trkpt lat="43.77851" lon="3.81185">
        <ele>639.89</ele>
        <time>2014-03-28T10:00:47Z</time>
      </trkpt>
      <trkpt lat="43.77849" lon="3.81173">
        <ele>641.82</ele>
        <time>2014-03-28T10:00:59Z</time>
      </trkpt>
      <trkpt lat="43.77851" lon="3.81159">
        <ele>645.18</ele>
        <time>2014-03-28T10:01:17Z</time>
      </trkpt>
      <trkpt lat="43.77855" lon="3.81158">
        <ele>647.1</ele>
        <time>2014-03-28T10:01:32Z</time>
      </trkpt>
      <trkpt lat="43.7786" lon="3.81155">
        <ele>649.03</ele>
        <time>2014-03-28T10:01:47Z</time>
      </trkpt>
      <trkpt lat="43.77862" lon="3.81154">
        <ele>649.99</ele>
        <time>2014-03-28T10:01:57Z</time>
      </trkpt>
      <trkpt lat="43.77864" lon="3.81154">
        <ele>651.91</ele>
        <time>2014-03-28T10:02:04Z</time>
      </trkpt>
      <trkpt lat="43.77871" lon="3.81154">
        <ele>655.76</ele>
        <time>2014-03-28T10:02:21Z</time>
      </trkpt>
      <trkpt lat="43.77878" lon="3.8116">
        <ele>658.16</ele>
        <time>2014-03-28T10:02:37Z</time>
      </trkpt>
      <trkpt lat="43.77879" lon="3.81157">
        <ele>659.12</ele>
        <time>2014-03-28T10:02:42Z</time>
      </trkpt>
      <trkpt lat="43.77883" lon="3.81149">
        <ele>662.01</ele>
        <time>2014-03-28T10:03:02Z</time>
      </trkpt>
      <trkpt lat="43.77887" lon="3.81152">
        <ele>662.49</ele>
        <time>2014-03-28T10:03:19Z</time>
      </trkpt>
      <trkpt lat="43.7789" lon="3.81157">
        <ele>662.49</ele>
        <time>2014-03-28T10:03:44Z</time>
      </trkpt>
      <trkpt lat="43.77895" lon="3.81161">
        <ele>662.49</ele>
        <time>2014-03-28T10:04:16Z</time>
      </trkpt>
      <trkpt lat="43.77888" lon="3.81151">
        <ele>662.49</ele>
        <time>2014-03-28T10:04:43Z</time>
      </trkpt>
      <trkpt lat="43.77896" lon="3.81153">
        <ele>664.89</ele>
        <time>2014-03-28T10:04:58Z</time>
      </trkpt>
      <trkpt lat="43.77897" lon="3.81142">
        <ele>665.85</ele>
        <time>2014-03-28T10:05:13Z</time>
      </trkpt>
      <trkpt lat="43.779" lon="3.81143">
        <ele>666.81</ele>
        <time>2014-03-28T10:05:25Z</time>
      </trkpt>
      <trkpt lat="43.779" lon="3.81142">
        <ele>666.81</ele>
        <time>2014-03-28T10:05:49Z</time>
      </trkpt>
      <trkpt lat="43.77902" lon="3.81154">
        <ele>666.81</ele>
        <time>2014-03-28T10:06:08Z</time>
      </trkpt>
      <trkpt lat="43.77903" lon="3.8116">
        <ele>666.81</ele>
        <time>2014-03-28T10:06:26Z</time>
      </trkpt>
      <trkpt lat="43.77903" lon="3.8116">
        <ele>666.33</ele>
        <time>2014-03-28T10:06:59Z</time>
      </trkpt>
      <trkpt lat="43.77903" lon="3.81161">
        <ele>665.85</ele>
        <time>2014-03-28T10:07:34Z</time>
      </trkpt>
      <trkpt lat="43.77904" lon="3.81163">
        <ele>666.33</ele>
        <time>2014-03-28T10:07:59Z</time>
      </trkpt>
      <trkpt lat="43.77906" lon="3.81162">
        <ele>666.33</ele>
        <time>2014-03-28T10:08:51Z</time>
      </trkpt>
      <trkpt lat="43.77905" lon="3.81163">
        <ele>666.33</ele>
        <time>2014-03-28T10:09:34Z</time>
      </trkpt>
      <trkpt lat="43.77905" lon="3.81163">
        <ele>665.37</ele>
        <time>2014-03-28T10:09:56Z</time>
      </trkpt>
      <trkpt lat="43.77904" lon="3.81158">
        <ele>663.93</ele>
        <time>2014-03-28T10:10:13Z</time>
      </trkpt>
      <trkpt lat="43.77903" lon="3.81157">
        <ele>663.93</ele>
        <time>2014-03-28T10:11:06Z</time>
      </trkpt>
      <trkpt lat="43.77902" lon="3.81157">
        <ele>663.45</ele>
        <time>2014-03-28T10:12:00Z</time>
      </trkpt>
      <trkpt lat="43.77902" lon="3.81156">
        <ele>662.97</ele>
        <time>2014-03-28T10:12:40Z</time>
      </trkpt>
      <trkpt lat="43.77903" lon="3.81156">
        <ele>662.49</ele>
        <time>2014-03-28T10:13:17Z</time>
      </trkpt>
      <trkpt lat="43.77904" lon="3.81157">
        <ele>662.01</ele>
        <time>2014-03-28T10:14:06Z</time>
      </trkpt>
      <trkpt lat="43.77904" lon="3.81158">
        <ele>662.49</ele>
        <time>2014-03-28T10:14:50Z</time>
      </trkpt>
      <trkpt lat="43.77905" lon="3.81159">
        <ele>662.49</ele>
        <time>2014-03-28T10:15:33Z</time>
      </trkpt>
      <trkpt lat="43.77905" lon="3.81159">
        <ele>662.01</ele>
        <time>2014-03-28T10:16:20Z</time>
      </trkpt>
      <trkpt lat="43.77905" lon="3.8116">
        <ele>662.01</ele>
        <time>2014-03-28T10:17:02Z</time>
      </trkpt>
      <trkpt lat="43.77906" lon="3.81159">
        <ele>661.52</ele>
        <time>2014-03-28T10:17:45Z</time>
      </trkpt>
      <trkpt lat="43.77907" lon="3.8116">
        <ele>661.52</ele>
        <time>2014-03-28T10:18:26Z</time>
      </trkpt>
      <trkpt lat="43.77907" lon="3.8116">
        <ele>660.56</ele>
        <time>2014-03-28T10:19:08Z</time>
      </trkpt>
      <trkpt lat="43.77907" lon="3.81161">
        <ele>660.08</ele>
        <time>2014-03-28T10:19:49Z</time>
      </trkpt>
      <trkpt lat="43.77907" lon="3.81162">
        <ele>659.6</ele>
        <time>2014-03-28T10:20:30Z</time>
      </trkpt>
      <trkpt lat="43.77907" lon="3.81162">
        <ele>659.6</ele>
        <time>2014-03-28T10:21:02Z</time>
      </trkpt>
      <trkpt lat="43.77907" lon="3.81162">
        <ele>659.6</ele>
        <time>2014-03-28T10:21:33Z</time>
      </trkpt>
      <trkpt lat="43.77903" lon="3.81157">
        <ele>659.12</ele>
        <time>2014-03-28T10:22:10Z</time>
      </trkpt>
      <trkpt lat="43.77903" lon="3.81157">
        <ele>659.6</ele>
        <time>2014-03-28T10:22:46Z</time>
      </trkpt>
      <trkpt lat="43.77903" lon="3.81157">
        <ele>659.6</ele>
        <time>2014-03-28T10:22:48Z</time>
      </trkpt>
      <trkpt lat="43.77904" lon="3.81156">
        <ele>660.08</ele>
        <time>2014-03-28T10:23:07Z</time>
      </trkpt>
      <trkpt lat="43.77901" lon="3.81144">
        <ele>659.6</ele>
        <time>2014-03-28T10:23:24Z</time>
      </trkpt>
      <trkpt lat="43.779" lon="3.81136">
        <ele>658.64</ele>
        <time>2014-03-28T10:23:43Z</time>
      </trkpt>
      <trkpt lat="43.77898" lon="3.8113">
        <ele>659.12</ele>
        <time>2014-03-28T10:23:51Z</time>
      </trkpt>
      <trkpt lat="43.77896" lon="3.8112">
        <ele>660.56</ele>
        <time>2014-03-28T10:24:07Z</time>
      </trkpt>
      <trkpt lat="43.77893" lon="3.81118">
        <ele>661.04</ele>
        <time>2014-03-28T10:24:23Z</time>
      </trkpt>
      <trkpt lat="43.7789" lon="3.81112">
        <ele>660.56</ele>
        <time>2014-03-28T10:24:41Z</time>
      </trkpt>
      <trkpt lat="43.77889" lon="3.81112">
        <ele>660.56</ele>
        <time>2014-03-28T10:25:17Z</time>
      </trkpt>
      <trkpt lat="43.77889" lon="3.81112">
        <ele>660.56</ele>
        <time>2014-03-28T10:25:32Z</time>
      </trkpt>
      <trkpt lat="43.77888" lon="3.81115">
        <ele>661.04</ele>
        <time>2014-03-28T10:25:54Z</time>
      </trkpt>
      <trkpt lat="43.77887" lon="3.81115">
        <ele>660.08</ele>
        <time>2014-03-28T10:26:26Z</time>
      </trkpt>
      <trkpt lat="43.77888" lon="3.81117">
        <ele>659.12</ele>
        <time>2014-03-28T10:26:58Z</time>
      </trkpt>
      <trkpt lat="43.77891" lon="3.81128">
        <ele>658.16</ele>
        <time>2014-03-28T10:27:15Z</time>
      </trkpt>
      <trkpt lat="43.77894" lon="3.8113">
        <ele>657.68</ele>
        <time>2014-03-28T10:27:29Z</time>
      </trkpt>
      <trkpt lat="43.779" lon="3.81139">
        <ele>658.16</ele>
        <time>2014-03-28T10:27:43Z</time>
      </trkpt>
      <trkpt lat="43.779" lon="3.81139">
        <ele>658.16</ele>
        <time>2014-03-28T10:27:48Z</time>
      </trkpt>
      <trkpt lat="43.77902" lon="3.8114">
        <ele>659.12</ele>
        <time>2014-03-28T10:27:53Z</time>
      </trkpt>
      <trkpt lat="43.77904" lon="3.81167">
        <ele>659.6</ele>
        <time>2014-03-28T10:28:13Z</time>
      </trkpt>
      <trkpt lat="43.77907" lon="3.81179">
        <ele>660.56</ele>
        <time>2014-03-28T10:28:33Z</time>
      </trkpt>
      <trkpt lat="43.77909" lon="3.81189">
        <ele>660.56</ele>
        <time>2014-03-28T10:28:47Z</time>
      </trkpt>
      <trkpt lat="43.77908" lon="3.81191">
        <ele>659.12</ele>
        <time>2014-03-28T10:29:04Z</time>
      </trkpt>
      <trkpt lat="43.77907" lon="3.81192">
        <ele>659.12</ele>
        <time>2014-03-28T10:29:21Z</time>
      </trkpt>
      <trkpt lat="43.77905" lon="3.81194">
        <ele>658.16</ele>
        <time>2014-03-28T10:29:43Z</time>
      </trkpt>
      <trkpt lat="43.77904" lon="3.81195">
        <ele>658.64</ele>
        <time>2014-03-28T10:30:05Z</time>
      </trkpt>
      <trkpt lat="43.77904" lon="3.81196">
        <ele>658.64</ele>
        <time>2014-03-28T10:30:25Z</time>
      </trkpt>
      <trkpt lat="43.77903" lon="3.81194">
        <ele>657.68</ele>
        <time>2014-03-28T10:30:47Z</time>
      </trkpt>
      <trkpt lat="43.77903" lon="3.81195">
        <ele>651.43</ele>
        <time>2014-03-28T10:30:50Z</time>
      </trkpt>
      <trkpt lat="43.77903" lon="3.81195">
        <ele>655.28</ele>
        <time>2014-03-28T10:30:51Z</time>
      </trkpt>
      <trkpt lat="43.77903" lon="3.81195">
        <ele>659.12</ele>
        <time>2014-03-28T10:30:52Z</time>
      </trkpt>
      <trkpt lat="43.77903" lon="3.81195">
        <ele>659.12</ele>
        <time>2014-03-28T10:30:53Z</time>
      </trkpt>
      <trkpt lat="43.77903" lon="3.81195">
        <ele>648.55</ele>
        <time>2014-03-28T10:30:55Z</time>
      </trkpt>
      <trkpt lat="43.77903" lon="3.81195">
        <ele>662.97</ele>
        <time>2014-03-28T10:30:56Z</time>
      </trkpt>
      <trkpt lat="43.77903" lon="3.81195">
        <ele>656.24</ele>
        <time>2014-03-28T10:30:57Z</time>
      </trkpt>
      <trkpt lat="43.77903" lon="3.81195">
        <ele>666.81</ele>
        <time>2014-03-28T10:30:58Z</time>
      </trkpt>
      <trkpt lat="43.77903" lon="3.81195">
        <ele>653.83</ele>
        <time>2014-03-28T10:30:59Z</time>
      </trkpt>
      <trkpt lat="43.77903" lon="3.81195">
        <ele>666.81</ele>
        <time>2014-03-28T10:31:00Z</time>
      </trkpt>
      <trkpt lat="43.77903" lon="3.81195">
        <ele>660.08</ele>
        <time>2014-03-28T10:31:01Z</time>
      </trkpt>
      <trkpt lat="43.77903" lon="3.81195">
        <ele>647.1</ele>
        <time>2014-03-28T10:31:03Z</time>
      </trkpt>
      <trkpt lat="43.77903" lon="3.81195">
        <ele>659.6</ele>
        <time>2014-03-28T10:31:04Z</time>
      </trkpt>
      <trkpt lat="43.77904" lon="3.81195">
        <ele>671.14</ele>
        <time>2014-03-28T10:31:08Z</time>
      </trkpt>
      <trkpt lat="43.77904" lon="3.81195">
        <ele>659.6</ele>
        <time>2014-03-28T10:31:09Z</time>
      </trkpt>
      <trkpt lat="43.77904" lon="3.81195">
        <ele>658.64</ele>
        <time>2014-03-28T10:31:11Z</time>
      </trkpt>
      <trkpt lat="43.77906" lon="3.81197">
        <ele>658.64</ele>
        <time>2014-03-28T10:31:30Z</time>
      </trkpt>
      <trkpt lat="43.77909" lon="3.81199">
        <ele>660.56</ele>
        <time>2014-03-28T10:31:46Z</time>
      </trkpt>
      <trkpt lat="43.77908" lon="3.812">
        <ele>660.08</ele>
        <time>2014-03-28T10:32:08Z</time>
      </trkpt>
      <trkpt lat="43.77908" lon="3.81199">
        <ele>659.6</ele>
        <time>2014-03-28T10:32:13Z</time>
      </trkpt>
      <trkpt lat="43.77911" lon="3.81215">
        <ele>661.04</ele>
        <time>2014-03-28T10:32:31Z</time>
      </trkpt>
      <trkpt lat="43.77909" lon="3.81221">
        <ele>660.08</ele>
        <time>2014-03-28T10:32:43Z</time>
      </trkpt>
      <trkpt lat="43.77904" lon="3.81232">
        <ele>659.6</ele>
        <time>2014-03-28T10:32:58Z</time>
      </trkpt>
      <trkpt lat="43.77908" lon="3.81245">
        <ele>661.04</ele>
        <time>2014-03-28T10:33:14Z</time>
      </trkpt>
      <trkpt lat="43.77906" lon="3.81251">
        <ele>660.56</ele>
        <time>2014-03-28T10:33:29Z</time>
      </trkpt>
      <trkpt lat="43.77906" lon="3.81258">
        <ele>661.04</ele>
        <time>2014-03-28T10:33:48Z</time>
      </trkpt>
      <trkpt lat="43.77906" lon="3.81268">
        <ele>661.04</ele>
        <time>2014-03-28T10:34:04Z</time>
      </trkpt>
      <trkpt lat="43.77906" lon="3.81272">
        <ele>665.85</ele>
        <time>2014-03-28T10:34:20Z</time>
      </trkpt>
      <trkpt lat="43.77906" lon="3.81272">
        <ele>660.56</ele>
        <time>2014-03-28T10:34:21Z</time>
      </trkpt>
      <trkpt lat="43.77906" lon="3.81272">
        <ele>657.2</ele>
        <time>2014-03-28T10:34:24Z</time>
      </trkpt>
      <trkpt lat="43.77906" lon="3.81272">
        <ele>660.08</ele>
        <time>2014-03-28T10:34:25Z</time>
      </trkpt>
      <trkpt lat="43.77906" lon="3.81273">
        <ele>664.89</ele>
        <time>2014-03-28T10:34:29Z</time>
      </trkpt>
      <trkpt lat="43.77906" lon="3.81273">
        <ele>657.68</ele>
        <time>2014-03-28T10:34:30Z</time>
      </trkpt>
      <trkpt lat="43.77906" lon="3.81273">
        <ele>659.6</ele>
        <time>2014-03-28T10:34:31Z</time>
      </trkpt>
      <trkpt lat="43.77906" lon="3.81273">
        <ele>662.97</ele>
        <time>2014-03-28T10:34:33Z</time>
      </trkpt>
      <trkpt lat="43.77906" lon="3.81273">
        <ele>660.56</ele>
        <time>2014-03-28T10:34:35Z</time>
      </trkpt>
      <trkpt lat="43.77906" lon="3.81273">
        <ele>658.64</ele>
        <time>2014-03-28T10:34:37Z</time>
      </trkpt>
      <trkpt lat="43.77906" lon="3.81273">
        <ele>654.31</ele>
        <time>2014-03-28T10:34:38Z</time>
      </trkpt>
      <trkpt lat="43.77906" lon="3.81273">
        <ele>661.04</ele>
        <time>2014-03-28T10:34:39Z</time>
      </trkpt>
      <trkpt lat="43.77906" lon="3.81273">
        <ele>661.04</ele>
        <time>2014-03-28T10:34:40Z</time>
      </trkpt>
      <trkpt lat="43.77906" lon="3.81273">
        <ele>647.1</ele>
        <time>2014-03-28T10:34:41Z</time>
      </trkpt>
      <trkpt lat="43.77906" lon="3.81273">
        <ele>662.01</ele>
        <time>2014-03-28T10:34:42Z</time>
      </trkpt>
      <trkpt lat="43.77906" lon="3.81273">
        <ele>658.64</ele>
        <time>2014-03-28T10:34:45Z</time>
      </trkpt>
      <trkpt lat="43.77906" lon="3.81273">
        <ele>655.28</ele>
        <time>2014-03-28T10:34:48Z</time>
      </trkpt>
      <trkpt lat="43.77906" lon="3.81273">
        <ele>662.01</ele>
        <time>2014-03-28T10:34:49Z</time>
      </trkpt>
      <trkpt lat="43.77906" lon="3.81273">
        <ele>658.64</ele>
        <time>2014-03-28T10:34:53Z</time>
      </trkpt>
      <trkpt lat="43.77906" lon="3.81273">
        <ele>662.01</ele>
        <time>2014-03-28T10:34:55Z</time>
      </trkpt>
      <trkpt lat="43.77906" lon="3.81273">
        <ele>656.72</ele>
        <time>2014-03-28T10:34:56Z</time>
      </trkpt>
      <trkpt lat="43.77906" lon="3.81273">
        <ele>660.56</ele>
        <time>2014-03-28T10:34:57Z</time>
      </trkpt>
      <trkpt lat="43.77907" lon="3.81273">
        <ele>660.08</ele>
        <time>2014-03-28T10:35:22Z</time>
      </trkpt>
      <trkpt lat="43.77907" lon="3.81273">
        <ele>660.08</ele>
        <time>2014-03-28T10:35:55Z</time>
      </trkpt>
      <trkpt lat="43.77907" lon="3.81273">
        <ele>660.08</ele>
        <time>2014-03-28T10:36:29Z</time>
      </trkpt>
      <trkpt lat="43.77907" lon="3.81277">
        <ele>660.56</ele>
        <time>2014-03-28T10:36:51Z</time>
      </trkpt>
      <trkpt lat="43.77906" lon="3.81277">
        <ele>660.56</ele>
        <time>2014-03-28T10:37:05Z</time>
      </trkpt>
      <trkpt lat="43.77906" lon="3.81289">
        <ele>658.64</ele>
        <time>2014-03-28T10:37:20Z</time>
      </trkpt>
      <trkpt lat="43.77905" lon="3.81304">
        <ele>656.72</ele>
        <time>2014-03-28T10:37:40Z</time>
      </trkpt>
      <trkpt lat="43.77906" lon="3.81317">
        <ele>655.76</ele>
        <time>2014-03-28T10:38:04Z</time>
      </trkpt>
      <trkpt lat="43.77909" lon="3.81323">
        <ele>656.72</ele>
        <time>2014-03-28T10:38:15Z</time>
      </trkpt>
      <trkpt lat="43.77911" lon="3.81332">
        <ele>654.8</ele>
        <time>2014-03-28T10:38:34Z</time>
      </trkpt>
      <trkpt lat="43.77913" lon="3.81334">
        <ele>653.35</ele>
        <time>2014-03-28T10:38:56Z</time>
      </trkpt>
      <trkpt lat="43.77915" lon="3.81337">
        <ele>653.35</ele>
        <time>2014-03-28T10:39:13Z</time>
      </trkpt>
      <trkpt lat="43.77915" lon="3.81342">
        <ele>652.87</ele>
        <time>2014-03-28T10:39:31Z</time>
      </trkpt>
      <trkpt lat="43.77917" lon="3.81347">
        <ele>651.91</ele>
        <time>2014-03-28T10:39:57Z</time>
      </trkpt>
      <trkpt lat="43.77919" lon="3.81359">
        <ele>649.99</ele>
        <time>2014-03-28T10:40:17Z</time>
      </trkpt>
      <trkpt lat="43.77919" lon="3.8137">
        <ele>649.51</ele>
        <time>2014-03-28T10:40:34Z</time>
      </trkpt>
      <trkpt lat="43.7792" lon="3.81374">
        <ele>649.99</ele>
        <time>2014-03-28T10:40:53Z</time>
      </trkpt>
      <trkpt lat="43.77919" lon="3.81374">
        <ele>650.47</ele>
        <time>2014-03-28T10:41:12Z</time>
      </trkpt>
      <trkpt lat="43.77919" lon="3.81376">
        <ele>649.99</ele>
        <time>2014-03-28T10:41:36Z</time>
      </trkpt>
      <trkpt lat="43.77924" lon="3.81386">
        <ele>649.99</ele>
        <time>2014-03-28T10:41:56Z</time>
      </trkpt>
      <trkpt lat="43.77926" lon="3.81395">
        <ele>648.55</ele>
        <time>2014-03-28T10:42:11Z</time>
      </trkpt>
      <trkpt lat="43.77929" lon="3.81409">
        <ele>646.14</ele>
        <time>2014-03-28T10:42:27Z</time>
      </trkpt>
      <trkpt lat="43.77929" lon="3.8141">
        <ele>646.14</ele>
        <time>2014-03-28T10:42:28Z</time>
      </trkpt>
      <trkpt lat="43.77924" lon="3.8142">
        <ele>644.22</ele>
        <time>2014-03-28T10:42:45Z</time>
      </trkpt>
      <trkpt lat="43.77921" lon="3.81428">
        <ele>643.74</ele>
        <time>2014-03-28T10:43:01Z</time>
      </trkpt>
      <trkpt lat="43.77919" lon="3.81442">
        <ele>642.78</ele>
        <time>2014-03-28T10:43:19Z</time>
      </trkpt>
      <trkpt lat="43.77917" lon="3.81454">
        <ele>643.26</ele>
        <time>2014-03-28T10:43:37Z</time>
      </trkpt>
      <trkpt lat="43.77918" lon="3.81456">
        <ele>643.26</ele>
        <time>2014-03-28T10:43:39Z</time>
      </trkpt>
      <trkpt lat="43.77919" lon="3.81476">
        <ele>644.22</ele>
        <time>2014-03-28T10:43:57Z</time>
      </trkpt>
      <trkpt lat="43.77921" lon="3.81487">
        <ele>645.18</ele>
        <time>2014-03-28T10:44:11Z</time>
      </trkpt>
      <trkpt lat="43.77921" lon="3.81489">
        <ele>644.7</ele>
        <time>2014-03-28T10:44:28Z</time>
      </trkpt>
      <trkpt lat="43.7792" lon="3.8149">
        <ele>645.18</ele>
        <time>2014-03-28T10:44:32Z</time>
      </trkpt>
      <trkpt lat="43.77922" lon="3.81498">
        <ele>644.22</ele>
        <time>2014-03-28T10:44:48Z</time>
      </trkpt>
      <trkpt lat="43.77918" lon="3.81497">
        <ele>642.3</ele>
        <time>2014-03-28T10:45:05Z</time>
      </trkpt>
      <trkpt lat="43.77916" lon="3.81505">
        <ele>641.82</ele>
        <time>2014-03-28T10:45:24Z</time>
      </trkpt>
      <trkpt lat="43.77916" lon="3.81509">
        <ele>643.26</ele>
        <time>2014-03-28T10:45:41Z</time>
      </trkpt>
      <trkpt lat="43.77917" lon="3.8151">
        <ele>644.22</ele>
        <time>2014-03-28T10:46:02Z</time>
      </trkpt>
      <trkpt lat="43.77923" lon="3.81527">
        <ele>644.22</ele>
        <time>2014-03-28T10:46:19Z</time>
      </trkpt>
      <trkpt lat="43.77923" lon="3.81531">
        <ele>645.18</ele>
        <time>2014-03-28T10:46:39Z</time>
      </trkpt>
      <trkpt lat="43.77923" lon="3.81531">
        <ele>646.14</ele>
        <time>2014-03-28T10:46:41Z</time>
      </trkpt>
      <trkpt lat="43.77923" lon="3.81531">
        <ele>647.1</ele>
        <time>2014-03-28T10:46:47Z</time>
      </trkpt>
      <trkpt lat="43.77923" lon="3.81532">
        <ele>642.78</ele>
        <time>2014-03-28T10:47:05Z</time>
      </trkpt>
      <trkpt lat="43.77924" lon="3.81532">
        <ele>643.74</ele>
        <time>2014-03-28T10:47:36Z</time>
      </trkpt>
      <trkpt lat="43.77923" lon="3.81533">
        <ele>643.26</ele>
        <time>2014-03-28T10:47:58Z</time>
      </trkpt>
      <trkpt lat="43.77922" lon="3.81534">
        <ele>642.78</ele>
        <time>2014-03-28T10:48:32Z</time>
      </trkpt>
      <trkpt lat="43.77922" lon="3.81534">
        <ele>642.78</ele>
        <time>2014-03-28T10:49:01Z</time>
      </trkpt>
      <trkpt lat="43.77922" lon="3.81539">
        <ele>639.89</ele>
        <time>2014-03-28T10:49:27Z</time>
      </trkpt>
      <trkpt lat="43.77921" lon="3.81541">
        <ele>639.41</ele>
        <time>2014-03-28T10:49:32Z</time>
      </trkpt>
      <trkpt lat="43.77919" lon="3.81549">
        <ele>636.53</ele>
        <time>2014-03-28T10:49:41Z</time>
      </trkpt>
      <trkpt lat="43.77914" lon="3.81565">
        <ele>635.09</ele>
        <time>2014-03-28T10:49:54Z</time>
      </trkpt>
      <trkpt lat="43.7791" lon="3.81571">
        <ele>633.17</ele>
        <time>2014-03-28T10:50:11Z</time>
      </trkpt>
      <trkpt lat="43.77907" lon="3.81581">
        <ele>630.76</ele>
        <time>2014-03-28T10:50:27Z</time>
      </trkpt>
      <trkpt lat="43.77906" lon="3.81584">
        <ele>629.8</ele>
        <time>2014-03-28T10:50:44Z</time>
      </trkpt>
      <trkpt lat="43.77905" lon="3.81589">
        <ele>626.92</ele>
        <time>2014-03-28T10:51:01Z</time>
      </trkpt>
      <trkpt lat="43.77905" lon="3.81589">
        <ele>626.92</ele>
        <time>2014-03-28T10:51:02Z</time>
      </trkpt>
      <trkpt lat="43.77902" lon="3.81589">
        <ele>623.55</ele>
        <time>2014-03-28T10:51:13Z</time>
      </trkpt>
      <trkpt lat="43.77902" lon="3.81591">
        <ele>621.63</ele>
        <time>2014-03-28T10:51:28Z</time>
      </trkpt>
      <trkpt lat="43.77902" lon="3.81594">
        <ele>618.26</ele>
        <time>2014-03-28T10:51:45Z</time>
      </trkpt>
      <trkpt lat="43.77902" lon="3.81598">
        <ele>614.42</ele>
        <time>2014-03-28T10:51:59Z</time>
      </trkpt>
      <trkpt lat="43.77902" lon="3.81598">
        <ele>614.42</ele>
        <time>2014-03-28T10:52:00Z</time>
      </trkpt>
      <trkpt lat="43.77902" lon="3.81601">
        <ele>612.02</ele>
        <time>2014-03-28T10:52:14Z</time>
      </trkpt>
      <trkpt lat="43.77901" lon="3.81605">
        <ele>611.06</ele>
        <time>2014-03-28T10:52:36Z</time>
      </trkpt>
      <trkpt lat="43.779" lon="3.81607">
        <ele>608.65</ele>
        <time>2014-03-28T10:53:06Z</time>
      </trkpt>
      <trkpt lat="43.77899" lon="3.81607">
        <ele>607.21</ele>
        <time>2014-03-28T10:53:11Z</time>
      </trkpt>
      <trkpt lat="43.77897" lon="3.81609">
        <ele>603.85</ele>
        <time>2014-03-28T10:53:32Z</time>
      </trkpt>
      <trkpt lat="43.77897" lon="3.8161">
        <ele>603.36</ele>
        <time>2014-03-28T10:53:42Z</time>
      </trkpt>
      <trkpt lat="43.77896" lon="3.81611">
        <ele>600</ele>
        <time>2014-03-28T10:53:58Z</time>
      </trkpt>
      <trkpt lat="43.77896" lon="3.81613">
        <ele>597.12</ele>
        <time>2014-03-28T10:54:17Z</time>
      </trkpt>
      <trkpt lat="43.77894" lon="3.8162">
        <ele>594.71</ele>
        <time>2014-03-28T10:54:25Z</time>
      </trkpt>
      <trkpt lat="43.77894" lon="3.8162">
        <ele>594.23</ele>
        <time>2014-03-28T10:54:49Z</time>
      </trkpt>
      <trkpt lat="43.77893" lon="3.81622">
        <ele>594.71</ele>
        <time>2014-03-28T10:55:07Z</time>
      </trkpt>
      <trkpt lat="43.77892" lon="3.81625">
        <ele>593.75</ele>
        <time>2014-03-28T10:55:34Z</time>
      </trkpt>
      <trkpt lat="43.77887" lon="3.8163">
        <ele>591.83</ele>
        <time>2014-03-28T10:55:52Z</time>
      </trkpt>
      <trkpt lat="43.77887" lon="3.81636">
        <ele>588.95</ele>
        <time>2014-03-28T10:56:08Z</time>
      </trkpt>
      <trkpt lat="43.77891" lon="3.81652">
        <ele>588.46</ele>
        <time>2014-03-28T10:56:27Z</time>
      </trkpt>
      <trkpt lat="43.77886" lon="3.81666">
        <ele>587.02</ele>
        <time>2014-03-28T10:56:47Z</time>
      </trkpt>
      <trkpt lat="43.77892" lon="3.81677">
        <ele>585.58</ele>
        <time>2014-03-28T10:57:07Z</time>
      </trkpt>
      <trkpt lat="43.77895" lon="3.81686">
        <ele>583.66</ele>
        <time>2014-03-28T10:57:24Z</time>
      </trkpt>
      <trkpt lat="43.77896" lon="3.81691">
        <ele>581.73</ele>
        <time>2014-03-28T10:57:42Z</time>
      </trkpt>
      <trkpt lat="43.77896" lon="3.81699">
        <ele>578.37</ele>
        <time>2014-03-28T10:57:58Z</time>
      </trkpt>
      <trkpt lat="43.77897" lon="3.81704">
        <ele>575.97</ele>
        <time>2014-03-28T10:58:09Z</time>
      </trkpt>
      <trkpt lat="43.77897" lon="3.8171">
        <ele>574.53</ele>
        <time>2014-03-28T10:58:29Z</time>
      </trkpt>
      <trkpt lat="43.77893" lon="3.8172">
        <ele>571.16</ele>
        <time>2014-03-28T10:58:47Z</time>
      </trkpt>
      <trkpt lat="43.77896" lon="3.81725">
        <ele>568.28</ele>
        <time>2014-03-28T10:59:03Z</time>
      </trkpt>
      <trkpt lat="43.77896" lon="3.81729">
        <ele>567.8</ele>
        <time>2014-03-28T10:59:08Z</time>
      </trkpt>
      <trkpt lat="43.77895" lon="3.81732">
        <ele>566.83</ele>
        <time>2014-03-28T10:59:10Z</time>
      </trkpt>
      <trkpt lat="43.7789" lon="3.81737">
        <ele>564.43</ele>
        <time>2014-03-28T10:59:27Z</time>
      </trkpt>
      <trkpt lat="43.77889" lon="3.81741">
        <ele>561.07</ele>
        <time>2014-03-28T10:59:45Z</time>
      </trkpt>
      <trkpt lat="43.77888" lon="3.81746">
        <ele>558.18</ele>
        <time>2014-03-28T10:59:55Z</time>
      </trkpt>
      <trkpt lat="43.77888" lon="3.81758">
        <ele>556.26</ele>
        <time>2014-03-28T11:00:13Z</time>
      </trkpt>
      <trkpt lat="43.77888" lon="3.81768">
        <ele>554.82</ele>
        <time>2014-03-28T11:00:33Z</time>
      </trkpt>
      <trkpt lat="43.77886" lon="3.81772">
        <ele>551.45</ele>
        <time>2014-03-28T11:00:43Z</time>
      </trkpt>
      <trkpt lat="43.77886" lon="3.81776">
        <ele>550.01</ele>
        <time>2014-03-28T11:01:03Z</time>
      </trkpt>
      <trkpt lat="43.77886" lon="3.81776">
        <ele>548.57</ele>
        <time>2014-03-28T11:01:10Z</time>
      </trkpt>
      <trkpt lat="43.77885" lon="3.81789">
        <ele>547.61</ele>
        <time>2014-03-28T11:01:27Z</time>
      </trkpt>
      <trkpt lat="43.77881" lon="3.81801">
        <ele>545.2</ele>
        <time>2014-03-28T11:01:48Z</time>
      </trkpt>
      <trkpt lat="43.7788" lon="3.81811">
        <ele>546.65</ele>
        <time>2014-03-28T11:02:09Z</time>
      </trkpt>
      <trkpt lat="43.7788" lon="3.81817">
        <ele>545.69</ele>
        <time>2014-03-28T11:02:28Z</time>
      </trkpt>
      <trkpt lat="43.7788" lon="3.81824">
        <ele>544.24</ele>
        <time>2014-03-28T11:02:42Z</time>
      </trkpt>
      <trkpt lat="43.77881" lon="3.81825">
        <ele>543.76</ele>
        <time>2014-03-28T11:03:04Z</time>
      </trkpt>
      <trkpt lat="43.77881" lon="3.81828">
        <ele>540.4</ele>
        <time>2014-03-28T11:03:20Z</time>
      </trkpt>
      <trkpt lat="43.77881" lon="3.8183">
        <ele>537.99</ele>
        <time>2014-03-28T11:03:27Z</time>
      </trkpt>
      <trkpt lat="43.77879" lon="3.81832">
        <ele>535.59</ele>
        <time>2014-03-28T11:03:43Z</time>
      </trkpt>
      <trkpt lat="43.77877" lon="3.81833">
        <ele>532.71</ele>
        <time>2014-03-28T11:04:00Z</time>
      </trkpt>
      <trkpt lat="43.77873" lon="3.81833">
        <ele>530.3</ele>
        <time>2014-03-28T11:04:10Z</time>
      </trkpt>
      <trkpt lat="43.77871" lon="3.81834">
        <ele>527.9</ele>
        <time>2014-03-28T11:04:21Z</time>
      </trkpt>
      <trkpt lat="43.77868" lon="3.81836">
        <ele>525.02</ele>
        <time>2014-03-28T11:04:31Z</time>
      </trkpt>
      <trkpt lat="43.77861" lon="3.81838">
        <ele>522.13</ele>
        <time>2014-03-28T11:04:46Z</time>
      </trkpt>
      <trkpt lat="43.77855" lon="3.81835">
        <ele>518.77</ele>
        <time>2014-03-28T11:04:56Z</time>
      </trkpt>
      <trkpt lat="43.77853" lon="3.81842">
        <ele>515.4</ele>
        <time>2014-03-28T11:05:11Z</time>
      </trkpt>
      <trkpt lat="43.77853" lon="3.81846">
        <ele>513.96</ele>
        <time>2014-03-28T11:05:15Z</time>
      </trkpt>
      <trkpt lat="43.77854" lon="3.81857">
        <ele>511.56</ele>
        <time>2014-03-28T11:05:34Z</time>
      </trkpt>
      <trkpt lat="43.77853" lon="3.81861">
        <ele>510.12</ele>
        <time>2014-03-28T11:05:52Z</time>
      </trkpt>
      <trkpt lat="43.77851" lon="3.81863">
        <ele>506.75</ele>
        <time>2014-03-28T11:06:07Z</time>
      </trkpt>
      <trkpt lat="43.77845" lon="3.81862">
        <ele>503.87</ele>
        <time>2014-03-28T11:06:23Z</time>
      </trkpt>
      <trkpt lat="43.77844" lon="3.81864">
        <ele>503.39</ele>
        <time>2014-03-28T11:06:34Z</time>
      </trkpt>
      <trkpt lat="43.77841" lon="3.8187">
        <ele>500.02</ele>
        <time>2014-03-28T11:06:50Z</time>
      </trkpt>
      <trkpt lat="43.7784" lon="3.81878">
        <ele>499.06</ele>
        <time>2014-03-28T11:07:10Z</time>
      </trkpt>
      <trkpt lat="43.77841" lon="3.81882">
        <ele>499.54</ele>
        <time>2014-03-28T11:07:38Z</time>
      </trkpt>
      <trkpt lat="43.77841" lon="3.81883">
        <ele>499.54</ele>
        <time>2014-03-28T11:08:06Z</time>
      </trkpt>
      <trkpt lat="43.7784" lon="3.81884">
        <ele>496.18</ele>
        <time>2014-03-28T11:08:15Z</time>
      </trkpt>
      <trkpt lat="43.7784" lon="3.81884">
        <ele>496.18</ele>
        <time>2014-03-28T11:08:16Z</time>
      </trkpt>
      <trkpt lat="43.7784" lon="3.81884">
        <ele>500.5</ele>
        <time>2014-03-28T11:08:17Z</time>
      </trkpt>
      <trkpt lat="43.7784" lon="3.81884">
        <ele>493.29</ele>
        <time>2014-03-28T11:08:18Z</time>
      </trkpt>
      <trkpt lat="43.7784" lon="3.81884">
        <ele>500.5</ele>
        <time>2014-03-28T11:08:19Z</time>
      </trkpt>
      <trkpt lat="43.7784" lon="3.81884">
        <ele>501.95</ele>
        <time>2014-03-28T11:08:21Z</time>
      </trkpt>
      <trkpt lat="43.7784" lon="3.81885">
        <ele>500.02</ele>
        <time>2014-03-28T11:08:24Z</time>
      </trkpt>
      <trkpt lat="43.7784" lon="3.81885">
        <ele>494.26</ele>
        <time>2014-03-28T11:08:30Z</time>
      </trkpt>
      <trkpt lat="43.7784" lon="3.81885">
        <ele>500.98</ele>
        <time>2014-03-28T11:08:31Z</time>
      </trkpt>
      <trkpt lat="43.7784" lon="3.81885">
        <ele>496.66</ele>
        <time>2014-03-28T11:08:36Z</time>
      </trkpt>
      <trkpt lat="43.7784" lon="3.81885">
        <ele>500.5</ele>
        <time>2014-03-28T11:08:37Z</time>
      </trkpt>
      <trkpt lat="43.7784" lon="3.81885">
        <ele>504.35</ele>
        <time>2014-03-28T11:08:44Z</time>
      </trkpt>
      <trkpt lat="43.7784" lon="3.81885">
        <ele>500.5</ele>
        <time>2014-03-28T11:08:45Z</time>
      </trkpt>
      <trkpt lat="43.7784" lon="3.81885">
        <ele>502.43</ele>
        <time>2014-03-28T11:08:52Z</time>
      </trkpt>
      <trkpt lat="43.7784" lon="3.81885">
        <ele>500.02</ele>
        <time>2014-03-28T11:08:55Z</time>
      </trkpt>
      <trkpt lat="43.77842" lon="3.81885">
        <ele>500.5</ele>
        <time>2014-03-28T11:09:14Z</time>
      </trkpt>
      <trkpt lat="43.77844" lon="3.81888">
        <ele>501.95</ele>
        <time>2014-03-28T11:09:38Z</time>
      </trkpt>
      <trkpt lat="43.77845" lon="3.81889">
        <ele>500.5</ele>
        <time>2014-03-28T11:10:12Z</time>
      </trkpt>
      <trkpt lat="43.77842" lon="3.819">
        <ele>499.06</ele>
        <time>2014-03-28T11:10:30Z</time>
      </trkpt>
      <trkpt lat="43.7784" lon="3.81901">
        <ele>496.66</ele>
        <time>2014-03-28T11:10:50Z</time>
      </trkpt>
      <trkpt lat="43.7784" lon="3.81902">
        <ele>496.18</ele>
        <time>2014-03-28T11:10:55Z</time>
      </trkpt>
      <trkpt lat="43.77835" lon="3.819">
        <ele>492.81</ele>
        <time>2014-03-28T11:11:09Z</time>
      </trkpt>
      <trkpt lat="43.77833" lon="3.81903">
        <ele>490.89</ele>
        <time>2014-03-28T11:11:30Z</time>
      </trkpt>
      <trkpt lat="43.77832" lon="3.81905">
        <ele>487.53</ele>
        <time>2014-03-28T11:11:53Z</time>
      </trkpt>
      <trkpt lat="43.77834" lon="3.81913">
        <ele>485.12</ele>
        <time>2014-03-28T11:12:12Z</time>
      </trkpt>
      <trkpt lat="43.77831" lon="3.81918">
        <ele>482.24</ele>
        <time>2014-03-28T11:12:26Z</time>
      </trkpt>
      <trkpt lat="43.7783" lon="3.81921">
        <ele>480.32</ele>
        <time>2014-03-28T11:12:47Z</time>
      </trkpt>
      <trkpt lat="43.77825" lon="3.81937">
        <ele>479.35</ele>
        <time>2014-03-28T11:13:04Z</time>
      </trkpt>
      <trkpt lat="43.77823" lon="3.81945">
        <ele>478.39</ele>
        <time>2014-03-28T11:13:15Z</time>
      </trkpt>
      <trkpt lat="43.77824" lon="3.81954">
        <ele>478.39</ele>
        <time>2014-03-28T11:13:30Z</time>
      </trkpt>
      <trkpt lat="43.77825" lon="3.81965">
        <ele>477.91</ele>
        <time>2014-03-28T11:13:47Z</time>
      </trkpt>
      <trkpt lat="43.77824" lon="3.81977">
        <ele>476.47</ele>
        <time>2014-03-28T11:14:07Z</time>
      </trkpt>
      <trkpt lat="43.77822" lon="3.81985">
        <ele>474.07</ele>
        <time>2014-03-28T11:14:25Z</time>
      </trkpt>
      <trkpt lat="43.77821" lon="3.81996">
        <ele>473.11</ele>
        <time>2014-03-28T11:14:44Z</time>
      </trkpt>
      <trkpt lat="43.77819" lon="3.82003">
        <ele>471.18</ele>
        <time>2014-03-28T11:15:00Z</time>
      </trkpt>
      <trkpt lat="43.77819" lon="3.82012">
        <ele>471.66</ele>
        <time>2014-03-28T11:15:21Z</time>
      </trkpt>
      <trkpt lat="43.77819" lon="3.82016">
        <ele>471.66</ele>
        <time>2014-03-28T11:15:40Z</time>
      </trkpt>
      <trkpt lat="43.77819" lon="3.82021">
        <ele>471.18</ele>
        <time>2014-03-28T11:16:06Z</time>
      </trkpt>
      <trkpt lat="43.77819" lon="3.82023">
        <ele>470.7</ele>
        <time>2014-03-28T11:16:27Z</time>
      </trkpt>
      <trkpt lat="43.77817" lon="3.82025">
        <ele>469.74</ele>
        <time>2014-03-28T11:16:48Z</time>
      </trkpt>
      <trkpt lat="43.77817" lon="3.82026">
        <ele>469.26</ele>
        <time>2014-03-28T11:17:18Z</time>
      </trkpt>
      <trkpt lat="43.77814" lon="3.82027">
        <ele>466.86</ele>
        <time>2014-03-28T11:17:37Z</time>
      </trkpt>
      <trkpt lat="43.77813" lon="3.82029">
        <ele>463.97</ele>
        <time>2014-03-28T11:17:57Z</time>
      </trkpt>
      <trkpt lat="43.77811" lon="3.82042">
        <ele>462.53</ele>
        <time>2014-03-28T11:18:12Z</time>
      </trkpt>
      <trkpt lat="43.77809" lon="3.82045">
        <ele>460.13</ele>
        <time>2014-03-28T11:18:21Z</time>
      </trkpt>
      <trkpt lat="43.77808" lon="3.8205">
        <ele>459.17</ele>
        <time>2014-03-28T11:18:36Z</time>
      </trkpt>
      <trkpt lat="43.7781" lon="3.82058">
        <ele>460.13</ele>
        <time>2014-03-28T11:18:54Z</time>
      </trkpt>
      <trkpt lat="43.77813" lon="3.82072">
        <ele>459.65</ele>
        <time>2014-03-28T11:19:12Z</time>
      </trkpt>
      <trkpt lat="43.7781" lon="3.82076">
        <ele>456.28</ele>
        <time>2014-03-28T11:19:21Z</time>
      </trkpt>
      <trkpt lat="43.77807" lon="3.82084">
        <ele>454.36</ele>
        <time>2014-03-28T11:19:41Z</time>
      </trkpt>
      <trkpt lat="43.77805" lon="3.82087">
        <ele>453.88</ele>
        <time>2014-03-28T11:19:51Z</time>
      </trkpt>
      <trkpt lat="43.77802" lon="3.82087">
        <ele>451</ele>
        <time>2014-03-28T11:20:01Z</time>
      </trkpt>
      <trkpt lat="43.77802" lon="3.82088">
        <ele>451</ele>
        <time>2014-03-28T11:20:02Z</time>
      </trkpt>
      <trkpt lat="43.77802" lon="3.82094">
        <ele>450.03</ele>
        <time>2014-03-28T11:20:22Z</time>
      </trkpt>
      <trkpt lat="43.77802" lon="3.82098">
        <ele>450.52</ele>
        <time>2014-03-28T11:20:44Z</time>
      </trkpt>
      <trkpt lat="43.77802" lon="3.82106">
        <ele>450.03</ele>
        <time>2014-03-28T11:21:00Z</time>
      </trkpt>
      <trkpt lat="43.77799" lon="3.82113">
        <ele>446.67</ele>
        <time>2014-03-28T11:21:17Z</time>
      </trkpt>
      <trkpt lat="43.77797" lon="3.82116">
        <ele>443.79</ele>
        <time>2014-03-28T11:21:35Z</time>
      </trkpt>
      <trkpt lat="43.77795" lon="3.82115">
        <ele>443.31</ele>
        <time>2014-03-28T11:21:57Z</time>
      </trkpt>
      <trkpt lat="43.77792" lon="3.8212">
        <ele>440.42</ele>
        <time>2014-03-28T11:22:19Z</time>
      </trkpt>
      <trkpt lat="43.77787" lon="3.82122">
        <ele>438.5</ele>
        <time>2014-03-28T11:22:40Z</time>
      </trkpt>
      <trkpt lat="43.77783" lon="3.82122">
        <ele>436.1</ele>
        <time>2014-03-28T11:22:56Z</time>
      </trkpt>
      <trkpt lat="43.7778" lon="3.82124">
        <ele>434.65</ele>
        <time>2014-03-28T11:23:08Z</time>
      </trkpt>
      <trkpt lat="43.77774" lon="3.82119">
        <ele>431.77</ele>
        <time>2014-03-28T11:23:25Z</time>
      </trkpt>
      <trkpt lat="43.77772" lon="3.8212">
        <ele>429.85</ele>
        <time>2014-03-28T11:23:45Z</time>
      </trkpt>
      <trkpt lat="43.77772" lon="3.8212">
        <ele>428.89</ele>
        <time>2014-03-28T11:23:47Z</time>
      </trkpt>
      <trkpt lat="43.77761" lon="3.82121">
        <ele>426</ele>
        <time>2014-03-28T11:24:03Z</time>
      </trkpt>
      <trkpt lat="43.77754" lon="3.82118">
        <ele>422.64</ele>
        <time>2014-03-28T11:24:17Z</time>
      </trkpt>
      <trkpt lat="43.77749" lon="3.82121">
        <ele>419.75</ele>
        <time>2014-03-28T11:24:30Z</time>
      </trkpt>
      <trkpt lat="43.7775" lon="3.82127">
        <ele>419.27</ele>
        <time>2014-03-28T11:24:37Z</time>
      </trkpt>
      <trkpt lat="43.77751" lon="3.82129">
        <ele>419.75</ele>
        <time>2014-03-28T11:24:39Z</time>
      </trkpt>
      <trkpt lat="43.77753" lon="3.82141">
        <ele>417.35</ele>
        <time>2014-03-28T11:24:57Z</time>
      </trkpt>
      <trkpt lat="43.77751" lon="3.82155">
        <ele>414.95</ele>
        <time>2014-03-28T11:25:14Z</time>
      </trkpt>
      <trkpt lat="43.77752" lon="3.82161">
        <ele>414.95</ele>
        <time>2014-03-28T11:25:32Z</time>
      </trkpt>
      <trkpt lat="43.77747" lon="3.82167">
        <ele>413.02</ele>
        <time>2014-03-28T11:25:51Z</time>
      </trkpt>
      <trkpt lat="43.77742" lon="3.82169">
        <ele>412.54</ele>
        <time>2014-03-28T11:26:11Z</time>
      </trkpt>
      <trkpt lat="43.7774" lon="3.8217">
        <ele>412.54</ele>
        <time>2014-03-28T11:26:30Z</time>
      </trkpt>
      <trkpt lat="43.77739" lon="3.82172">
        <ele>410.62</ele>
        <time>2014-03-28T11:26:43Z</time>
      </trkpt>
      <trkpt lat="43.77738" lon="3.82174">
        <ele>409.66</ele>
        <time>2014-03-28T11:26:58Z</time>
      </trkpt>
      <trkpt lat="43.77737" lon="3.82176">
        <ele>409.66</ele>
        <time>2014-03-28T11:27:27Z</time>
      </trkpt>
      <trkpt lat="43.77734" lon="3.82177">
        <ele>406.77</ele>
        <time>2014-03-28T11:27:49Z</time>
      </trkpt>
      <trkpt lat="43.77732" lon="3.8218">
        <ele>405.33</ele>
        <time>2014-03-28T11:28:11Z</time>
      </trkpt>
      <trkpt lat="43.77732" lon="3.82181">
        <ele>404.37</ele>
        <time>2014-03-28T11:28:42Z</time>
      </trkpt>
      <trkpt lat="43.77732" lon="3.82181">
        <ele>404.85</ele>
        <time>2014-03-28T11:29:29Z</time>
      </trkpt>
      <trkpt lat="43.77732" lon="3.82181">
        <ele>405.81</ele>
        <time>2014-03-28T11:30:15Z</time>
      </trkpt>
      <trkpt lat="43.77731" lon="3.8218">
        <ele>404.85</ele>
        <time>2014-03-28T11:30:56Z</time>
      </trkpt>
      <trkpt lat="43.77731" lon="3.8218">
        <ele>399.08</ele>
        <time>2014-03-28T11:31:15Z</time>
      </trkpt>
      <trkpt lat="43.77731" lon="3.8218">
        <ele>400.53</ele>
        <time>2014-03-28T11:31:16Z</time>
      </trkpt>
      <trkpt lat="43.77731" lon="3.82179">
        <ele>406.29</ele>
        <time>2014-03-28T11:31:17Z</time>
      </trkpt>
      <trkpt lat="43.77731" lon="3.82179">
        <ele>405.81</ele>
        <time>2014-03-28T11:31:18Z</time>
      </trkpt>
      <trkpt lat="43.77731" lon="3.8218">
        <ele>397.64</ele>
        <time>2014-03-28T11:31:34Z</time>
      </trkpt>
      <trkpt lat="43.77731" lon="3.8218">
        <ele>407.26</ele>
        <time>2014-03-28T11:31:35Z</time>
      </trkpt>
      <trkpt lat="43.77731" lon="3.8218">
        <ele>406.77</ele>
        <time>2014-03-28T11:31:36Z</time>
      </trkpt>
      <trkpt lat="43.77731" lon="3.8218">
        <ele>400.53</ele>
        <time>2014-03-28T11:31:37Z</time>
      </trkpt>
      <trkpt lat="43.77731" lon="3.8218">
        <ele>406.29</ele>
        <time>2014-03-28T11:31:38Z</time>
      </trkpt>
      <trkpt lat="43.77731" lon="3.8218">
        <ele>406.77</ele>
        <time>2014-03-28T11:31:40Z</time>
      </trkpt>
      <trkpt lat="43.77731" lon="3.8218">
        <ele>405.33</ele>
        <time>2014-03-28T11:31:44Z</time>
      </trkpt>
      <trkpt lat="43.77731" lon="3.8218">
        <ele>409.66</ele>
        <time>2014-03-28T11:31:46Z</time>
      </trkpt>
      <trkpt lat="43.7773" lon="3.8218">
        <ele>405.81</ele>
        <time>2014-03-28T11:31:48Z</time>
      </trkpt>
      <trkpt lat="43.7773" lon="3.8218">
        <ele>406.77</ele>
        <time>2014-03-28T11:32:18Z</time>
      </trkpt>
      <trkpt lat="43.7773" lon="3.8218">
        <ele>404.85</ele>
        <time>2014-03-28T11:32:44Z</time>
      </trkpt>
      <trkpt lat="43.77729" lon="3.82181">
        <ele>402.93</ele>
        <time>2014-03-28T11:33:07Z</time>
      </trkpt>
      <trkpt lat="43.77724" lon="3.82188">
        <ele>400.53</ele>
        <time>2014-03-28T11:33:23Z</time>
      </trkpt>
      <trkpt lat="43.77715" lon="3.82189">
        <ele>398.12</ele>
        <time>2014-03-28T11:33:42Z</time>
      </trkpt>
      <trkpt lat="43.77709" lon="3.82191">
        <ele>395.72</ele>
        <time>2014-03-28T11:33:51Z</time>
      </trkpt>
      <trkpt lat="43.77697" lon="3.82189">
        <ele>394.28</ele>
        <time>2014-03-28T11:34:06Z</time>
      </trkpt>
      <trkpt lat="43.77694" lon="3.82192">
        <ele>391.87</ele>
        <time>2014-03-28T11:34:23Z</time>
      </trkpt>
      <trkpt lat="43.77693" lon="3.82194">
        <ele>388.03</ele>
        <time>2014-03-28T11:34:41Z</time>
      </trkpt>
      <trkpt lat="43.77685" lon="3.82208">
        <ele>385.63</ele>
        <time>2014-03-28T11:34:58Z</time>
      </trkpt>
      <trkpt lat="43.77681" lon="3.82215">
        <ele>383.7</ele>
        <time>2014-03-28T11:35:16Z</time>
      </trkpt>
      <trkpt lat="43.77679" lon="3.82224">
        <ele>390.91</ele>
        <time>2014-03-28T11:35:38Z</time>
      </trkpt>
      <trkpt lat="43.77679" lon="3.82224">
        <ele>384.66</ele>
        <time>2014-03-28T11:35:39Z</time>
      </trkpt>
      <trkpt lat="43.77679" lon="3.82224">
        <ele>384.18</ele>
        <time>2014-03-28T11:35:41Z</time>
      </trkpt>
      <trkpt lat="43.77677" lon="3.82225">
        <ele>388.51</ele>
        <time>2014-03-28T11:35:55Z</time>
      </trkpt>
      <trkpt lat="43.77677" lon="3.82225">
        <ele>381.3</ele>
        <time>2014-03-28T11:35:56Z</time>
      </trkpt>
      <trkpt lat="43.77676" lon="3.82226">
        <ele>384.18</ele>
        <time>2014-03-28T11:35:58Z</time>
      </trkpt>
      <trkpt lat="43.77676" lon="3.82226">
        <ele>384.18</ele>
        <time>2014-03-28T11:35:59Z</time>
      </trkpt>
      <trkpt lat="43.77675" lon="3.82226">
        <ele>380.82</ele>
        <time>2014-03-28T11:36:05Z</time>
      </trkpt>
      <trkpt lat="43.77675" lon="3.82226">
        <ele>385.15</ele>
        <time>2014-03-28T11:36:06Z</time>
      </trkpt>
      <trkpt lat="43.77675" lon="3.82226">
        <ele>379.86</ele>
        <time>2014-03-28T11:36:07Z</time>
      </trkpt>
      <trkpt lat="43.77674" lon="3.82226">
        <ele>384.66</ele>
        <time>2014-03-28T11:36:08Z</time>
      </trkpt>
      <trkpt lat="43.77671" lon="3.82226">
        <ele>388.51</ele>
        <time>2014-03-28T11:36:30Z</time>
      </trkpt>
      <trkpt lat="43.77671" lon="3.82226">
        <ele>383.7</ele>
        <time>2014-03-28T11:36:31Z</time>
      </trkpt>
      <trkpt lat="43.7767" lon="3.82227">
        <ele>388.51</ele>
        <time>2014-03-28T11:36:59Z</time>
      </trkpt>
      <trkpt lat="43.7767" lon="3.82227">
        <ele>384.18</ele>
        <time>2014-03-28T11:37:00Z</time>
      </trkpt>
      <trkpt lat="43.7767" lon="3.82227">
        <ele>388.51</ele>
        <time>2014-03-28T11:37:01Z</time>
      </trkpt>
      <trkpt lat="43.7767" lon="3.82227">
        <ele>384.18</ele>
        <time>2014-03-28T11:37:02Z</time>
      </trkpt>
      <trkpt lat="43.7767" lon="3.82227">
        <ele>382.26</ele>
        <time>2014-03-28T11:37:36Z</time>
      </trkpt>
      <trkpt lat="43.7767" lon="3.82227">
        <ele>386.11</ele>
        <time>2014-03-28T11:37:39Z</time>
      </trkpt>
      <trkpt lat="43.7767" lon="3.82227">
        <ele>385.63</ele>
        <time>2014-03-28T11:37:40Z</time>
      </trkpt>
      <trkpt lat="43.7767" lon="3.82227">
        <ele>383.7</ele>
        <time>2014-03-28T11:37:42Z</time>
      </trkpt>
      <trkpt lat="43.77669" lon="3.82227">
        <ele>383.22</ele>
        <time>2014-03-28T11:37:55Z</time>
      </trkpt>
      <trkpt lat="43.77663" lon="3.82224">
        <ele>388.99</ele>
        <time>2014-03-28T11:38:01Z</time>
      </trkpt>
      <trkpt lat="43.77663" lon="3.82223">
        <ele>382.26</ele>
        <time>2014-03-28T11:38:02Z</time>
      </trkpt>
      <trkpt lat="43.77659" lon="3.82223">
        <ele>378.42</ele>
        <time>2014-03-28T11:38:13Z</time>
      </trkpt>
      <trkpt lat="43.77659" lon="3.82223">
        <ele>382.74</ele>
        <time>2014-03-28T11:38:14Z</time>
      </trkpt>
      <trkpt lat="43.77659" lon="3.82222">
        <ele>389.47</ele>
        <time>2014-03-28T11:38:18Z</time>
      </trkpt>
      <trkpt lat="43.77659" lon="3.82222">
        <ele>393.32</ele>
        <time>2014-03-28T11:38:19Z</time>
      </trkpt>
      <trkpt lat="43.77659" lon="3.82222">
        <ele>375.53</ele>
        <time>2014-03-28T11:38:20Z</time>
      </trkpt>
      <trkpt lat="43.77659" lon="3.82222">
        <ele>382.26</ele>
        <time>2014-03-28T11:38:21Z</time>
      </trkpt>
      <trkpt lat="43.77659" lon="3.82222">
        <ele>377.94</ele>
        <time>2014-03-28T11:38:23Z</time>
      </trkpt>
      <trkpt lat="43.77659" lon="3.82223">
        <ele>382.26</ele>
        <time>2014-03-28T11:38:24Z</time>
      </trkpt>
      <trkpt lat="43.77654" lon="3.82217">
        <ele>379.38</ele>
        <time>2014-03-28T11:38:46Z</time>
      </trkpt>
      <trkpt lat="43.77649" lon="3.82215">
        <ele>375.53</ele>
        <time>2014-03-28T11:39:03Z</time>
      </trkpt>
      <trkpt lat="43.77643" lon="3.82212">
        <ele>377.94</ele>
        <time>2014-03-28T11:39:23Z</time>
      </trkpt>
      <trkpt lat="43.77643" lon="3.82212">
        <ele>377.45</ele>
        <time>2014-03-28T11:39:32Z</time>
      </trkpt>
      <trkpt lat="43.77641" lon="3.82217">
        <ele>376.01</ele>
        <time>2014-03-28T11:39:41Z</time>
      </trkpt>
      <trkpt lat="43.77639" lon="3.82219">
        <ele>375.05</ele>
        <time>2014-03-28T11:39:45Z</time>
      </trkpt>
      <trkpt lat="43.77635" lon="3.82226">
        <ele>373.61</ele>
        <time>2014-03-28T11:39:59Z</time>
      </trkpt>
      <trkpt lat="43.7763" lon="3.82242">
        <ele>372.17</ele>
        <time>2014-03-28T11:40:13Z</time>
      </trkpt>
      <trkpt lat="43.77627" lon="3.82254">
        <ele>370.24</ele>
        <time>2014-03-28T11:40:31Z</time>
      </trkpt>
      <trkpt lat="43.77624" lon="3.82269">
        <ele>369.76</ele>
        <time>2014-03-28T11:40:48Z</time>
      </trkpt>
      <trkpt lat="43.77622" lon="3.82279">
        <ele>367.84</ele>
        <time>2014-03-28T11:41:02Z</time>
      </trkpt>
      <trkpt lat="43.7762" lon="3.82295">
        <ele>365.92</ele>
        <time>2014-03-28T11:41:19Z</time>
      </trkpt>
      <trkpt lat="43.7762" lon="3.82296">
        <ele>369.76</ele>
        <time>2014-03-28T11:41:22Z</time>
      </trkpt>
      <trkpt lat="43.7762" lon="3.82298">
        <ele>366.88</ele>
        <time>2014-03-28T11:41:23Z</time>
      </trkpt>
      <trkpt lat="43.77616" lon="3.82304">
        <ele>364.48</ele>
        <time>2014-03-28T11:41:32Z</time>
      </trkpt>
      <trkpt lat="43.77615" lon="3.82316">
        <ele>364</ele>
        <time>2014-03-28T11:41:40Z</time>
      </trkpt>
      <trkpt lat="43.77616" lon="3.8232">
        <ele>364</ele>
        <time>2014-03-28T11:41:45Z</time>
      </trkpt>
      <trkpt lat="43.77614" lon="3.82334">
        <ele>363.52</ele>
        <time>2014-03-28T11:41:58Z</time>
      </trkpt>
      <trkpt lat="43.77609" lon="3.82339">
        <ele>360.63</ele>
        <time>2014-03-28T11:42:13Z</time>
      </trkpt>
      <trkpt lat="43.77607" lon="3.82345">
        <ele>359.67</ele>
        <time>2014-03-28T11:42:27Z</time>
      </trkpt>
      <trkpt lat="43.77606" lon="3.82347">
        <ele>359.19</ele>
        <time>2014-03-28T11:42:31Z</time>
      </trkpt>
      <trkpt lat="43.77606" lon="3.82354">
        <ele>358.23</ele>
        <time>2014-03-28T11:42:45Z</time>
      </trkpt>
      <trkpt lat="43.77604" lon="3.82357">
        <ele>357.27</ele>
        <time>2014-03-28T11:42:50Z</time>
      </trkpt>
      <trkpt lat="43.77597" lon="3.82374">
        <ele>353.42</ele>
        <time>2014-03-28T11:43:06Z</time>
      </trkpt>
      <trkpt lat="43.77595" lon="3.82376">
        <ele>351.5</ele>
        <time>2014-03-28T11:43:15Z</time>
      </trkpt>
      <trkpt lat="43.77591" lon="3.8238">
        <ele>349.58</ele>
        <time>2014-03-28T11:43:24Z</time>
      </trkpt>
      <trkpt lat="43.77589" lon="3.82393">
        <ele>350.06</ele>
        <time>2014-03-28T11:43:34Z</time>
      </trkpt>
      <trkpt lat="43.77589" lon="3.82395">
        <ele>356.31</ele>
        <time>2014-03-28T11:43:40Z</time>
      </trkpt>
      <trkpt lat="43.77589" lon="3.82397">
        <ele>351.02</ele>
        <time>2014-03-28T11:43:41Z</time>
      </trkpt>
      <trkpt lat="43.77588" lon="3.82398">
        <ele>351.02</ele>
        <time>2014-03-28T11:43:42Z</time>
      </trkpt>
      <trkpt lat="43.7759" lon="3.82415">
        <ele>351.5</ele>
        <time>2014-03-28T11:43:51Z</time>
      </trkpt>
      <trkpt lat="43.77582" lon="3.82429">
        <ele>349.1</ele>
        <time>2014-03-28T11:44:06Z</time>
      </trkpt>
      <trkpt lat="43.77578" lon="3.82437">
        <ele>347.65</ele>
        <time>2014-03-28T11:44:14Z</time>
      </trkpt>
      <trkpt lat="43.77574" lon="3.82444">
        <ele>346.21</ele>
        <time>2014-03-28T11:44:21Z</time>
      </trkpt>
      <trkpt lat="43.77572" lon="3.82452">
        <ele>345.25</ele>
        <time>2014-03-28T11:44:29Z</time>
      </trkpt>
      <trkpt lat="43.77573" lon="3.82455">
        <ele>344.29</ele>
        <time>2014-03-28T11:44:41Z</time>
      </trkpt>
      <trkpt lat="43.77573" lon="3.82455">
        <ele>345.25</ele>
        <time>2014-03-28T11:44:43Z</time>
      </trkpt>
      <trkpt lat="43.77573" lon="3.82455">
        <ele>341.41</ele>
        <time>2014-03-28T11:44:50Z</time>
      </trkpt>
      <trkpt lat="43.77573" lon="3.82455">
        <ele>345.73</ele>
        <time>2014-03-28T11:44:51Z</time>
      </trkpt>
      <trkpt lat="43.77573" lon="3.82456">
        <ele>340.92</ele>
        <time>2014-03-28T11:44:54Z</time>
      </trkpt>
      <trkpt lat="43.77573" lon="3.82456">
        <ele>351.5</ele>
        <time>2014-03-28T11:44:55Z</time>
      </trkpt>
      <trkpt lat="43.77573" lon="3.82456">
        <ele>345.73</ele>
        <time>2014-03-28T11:44:56Z</time>
      </trkpt>
      <trkpt lat="43.77573" lon="3.82456">
        <ele>353.42</ele>
        <time>2014-03-28T11:44:59Z</time>
      </trkpt>
      <trkpt lat="43.77573" lon="3.82456">
        <ele>345.25</ele>
        <time>2014-03-28T11:45:00Z</time>
      </trkpt>
      <trkpt lat="43.77573" lon="3.82456">
        <ele>339</ele>
        <time>2014-03-28T11:45:03Z</time>
      </trkpt>
      <trkpt lat="43.77573" lon="3.82456">
        <ele>345.73</ele>
        <time>2014-03-28T11:45:04Z</time>
      </trkpt>
      <trkpt lat="43.77573" lon="3.82457">
        <ele>341.89</ele>
        <time>2014-03-28T11:45:18Z</time>
      </trkpt>
      <trkpt lat="43.77573" lon="3.82457">
        <ele>345.25</ele>
        <time>2014-03-28T11:45:19Z</time>
      </trkpt>
      <trkpt lat="43.77573" lon="3.82457">
        <ele>351.5</ele>
        <time>2014-03-28T11:45:23Z</time>
      </trkpt>
      <trkpt lat="43.77573" lon="3.82457">
        <ele>348.13</ele>
        <time>2014-03-28T11:45:24Z</time>
      </trkpt>
      <trkpt lat="43.77573" lon="3.82457">
        <ele>341.41</ele>
        <time>2014-03-28T11:45:25Z</time>
      </trkpt>
      <trkpt lat="43.77573" lon="3.82458">
        <ele>345.25</ele>
        <time>2014-03-28T11:45:26Z</time>
      </trkpt>
      <trkpt lat="43.77573" lon="3.82458">
        <ele>343.33</ele>
        <time>2014-03-28T11:45:40Z</time>
      </trkpt>
      <trkpt lat="43.77573" lon="3.82458">
        <ele>346.69</ele>
        <time>2014-03-28T11:45:45Z</time>
      </trkpt>
      <trkpt lat="43.77573" lon="3.82458">
        <ele>345.73</ele>
        <time>2014-03-28T11:45:46Z</time>
      </trkpt>
      <trkpt lat="43.77573" lon="3.82458">
        <ele>355.34</ele>
        <time>2014-03-28T11:45:48Z</time>
      </trkpt>
      <trkpt lat="43.77573" lon="3.82458">
        <ele>343.33</ele>
        <time>2014-03-28T11:45:49Z</time>
      </trkpt>
      <trkpt lat="43.77573" lon="3.82458">
        <ele>345.25</ele>
        <time>2014-03-28T11:45:50Z</time>
      </trkpt>
      <trkpt lat="43.77573" lon="3.82458">
        <ele>349.58</ele>
        <time>2014-03-28T11:46:01Z</time>
      </trkpt>
      <trkpt lat="43.77573" lon="3.82458">
        <ele>345.25</ele>
        <time>2014-03-28T11:46:02Z</time>
      </trkpt>
      <trkpt lat="43.77573" lon="3.82458">
        <ele>344.29</ele>
        <time>2014-03-28T11:46:21Z</time>
      </trkpt>
      <trkpt lat="43.77573" lon="3.82459">
        <ele>345.25</ele>
        <time>2014-03-28T11:46:38Z</time>
      </trkpt>
      <trkpt lat="43.77573" lon="3.82459">
        <ele>345.25</ele>
        <time>2014-03-28T11:47:22Z</time>
      </trkpt>
      <trkpt lat="43.77573" lon="3.82459">
        <ele>344.77</ele>
        <time>2014-03-28T11:47:38Z</time>
      </trkpt>
      <trkpt lat="43.77573" lon="3.82458">
        <ele>340.92</ele>
        <time>2014-03-28T11:48:06Z</time>
      </trkpt>
      <trkpt lat="43.77573" lon="3.82458">
        <ele>346.21</ele>
        <time>2014-03-28T11:48:07Z</time>
      </trkpt>
      <trkpt lat="43.77573" lon="3.82458">
        <ele>342.85</ele>
        <time>2014-03-28T11:48:08Z</time>
      </trkpt>
      <trkpt lat="43.77573" lon="3.82458">
        <ele>346.21</ele>
        <time>2014-03-28T11:48:09Z</time>
      </trkpt>
      <trkpt lat="43.77573" lon="3.82458">
        <ele>341.89</ele>
        <time>2014-03-28T11:48:25Z</time>
      </trkpt>
      <trkpt lat="43.77573" lon="3.82458">
        <ele>345.73</ele>
        <time>2014-03-28T11:48:26Z</time>
      </trkpt>
      <trkpt lat="43.77574" lon="3.82459">
        <ele>345.73</ele>
        <time>2014-03-28T11:49:07Z</time>
      </trkpt>
      <trkpt lat="43.77574" lon="3.82458">
        <ele>336.12</ele>
        <time>2014-03-28T11:49:12Z</time>
      </trkpt>
      <trkpt lat="43.77574" lon="3.82458">
        <ele>346.69</ele>
        <time>2014-03-28T11:49:13Z</time>
      </trkpt>
      <trkpt lat="43.77574" lon="3.82458">
        <ele>343.33</ele>
        <time>2014-03-28T11:49:20Z</time>
      </trkpt>
      <trkpt lat="43.77574" lon="3.82458">
        <ele>346.69</ele>
        <time>2014-03-28T11:49:21Z</time>
      </trkpt>
      <trkpt lat="43.77574" lon="3.82458">
        <ele>344.77</ele>
        <time>2014-03-28T11:49:24Z</time>
      </trkpt>
      <trkpt lat="43.77573" lon="3.82458">
        <ele>344.77</ele>
        <time>2014-03-28T11:49:54Z</time>
      </trkpt>
      <trkpt lat="43.77573" lon="3.82458">
        <ele>344.77</ele>
        <time>2014-03-28T11:50:28Z</time>
      </trkpt>
      <trkpt lat="43.77573" lon="3.82459">
        <ele>345.73</ele>
        <time>2014-03-28T11:50:53Z</time>
      </trkpt>
      <trkpt lat="43.77575" lon="3.82459">
        <ele>346.21</ele>
        <time>2014-03-28T11:51:11Z</time>
      </trkpt>
      <trkpt lat="43.77579" lon="3.82457">
        <ele>347.17</ele>
        <time>2014-03-28T11:51:18Z</time>
      </trkpt>
      <trkpt lat="43.77586" lon="3.8246">
        <ele>347.65</ele>
        <time>2014-03-28T11:51:26Z</time>
      </trkpt>
      <trkpt lat="43.77595" lon="3.82463">
        <ele>348.13</ele>
        <time>2014-03-28T11:51:34Z</time>
      </trkpt>
      <trkpt lat="43.77597" lon="3.82462">
        <ele>348.62</ele>
        <time>2014-03-28T11:51:36Z</time>
      </trkpt>
      <trkpt lat="43.77607" lon="3.82462">
        <ele>350.06</ele>
        <time>2014-03-28T11:51:47Z</time>
      </trkpt>
      <trkpt lat="43.77611" lon="3.82459">
        <ele>350.54</ele>
        <time>2014-03-28T11:51:51Z</time>
      </trkpt>
      <trkpt lat="43.77615" lon="3.82459">
        <ele>351.5</ele>
        <time>2014-03-28T11:51:56Z</time>
      </trkpt>
      <trkpt lat="43.7763" lon="3.82453">
        <ele>353.42</ele>
        <time>2014-03-28T11:52:13Z</time>
      </trkpt>
      <trkpt lat="43.77633" lon="3.82443">
        <ele>353.42</ele>
        <time>2014-03-28T11:52:31Z</time>
      </trkpt>
      <trkpt lat="43.77633" lon="3.82442">
        <ele>353.9</ele>
        <time>2014-03-28T11:52:46Z</time>
      </trkpt>
      <trkpt lat="43.77633" lon="3.82447">
        <ele>352.94</ele>
        <time>2014-03-28T11:53:01Z</time>
      </trkpt>
      <trkpt lat="43.77634" lon="3.82447">
        <ele>352.94</ele>
        <time>2014-03-28T11:53:29Z</time>
      </trkpt>
      <trkpt lat="43.77635" lon="3.82447">
        <ele>352.46</ele>
        <time>2014-03-28T11:54:19Z</time>
      </trkpt>
      <trkpt lat="43.77636" lon="3.82448">
        <ele>352.46</ele>
        <time>2014-03-28T11:55:01Z</time>
      </trkpt>
      <trkpt lat="43.77635" lon="3.82448">
        <ele>352.46</ele>
        <time>2014-03-28T11:55:51Z</time>
      </trkpt>
      <trkpt lat="43.77635" lon="3.82448">
        <ele>352.46</ele>
        <time>2014-03-28T11:56:37Z</time>
      </trkpt>
      <trkpt lat="43.77634" lon="3.82447">
        <ele>351.98</ele>
        <time>2014-03-28T11:57:25Z</time>
      </trkpt>
      <trkpt lat="43.77635" lon="3.82448">
        <ele>352.94</ele>
        <time>2014-03-28T11:58:11Z</time>
      </trkpt>
      <trkpt lat="43.77634" lon="3.82448">
        <ele>352.94</ele>
        <time>2014-03-28T11:59:00Z</time>
      </trkpt>
      <trkpt lat="43.77635" lon="3.82448">
        <ele>352.46</ele>
        <time>2014-03-28T11:59:47Z</time>
      </trkpt>
      <trkpt lat="43.77635" lon="3.82447">
        <ele>352.46</ele>
        <time>2014-03-28T12:00:37Z</time>
      </trkpt>
      <trkpt lat="43.77634" lon="3.82447">
        <ele>352.94</ele>
        <time>2014-03-28T12:01:18Z</time>
      </trkpt>
      <trkpt lat="43.77634" lon="3.82447">
        <ele>352.46</ele>
        <time>2014-03-28T12:02:03Z</time>
      </trkpt>
      <trkpt lat="43.77634" lon="3.82445">
        <ele>352.46</ele>
        <time>2014-03-28T12:02:51Z</time>
      </trkpt>
      <trkpt lat="43.77634" lon="3.82446">
        <ele>352.46</ele>
        <time>2014-03-28T12:03:39Z</time>
      </trkpt>
      <trkpt lat="43.77634" lon="3.82447">
        <ele>352.94</ele>
        <time>2014-03-28T12:04:28Z</time>
      </trkpt>
      <trkpt lat="43.77635" lon="3.82446">
        <ele>351.98</ele>
        <time>2014-03-28T12:05:15Z</time>
      </trkpt>
      <trkpt lat="43.77634" lon="3.82446">
        <ele>352.94</ele>
        <time>2014-03-28T12:06:05Z</time>
      </trkpt>
      <trkpt lat="43.77635" lon="3.82447">
        <ele>352.94</ele>
        <time>2014-03-28T12:06:51Z</time>
      </trkpt>
      <trkpt lat="43.77635" lon="3.82447">
        <ele>352.94</ele>
        <time>2014-03-28T12:07:43Z</time>
      </trkpt>
      <trkpt lat="43.77635" lon="3.82447">
        <ele>352.94</ele>
        <time>2014-03-28T12:08:28Z</time>
      </trkpt>
      <trkpt lat="43.77634" lon="3.82448">
        <ele>352.46</ele>
        <time>2014-03-28T12:09:07Z</time>
      </trkpt>
      <trkpt lat="43.77633" lon="3.82448">
        <ele>352.46</ele>
        <time>2014-03-28T12:09:48Z</time>
      </trkpt>
      <trkpt lat="43.77633" lon="3.82449">
        <ele>352.46</ele>
        <time>2014-03-28T12:10:26Z</time>
      </trkpt>
      <trkpt lat="43.77633" lon="3.82448">
        <ele>352.46</ele>
        <time>2014-03-28T12:11:02Z</time>
      </trkpt>
      <trkpt lat="43.77633" lon="3.82447">
        <ele>352.46</ele>
        <time>2014-03-28T12:11:42Z</time>
      </trkpt>
      <trkpt lat="43.77633" lon="3.82447">
        <ele>352.94</ele>
        <time>2014-03-28T12:12:25Z</time>
      </trkpt>
      <trkpt lat="43.77634" lon="3.82446">
        <ele>352.94</ele>
        <time>2014-03-28T12:13:11Z</time>
      </trkpt>
      <trkpt lat="43.77634" lon="3.82446">
        <ele>352.94</ele>
        <time>2014-03-28T12:13:58Z</time>
      </trkpt>
      <trkpt lat="43.77633" lon="3.82446">
        <ele>353.42</ele>
        <time>2014-03-28T12:14:44Z</time>
      </trkpt>
      <trkpt lat="43.77633" lon="3.82446">
        <ele>353.42</ele>
        <time>2014-03-28T12:15:33Z</time>
      </trkpt>
      <trkpt lat="43.77633" lon="3.82446">
        <ele>353.9</ele>
        <time>2014-03-28T12:16:18Z</time>
      </trkpt>
      <trkpt lat="43.77634" lon="3.82446">
        <ele>353.42</ele>
        <time>2014-03-28T12:16:59Z</time>
      </trkpt>
      <trkpt lat="43.77634" lon="3.82446">
        <ele>353.42</ele>
        <time>2014-03-28T12:17:41Z</time>
      </trkpt>
      <trkpt lat="43.77633" lon="3.82446">
        <ele>353.9</ele>
        <time>2014-03-28T12:18:25Z</time>
      </trkpt>
      <trkpt lat="43.77632" lon="3.82446">
        <ele>354.38</ele>
        <time>2014-03-28T12:19:08Z</time>
      </trkpt>
      <trkpt lat="43.77633" lon="3.82447">
        <ele>354.38</ele>
        <time>2014-03-28T12:19:43Z</time>
      </trkpt>
      <trkpt lat="43.77633" lon="3.82447">
        <ele>353.9</ele>
        <time>2014-03-28T12:20:28Z</time>
      </trkpt>
      <trkpt lat="43.77633" lon="3.82448">
        <ele>353.9</ele>
        <time>2014-03-28T12:21:14Z</time>
      </trkpt>
      <trkpt lat="43.77632" lon="3.82448">
        <ele>354.38</ele>
        <time>2014-03-28T12:21:54Z</time>
      </trkpt>
      <trkpt lat="43.77632" lon="3.82449">
        <ele>353.9</ele>
        <time>2014-03-28T12:22:41Z</time>
      </trkpt>
      <trkpt lat="43.77633" lon="3.82448">
        <ele>353.9</ele>
        <time>2014-03-28T12:23:16Z</time>
      </trkpt>
      <trkpt lat="43.77633" lon="3.82448">
        <ele>350.06</ele>
        <time>2014-03-28T12:23:19Z</time>
      </trkpt>
      <trkpt lat="43.77633" lon="3.82448">
        <ele>355.34</ele>
        <time>2014-03-28T12:23:20Z</time>
      </trkpt>
      <trkpt lat="43.77634" lon="3.82448">
        <ele>353.9</ele>
        <time>2014-03-28T12:23:33Z</time>
      </trkpt>
      <trkpt lat="43.77631" lon="3.82444">
        <ele>354.38</ele>
        <time>2014-03-28T12:24:28Z</time>
      </trkpt>
      <trkpt lat="43.77632" lon="3.82445">
        <ele>354.86</ele>
        <time>2014-03-28T12:24:30Z</time>
      </trkpt>
      <trkpt lat="43.77634" lon="3.82448">
        <ele>351.02</ele>
        <time>2014-03-28T12:24:55Z</time>
      </trkpt>
      <trkpt lat="43.77634" lon="3.82448">
        <ele>354.38</ele>
        <time>2014-03-28T12:24:56Z</time>
      </trkpt>
      <trkpt lat="43.77635" lon="3.82449">
        <ele>354.86</ele>
        <time>2014-03-28T12:25:17Z</time>
      </trkpt>
      <trkpt lat="43.77634" lon="3.82445">
        <ele>355.34</ele>
        <time>2014-03-28T12:25:37Z</time>
      </trkpt>
      <trkpt lat="43.77632" lon="3.82434">
        <ele>353.42</ele>
        <time>2014-03-28T12:25:53Z</time>
      </trkpt>
      <trkpt lat="43.77638" lon="3.82434">
        <ele>351.02</ele>
        <time>2014-03-28T12:26:07Z</time>
      </trkpt>
      <trkpt lat="43.77642" lon="3.82425">
        <ele>347.65</ele>
        <time>2014-03-28T12:26:23Z</time>
      </trkpt>
      <trkpt lat="43.77641" lon="3.82416">
        <ele>347.17</ele>
        <time>2014-03-28T12:26:32Z</time>
      </trkpt>
      <trkpt lat="43.7765" lon="3.82402">
        <ele>344.29</ele>
        <time>2014-03-28T12:26:47Z</time>
      </trkpt>
      <trkpt lat="43.77654" lon="3.82394">
        <ele>342.37</ele>
        <time>2014-03-28T12:26:55Z</time>
      </trkpt>
      <trkpt lat="43.7766" lon="3.82385">
        <ele>341.89</ele>
        <time>2014-03-28T12:27:17Z</time>
      </trkpt>
      <trkpt lat="43.7766" lon="3.82385">
        <ele>341.41</ele>
        <time>2014-03-28T12:27:48Z</time>
      </trkpt>
      <trkpt lat="43.77667" lon="3.82385">
        <ele>339.48</ele>
        <time>2014-03-28T12:27:59Z</time>
      </trkpt>
      <trkpt lat="43.77676" lon="3.82376">
        <ele>336.12</ele>
        <time>2014-03-28T12:28:15Z</time>
      </trkpt>
      <trkpt lat="43.77681" lon="3.82372">
        <ele>334.68</ele>
        <time>2014-03-28T12:28:21Z</time>
      </trkpt>
      <trkpt lat="43.77694" lon="3.8236">
        <ele>332.27</ele>
        <time>2014-03-28T12:28:36Z</time>
      </trkpt>
      <trkpt lat="43.77697" lon="3.82356">
        <ele>331.79</ele>
        <time>2014-03-28T12:28:38Z</time>
      </trkpt>
      <trkpt lat="43.77703" lon="3.82352">
        <ele>331.31</ele>
        <time>2014-03-28T12:28:44Z</time>
      </trkpt>
      <trkpt lat="43.77713" lon="3.82338">
        <ele>330.83</ele>
        <time>2014-03-28T12:28:55Z</time>
      </trkpt>
      <trkpt lat="43.7772" lon="3.82327">
        <ele>330.83</ele>
        <time>2014-03-28T12:29:04Z</time>
      </trkpt>
      <trkpt lat="43.77722" lon="3.82322">
        <ele>330.83</ele>
        <time>2014-03-28T12:29:08Z</time>
      </trkpt>
      <trkpt lat="43.77723" lon="3.82319">
        <ele>330.83</ele>
        <time>2014-03-28T12:29:10Z</time>
      </trkpt>
      <trkpt lat="43.77727" lon="3.82314">
        <ele>329.87</ele>
        <time>2014-03-28T12:29:16Z</time>
      </trkpt>
      <trkpt lat="43.77728" lon="3.82313">
        <ele>329.87</ele>
        <time>2014-03-28T12:29:18Z</time>
      </trkpt>
      <trkpt lat="43.77733" lon="3.82309">
        <ele>328.91</ele>
        <time>2014-03-28T12:29:23Z</time>
      </trkpt>
      <trkpt lat="43.77736" lon="3.82304">
        <ele>329.87</ele>
        <time>2014-03-28T12:29:27Z</time>
      </trkpt>
      <trkpt lat="43.77743" lon="3.82297">
        <ele>329.87</ele>
        <time>2014-03-28T12:29:34Z</time>
      </trkpt>
      <trkpt lat="43.77746" lon="3.82296">
        <ele>330.35</ele>
        <time>2014-03-28T12:29:36Z</time>
      </trkpt>
      <trkpt lat="43.77763" lon="3.82282">
        <ele>329.39</ele>
        <time>2014-03-28T12:29:53Z</time>
      </trkpt>
      <trkpt lat="43.77786" lon="3.82277">
        <ele>327.47</ele>
        <time>2014-03-28T12:30:11Z</time>
      </trkpt>
      <trkpt lat="43.77792" lon="3.82273">
        <ele>327.47</ele>
        <time>2014-03-28T12:30:17Z</time>
      </trkpt>
      <trkpt lat="43.77812" lon="3.82274">
        <ele>325.54</ele>
        <time>2014-03-28T12:30:33Z</time>
      </trkpt>
      <trkpt lat="43.77815" lon="3.8227">
        <ele>325.54</ele>
        <time>2014-03-28T12:30:36Z</time>
      </trkpt>
      <trkpt lat="43.77835" lon="3.82259">
        <ele>323.62</ele>
        <time>2014-03-28T12:30:53Z</time>
      </trkpt>
      <trkpt lat="43.77846" lon="3.82254">
        <ele>321.22</ele>
        <time>2014-03-28T12:31:03Z</time>
      </trkpt>
      <trkpt lat="43.77859" lon="3.82248">
        <ele>319.78</ele>
        <time>2014-03-28T12:31:14Z</time>
      </trkpt>
      <trkpt lat="43.77863" lon="3.82244">
        <ele>319.3</ele>
        <time>2014-03-28T12:31:18Z</time>
      </trkpt>
      <trkpt lat="43.77883" lon="3.8223">
        <ele>316.89</ele>
        <time>2014-03-28T12:31:34Z</time>
      </trkpt>
      <trkpt lat="43.77889" lon="3.82223">
        <ele>315.93</ele>
        <time>2014-03-28T12:31:41Z</time>
      </trkpt>
      <trkpt lat="43.77907" lon="3.82208">
        <ele>314.01</ele>
        <time>2014-03-28T12:31:55Z</time>
      </trkpt>
      <trkpt lat="43.77925" lon="3.82194">
        <ele>312.09</ele>
        <time>2014-03-28T12:32:11Z</time>
      </trkpt>
      <trkpt lat="43.77927" lon="3.82192">
        <ele>311.6</ele>
        <time>2014-03-28T12:32:14Z</time>
      </trkpt>
      <trkpt lat="43.77937" lon="3.82184">
        <ele>310.16</ele>
        <time>2014-03-28T12:32:23Z</time>
      </trkpt>
      <trkpt lat="43.77944" lon="3.82182">
        <ele>308.72</ele>
        <time>2014-03-28T12:32:28Z</time>
      </trkpt>
      <trkpt lat="43.77957" lon="3.82176">
        <ele>307.28</ele>
        <time>2014-03-28T12:32:39Z</time>
      </trkpt>
      <trkpt lat="43.77966" lon="3.82173">
        <ele>305.84</ele>
        <time>2014-03-28T12:32:48Z</time>
      </trkpt>
      <trkpt lat="43.7797" lon="3.82171">
        <ele>305.36</ele>
        <time>2014-03-28T12:32:51Z</time>
      </trkpt>
      <trkpt lat="43.77972" lon="3.82168">
        <ele>305.36</ele>
        <time>2014-03-28T12:32:53Z</time>
      </trkpt>
      <trkpt lat="43.77976" lon="3.82163">
        <ele>304.88</ele>
        <time>2014-03-28T12:32:58Z</time>
      </trkpt>
      <trkpt lat="43.77982" lon="3.82157">
        <ele>302.95</ele>
        <time>2014-03-28T12:33:05Z</time>
      </trkpt>
      <trkpt lat="43.77992" lon="3.82153">
        <ele>300.55</ele>
        <time>2014-03-28T12:33:13Z</time>
      </trkpt>
      <trkpt lat="43.78" lon="3.8215">
        <ele>299.11</ele>
        <time>2014-03-28T12:33:21Z</time>
      </trkpt>
      <trkpt lat="43.78019" lon="3.82133">
        <ele>299.59</ele>
        <time>2014-03-28T12:33:40Z</time>
      </trkpt>
      <trkpt lat="43.78022" lon="3.82116">
        <ele>300.07</ele>
        <time>2014-03-28T12:33:51Z</time>
      </trkpt>
      <trkpt lat="43.78026" lon="3.82095">
        <ele>301.03</ele>
        <time>2014-03-28T12:34:04Z</time>
      </trkpt>
      <trkpt lat="43.78034" lon="3.82076">
        <ele>301.03</ele>
        <time>2014-03-28T12:34:17Z</time>
      </trkpt>
      <trkpt lat="43.78039" lon="3.82048">
        <ele>301.03</ele>
        <time>2014-03-28T12:34:33Z</time>
      </trkpt>
      <trkpt lat="43.78041" lon="3.82043">
        <ele>301.03</ele>
        <time>2014-03-28T12:34:37Z</time>
      </trkpt>
      <trkpt lat="43.78045" lon="3.82036">
        <ele>301.51</ele>
        <time>2014-03-28T12:34:41Z</time>
      </trkpt>
      <trkpt lat="43.78046" lon="3.82032">
        <ele>301.99</ele>
        <time>2014-03-28T12:34:44Z</time>
      </trkpt>
      <trkpt lat="43.78047" lon="3.82023">
        <ele>303.43</ele>
        <time>2014-03-28T12:34:49Z</time>
      </trkpt>
      <trkpt lat="43.7805" lon="3.82019">
        <ele>302.95</ele>
        <time>2014-03-28T12:34:52Z</time>
      </trkpt>
      <trkpt lat="43.78059" lon="3.82004">
        <ele>302.95</ele>
        <time>2014-03-28T12:35:06Z</time>
      </trkpt>
      <trkpt lat="43.78062" lon="3.81999">
        <ele>302.47</ele>
        <time>2014-03-28T12:35:09Z</time>
      </trkpt>
      <trkpt lat="43.78068" lon="3.81991">
        <ele>301.03</ele>
        <time>2014-03-28T12:35:17Z</time>
      </trkpt>
      <trkpt lat="43.78071" lon="3.81988">
        <ele>300.07</ele>
        <time>2014-03-28T12:35:20Z</time>
      </trkpt>
      <trkpt lat="43.78078" lon="3.8198">
        <ele>296.22</ele>
        <time>2014-03-28T12:35:31Z</time>
      </trkpt>
      <trkpt lat="43.78091" lon="3.81973">
        <ele>293.34</ele>
        <time>2014-03-28T12:35:45Z</time>
      </trkpt>
      <trkpt lat="43.781" lon="3.81974">
        <ele>289.97</ele>
        <time>2014-03-28T12:35:55Z</time>
      </trkpt>
      <trkpt lat="43.7811" lon="3.81967">
        <ele>288.53</ele>
        <time>2014-03-28T12:36:05Z</time>
      </trkpt>
      <trkpt lat="43.78112" lon="3.81965">
        <ele>289.01</ele>
        <time>2014-03-28T12:36:07Z</time>
      </trkpt>
      <trkpt lat="43.78114" lon="3.81963">
        <ele>289.49</ele>
        <time>2014-03-28T12:36:09Z</time>
      </trkpt>
      <trkpt lat="43.78125" lon="3.81956">
        <ele>286.13</ele>
        <time>2014-03-28T12:36:19Z</time>
      </trkpt>
      <trkpt lat="43.78135" lon="3.81955">
        <ele>282.77</ele>
        <time>2014-03-28T12:36:30Z</time>
      </trkpt>
      <trkpt lat="43.7814" lon="3.81962">
        <ele>279.4</ele>
        <time>2014-03-28T12:36:40Z</time>
      </trkpt>
      <trkpt lat="43.78146" lon="3.81965">
        <ele>276.52</ele>
        <time>2014-03-28T12:36:51Z</time>
      </trkpt>
      <trkpt lat="43.78155" lon="3.81971">
        <ele>272.67</ele>
        <time>2014-03-28T12:37:04Z</time>
      </trkpt>
      <trkpt lat="43.78162" lon="3.81973">
        <ele>271.23</ele>
        <time>2014-03-28T12:37:11Z</time>
      </trkpt>
      <trkpt lat="43.7817" lon="3.81968">
        <ele>269.79</ele>
        <time>2014-03-28T12:37:19Z</time>
      </trkpt>
      <trkpt lat="43.78178" lon="3.81963">
        <ele>267.86</ele>
        <time>2014-03-28T12:37:28Z</time>
      </trkpt>
      <trkpt lat="43.78188" lon="3.81956">
        <ele>264.98</ele>
        <time>2014-03-28T12:37:42Z</time>
      </trkpt>
      <trkpt lat="43.7819" lon="3.81954">
        <ele>265.46</ele>
        <time>2014-03-28T12:37:44Z</time>
      </trkpt>
      <trkpt lat="43.78199" lon="3.81944">
        <ele>261.62</ele>
        <time>2014-03-28T12:37:59Z</time>
      </trkpt>
      <trkpt lat="43.78207" lon="3.81936">
        <ele>260.17</ele>
        <time>2014-03-28T12:38:08Z</time>
      </trkpt>
      <trkpt lat="43.78221" lon="3.81927">
        <ele>257.29</ele>
        <time>2014-03-28T12:38:22Z</time>
      </trkpt>
      <trkpt lat="43.78223" lon="3.81922">
        <ele>256.81</ele>
        <time>2014-03-28T12:38:25Z</time>
      </trkpt>
      <trkpt lat="43.78227" lon="3.81903">
        <ele>254.89</ele>
        <time>2014-03-28T12:38:38Z</time>
      </trkpt>
      <trkpt lat="43.7823" lon="3.81899">
        <ele>254.41</ele>
        <time>2014-03-28T12:38:41Z</time>
      </trkpt>
      <trkpt lat="43.78236" lon="3.81888">
        <ele>252.96</ele>
        <time>2014-03-28T12:38:50Z</time>
      </trkpt>
      <trkpt lat="43.78239" lon="3.81882">
        <ele>252.48</ele>
        <time>2014-03-28T12:38:56Z</time>
      </trkpt>
      <trkpt lat="43.7824" lon="3.81876">
        <ele>253.44</ele>
        <time>2014-03-28T12:39:00Z</time>
      </trkpt>
      <trkpt lat="43.78241" lon="3.81872">
        <ele>252</ele>
        <time>2014-03-28T12:39:03Z</time>
      </trkpt>
      <trkpt lat="43.78242" lon="3.81871">
        <ele>250.56</ele>
        <time>2014-03-28T12:39:04Z</time>
      </trkpt>
      <trkpt lat="43.78248" lon="3.81865">
        <ele>250.08</ele>
        <time>2014-03-28T12:39:12Z</time>
      </trkpt>
      <trkpt lat="43.78255" lon="3.81851">
        <ele>247.2</ele>
        <time>2014-03-28T12:39:27Z</time>
      </trkpt>
      <trkpt lat="43.78258" lon="3.81846">
        <ele>247.2</ele>
        <time>2014-03-28T12:39:31Z</time>
      </trkpt>
      <trkpt lat="43.78266" lon="3.81835">
        <ele>247.68</ele>
        <time>2014-03-28T12:39:39Z</time>
      </trkpt>
      <trkpt lat="43.78271" lon="3.81829">
        <ele>247.2</ele>
        <time>2014-03-28T12:39:44Z</time>
      </trkpt>
      <trkpt lat="43.78288" lon="3.81814">
        <ele>244.31</ele>
        <time>2014-03-28T12:40:00Z</time>
      </trkpt>
      <trkpt lat="43.78293" lon="3.81808">
        <ele>242.87</ele>
        <time>2014-03-28T12:40:06Z</time>
      </trkpt>
      <trkpt lat="43.78306" lon="3.81791">
        <ele>239.99</ele>
        <time>2014-03-28T12:40:22Z</time>
      </trkpt>
      <trkpt lat="43.7831" lon="3.81783">
        <ele>239.02</ele>
        <time>2014-03-28T12:40:29Z</time>
      </trkpt>
      <trkpt lat="43.78318" lon="3.81769">
        <ele>237.1</ele>
        <time>2014-03-28T12:40:40Z</time>
      </trkpt>
      <trkpt lat="43.78325" lon="3.81743">
        <ele>234.22</ele>
        <time>2014-03-28T12:40:59Z</time>
      </trkpt>
      <trkpt lat="43.78335" lon="3.81722">
        <ele>231.33</ele>
        <time>2014-03-28T12:41:16Z</time>
      </trkpt>
      <trkpt lat="43.78339" lon="3.81715">
        <ele>230.85</ele>
        <time>2014-03-28T12:41:21Z</time>
      </trkpt>
      <trkpt lat="43.78346" lon="3.81705">
        <ele>230.37</ele>
        <time>2014-03-28T12:41:28Z</time>
      </trkpt>
      <trkpt lat="43.78357" lon="3.81692">
        <ele>230.37</ele>
        <time>2014-03-28T12:41:39Z</time>
      </trkpt>
      <trkpt lat="43.78365" lon="3.81682">
        <ele>229.89</ele>
        <time>2014-03-28T12:41:54Z</time>
      </trkpt>
      <trkpt lat="43.78372" lon="3.81675">
        <ele>229.89</ele>
        <time>2014-03-28T12:42:09Z</time>
      </trkpt>
      <trkpt lat="43.7837" lon="3.81669">
        <ele>229.89</ele>
        <time>2014-03-28T12:42:16Z</time>
      </trkpt>
      <trkpt lat="43.78365" lon="3.81655">
        <ele>231.33</ele>
        <time>2014-03-28T12:42:28Z</time>
      </trkpt>
      <trkpt lat="43.78363" lon="3.81648">
        <ele>231.33</ele>
        <time>2014-03-28T12:42:49Z</time>
      </trkpt>
      <trkpt lat="43.78362" lon="3.81646">
        <ele>231.33</ele>
        <time>2014-03-28T12:43:16Z</time>
      </trkpt>
      <trkpt lat="43.78355" lon="3.8163">
        <ele>231.81</ele>
        <time>2014-03-28T12:43:32Z</time>
      </trkpt>
      <trkpt lat="43.78351" lon="3.8162">
        <ele>233.74</ele>
        <time>2014-03-28T12:43:41Z</time>
      </trkpt>
      <trkpt lat="43.78343" lon="3.81609">
        <ele>237.1</ele>
        <time>2014-03-28T12:43:55Z</time>
      </trkpt>
      <trkpt lat="43.78339" lon="3.81594">
        <ele>239.99</ele>
        <time>2014-03-28T12:44:10Z</time>
      </trkpt>
      <trkpt lat="43.78329" lon="3.81575">
        <ele>242.39</ele>
        <time>2014-03-28T12:44:28Z</time>
      </trkpt>
      <trkpt lat="43.78321" lon="3.81561">
        <ele>245.27</ele>
        <time>2014-03-28T12:44:44Z</time>
      </trkpt>
      <trkpt lat="43.78318" lon="3.81546">
        <ele>247.68</ele>
        <time>2014-03-28T12:45:01Z</time>
      </trkpt>
      <trkpt lat="43.7831" lon="3.81528">
        <ele>250.08</ele>
        <time>2014-03-28T12:45:20Z</time>
      </trkpt>
      <trkpt lat="43.78306" lon="3.81513">
        <ele>252</ele>
        <time>2014-03-28T12:45:36Z</time>
      </trkpt>
      <trkpt lat="43.78303" lon="3.81499">
        <ele>253.44</ele>
        <time>2014-03-28T12:45:49Z</time>
      </trkpt>
      <trkpt lat="43.78301" lon="3.81476">
        <ele>255.85</ele>
        <time>2014-03-28T12:46:09Z</time>
      </trkpt>
      <trkpt lat="43.783" lon="3.81457">
        <ele>258.25</ele>
        <time>2014-03-28T12:46:25Z</time>
      </trkpt>
      <trkpt lat="43.78303" lon="3.81435">
        <ele>259.69</ele>
        <time>2014-03-28T12:46:40Z</time>
      </trkpt>
      <trkpt lat="43.78304" lon="3.81423">
        <ele>261.62</ele>
        <time>2014-03-28T12:46:57Z</time>
      </trkpt>
      <trkpt lat="43.78303" lon="3.81419">
        <ele>258.25</ele>
        <time>2014-03-28T12:47:14Z</time>
      </trkpt>
      <trkpt lat="43.78304" lon="3.81419">
        <ele>261.62</ele>
        <time>2014-03-28T12:47:21Z</time>
      </trkpt>
      <trkpt lat="43.78304" lon="3.81418">
        <ele>265.46</ele>
        <time>2014-03-28T12:47:25Z</time>
      </trkpt>
      <trkpt lat="43.78304" lon="3.81418">
        <ele>252.96</ele>
        <time>2014-03-28T12:47:26Z</time>
      </trkpt>
      <trkpt lat="43.78304" lon="3.81418">
        <ele>262.1</ele>
        <time>2014-03-28T12:47:27Z</time>
      </trkpt>
      <trkpt lat="43.78305" lon="3.81419">
        <ele>262.58</ele>
        <time>2014-03-28T12:47:48Z</time>
      </trkpt>
      <trkpt lat="43.78303" lon="3.81413">
        <ele>263.06</ele>
        <time>2014-03-28T12:47:56Z</time>
      </trkpt>
      <trkpt lat="43.78303" lon="3.81407">
        <ele>263.54</ele>
        <time>2014-03-28T12:48:01Z</time>
      </trkpt>
      <trkpt lat="43.78302" lon="3.81382">
        <ele>266.42</ele>
        <time>2014-03-28T12:48:21Z</time>
      </trkpt>
      <trkpt lat="43.78297" lon="3.81368">
        <ele>267.86</ele>
        <time>2014-03-28T12:48:37Z</time>
      </trkpt>
      <trkpt lat="43.78298" lon="3.81364">
        <ele>268.35</ele>
        <time>2014-03-28T12:48:40Z</time>
      </trkpt>
      <trkpt lat="43.78298" lon="3.81344">
        <ele>270.27</ele>
        <time>2014-03-28T12:48:58Z</time>
      </trkpt>
      <trkpt lat="43.783" lon="3.81331">
        <ele>273.63</ele>
        <time>2014-03-28T12:49:09Z</time>
      </trkpt>
      <trkpt lat="43.78304" lon="3.81324">
        <ele>274.11</ele>
        <time>2014-03-28T12:49:28Z</time>
      </trkpt>
      <trkpt lat="43.78308" lon="3.8132">
        <ele>275.07</ele>
        <time>2014-03-28T12:49:44Z</time>
      </trkpt>
      <trkpt lat="43.78316" lon="3.81316">
        <ele>273.63</ele>
        <time>2014-03-28T12:49:51Z</time>
      </trkpt>
      <trkpt lat="43.78333" lon="3.81308">
        <ele>275.07</ele>
        <time>2014-03-28T12:50:08Z</time>
      </trkpt>
      <trkpt lat="43.78336" lon="3.81303">
        <ele>275.07</ele>
        <time>2014-03-28T12:50:13Z</time>
      </trkpt>
      <trkpt lat="43.78341" lon="3.81291">
        <ele>277.48</ele>
        <time>2014-03-28T12:50:27Z</time>
      </trkpt>
      <trkpt lat="43.7834" lon="3.81288">
        <ele>277</ele>
        <time>2014-03-28T12:50:29Z</time>
      </trkpt>
      <trkpt lat="43.78342" lon="3.81277">
        <ele>280.36</ele>
        <time>2014-03-28T12:50:38Z</time>
      </trkpt>
      <trkpt lat="43.78354" lon="3.81267">
        <ele>282.28</ele>
        <time>2014-03-28T12:50:54Z</time>
      </trkpt>
      <trkpt lat="43.78355" lon="3.81266">
        <ele>282.77</ele>
        <time>2014-03-28T12:50:55Z</time>
      </trkpt>
      <trkpt lat="43.78356" lon="3.81263">
        <ele>283.73</ele>
        <time>2014-03-28T12:50:59Z</time>
      </trkpt>
      <trkpt lat="43.78359" lon="3.81251">
        <ele>284.21</ele>
        <time>2014-03-28T12:51:17Z</time>
      </trkpt>
      <trkpt lat="43.78358" lon="3.8125">
        <ele>282.77</ele>
        <time>2014-03-28T12:51:48Z</time>
      </trkpt>
      <trkpt lat="43.7836" lon="3.81242">
        <ele>282.77</ele>
        <time>2014-03-28T12:51:54Z</time>
      </trkpt>
      <trkpt lat="43.78359" lon="3.81215">
        <ele>283.25</ele>
        <time>2014-03-28T12:52:11Z</time>
      </trkpt>
      <trkpt lat="43.78358" lon="3.812">
        <ele>284.21</ele>
        <time>2014-03-28T12:52:21Z</time>
      </trkpt>
      <trkpt lat="43.78356" lon="3.81188">
        <ele>284.21</ele>
        <time>2014-03-28T12:52:29Z</time>
      </trkpt>
      <trkpt lat="43.78354" lon="3.81164">
        <ele>284.69</ele>
        <time>2014-03-28T12:52:43Z</time>
      </trkpt>
      <trkpt lat="43.78354" lon="3.81157">
        <ele>285.17</ele>
        <time>2014-03-28T12:52:47Z</time>
      </trkpt>
      <trkpt lat="43.78354" lon="3.81148">
        <ele>284.69</ele>
        <time>2014-03-28T12:52:52Z</time>
      </trkpt>
      <trkpt lat="43.78352" lon="3.8114">
        <ele>284.69</ele>
        <time>2014-03-28T12:52:57Z</time>
      </trkpt>
      <trkpt lat="43.78346" lon="3.81115">
        <ele>285.17</ele>
        <time>2014-03-28T12:53:12Z</time>
      </trkpt>
      <trkpt lat="43.78344" lon="3.81108">
        <ele>285.17</ele>
        <time>2014-03-28T12:53:16Z</time>
      </trkpt>
      <trkpt lat="43.78343" lon="3.81101">
        <ele>285.17</ele>
        <time>2014-03-28T12:53:20Z</time>
      </trkpt>
      <trkpt lat="43.78337" lon="3.81085">
        <ele>288.53</ele>
        <time>2014-03-28T12:53:30Z</time>
      </trkpt>
      <trkpt lat="43.78335" lon="3.81077">
        <ele>288.53</ele>
        <time>2014-03-28T12:53:35Z</time>
      </trkpt>
      <trkpt lat="43.78328" lon="3.81053">
        <ele>285.65</ele>
        <time>2014-03-28T12:53:50Z</time>
      </trkpt>
      <trkpt lat="43.78329" lon="3.81046">
        <ele>285.65</ele>
        <time>2014-03-28T12:53:54Z</time>
      </trkpt>
      <trkpt lat="43.78324" lon="3.81033">
        <ele>284.21</ele>
        <time>2014-03-28T12:54:02Z</time>
      </trkpt>
      <trkpt lat="43.78321" lon="3.81021">
        <ele>283.73</ele>
        <time>2014-03-28T12:54:11Z</time>
      </trkpt>
      <trkpt lat="43.78318" lon="3.81016">
        <ele>284.21</ele>
        <time>2014-03-28T12:54:15Z</time>
      </trkpt>
      <trkpt lat="43.78302" lon="3.80999">
        <ele>286.61</ele>
        <time>2014-03-28T12:54:34Z</time>
      </trkpt>
      <trkpt lat="43.783" lon="3.80998">
        <ele>287.09</ele>
        <time>2014-03-28T12:54:36Z</time>
      </trkpt>
      <trkpt lat="43.78293" lon="3.80988">
        <ele>289.97</ele>
        <time>2014-03-28T12:54:47Z</time>
      </trkpt>
      <trkpt lat="43.78286" lon="3.80975">
        <ele>292.38</ele>
        <time>2014-03-28T12:55:03Z</time>
      </trkpt>
      <trkpt lat="43.78278" lon="3.80962">
        <ele>292.86</ele>
        <time>2014-03-28T12:55:15Z</time>
      </trkpt>
      <trkpt lat="43.78275" lon="3.80946">
        <ele>295.26</ele>
        <time>2014-03-28T12:55:25Z</time>
      </trkpt>
      <trkpt lat="43.78273" lon="3.80942">
        <ele>296.7</ele>
        <time>2014-03-28T12:55:28Z</time>
      </trkpt>
      <trkpt lat="43.7827" lon="3.80936">
        <ele>296.22</ele>
        <time>2014-03-28T12:55:33Z</time>
      </trkpt>
      <trkpt lat="43.7826" lon="3.80907">
        <ele>297.67</ele>
        <time>2014-03-28T12:55:56Z</time>
      </trkpt>
      <trkpt lat="43.7826" lon="3.80906">
        <ele>298.15</ele>
        <time>2014-03-28T12:55:57Z</time>
      </trkpt>
      <trkpt lat="43.78251" lon="3.80892">
        <ele>300.07</ele>
        <time>2014-03-28T12:56:09Z</time>
      </trkpt>
      <trkpt lat="43.78239" lon="3.80876">
        <ele>302.47</ele>
        <time>2014-03-28T12:56:27Z</time>
      </trkpt>
      <trkpt lat="43.78231" lon="3.80859">
        <ele>305.36</ele>
        <time>2014-03-28T12:56:44Z</time>
      </trkpt>
      <trkpt lat="43.78225" lon="3.80837">
        <ele>307.76</ele>
        <time>2014-03-28T12:57:02Z</time>
      </trkpt>
      <trkpt lat="43.78222" lon="3.80822">
        <ele>309.2</ele>
        <time>2014-03-28T12:57:13Z</time>
      </trkpt>
      <trkpt lat="43.7822" lon="3.80807">
        <ele>311.12</ele>
        <time>2014-03-28T12:57:23Z</time>
      </trkpt>
      <trkpt lat="43.7822" lon="3.80792">
        <ele>313.05</ele>
        <time>2014-03-28T12:57:34Z</time>
      </trkpt>
      <trkpt lat="43.7822" lon="3.80784">
        <ele>312.57</ele>
        <time>2014-03-28T12:57:42Z</time>
      </trkpt>
      <trkpt lat="43.7822" lon="3.80781">
        <ele>313.53</ele>
        <time>2014-03-28T12:57:55Z</time>
      </trkpt>
      <trkpt lat="43.7822" lon="3.80781">
        <ele>312.57</ele>
        <time>2014-03-28T12:58:34Z</time>
      </trkpt>
      <trkpt lat="43.7822" lon="3.80781">
        <ele>312.09</ele>
        <time>2014-03-28T12:58:40Z</time>
      </trkpt>
      <trkpt lat="43.7822" lon="3.80781">
        <ele>307.28</ele>
        <time>2014-03-28T12:58:52Z</time>
      </trkpt>
      <trkpt lat="43.7822" lon="3.80781">
        <ele>314.01</ele>
        <time>2014-03-28T12:58:53Z</time>
      </trkpt>
      <trkpt lat="43.7822" lon="3.80781">
        <ele>312.09</ele>
        <time>2014-03-28T12:59:24Z</time>
      </trkpt>
      <trkpt lat="43.7822" lon="3.80781">
        <ele>312.09</ele>
        <time>2014-03-28T12:59:25Z</time>
      </trkpt>
      <trkpt lat="43.7822" lon="3.8078">
        <ele>311.6</ele>
        <time>2014-03-28T13:00:06Z</time>
      </trkpt>
      <trkpt lat="43.78219" lon="3.80779">
        <ele>310.64</ele>
        <time>2014-03-28T13:00:54Z</time>
      </trkpt>
      <trkpt lat="43.78219" lon="3.80779">
        <ele>311.6</ele>
        <time>2014-03-28T13:01:43Z</time>
      </trkpt>
      <trkpt lat="43.78218" lon="3.80779">
        <ele>311.6</ele>
        <time>2014-03-28T13:02:27Z</time>
      </trkpt>
      <trkpt lat="43.78219" lon="3.8078">
        <ele>312.57</ele>
        <time>2014-03-28T13:02:44Z</time>
      </trkpt>
      <trkpt lat="43.78216" lon="3.80779">
        <ele>312.09</ele>
        <time>2014-03-28T13:02:50Z</time>
      </trkpt>
      <trkpt lat="43.78212" lon="3.80778">
        <ele>313.05</ele>
        <time>2014-03-28T13:02:55Z</time>
      </trkpt>
      <trkpt lat="43.78197" lon="3.80767">
        <ele>312.57</ele>
        <time>2014-03-28T13:03:13Z</time>
      </trkpt>
      <trkpt lat="43.78192" lon="3.80762">
        <ele>312.57</ele>
        <time>2014-03-28T13:03:18Z</time>
      </trkpt>
      <trkpt lat="43.78181" lon="3.80748">
        <ele>312.57</ele>
        <time>2014-03-28T13:03:31Z</time>
      </trkpt>
      <trkpt lat="43.78179" lon="3.80743">
        <ele>312.57</ele>
        <time>2014-03-28T13:03:34Z</time>
      </trkpt>
      <trkpt lat="43.78167" lon="3.80711">
        <ele>314.49</ele>
        <time>2014-03-28T13:03:57Z</time>
      </trkpt>
      <trkpt lat="43.78162" lon="3.80685">
        <ele>314.49</ele>
        <time>2014-03-28T13:04:13Z</time>
      </trkpt>
      <trkpt lat="43.78161" lon="3.80673">
        <ele>314.01</ele>
        <time>2014-03-28T13:04:20Z</time>
      </trkpt>
      <trkpt lat="43.78158" lon="3.80645">
        <ele>314.49</ele>
        <time>2014-03-28T13:04:35Z</time>
      </trkpt>
      <trkpt lat="43.78157" lon="3.80623">
        <ele>313.53</ele>
        <time>2014-03-28T13:04:47Z</time>
      </trkpt>
      <trkpt lat="43.78155" lon="3.80614">
        <ele>313.05</ele>
        <time>2014-03-28T13:04:52Z</time>
      </trkpt>
      <trkpt lat="43.78151" lon="3.806">
        <ele>312.09</ele>
        <time>2014-03-28T13:05:02Z</time>
      </trkpt>
      <trkpt lat="43.78152" lon="3.80592">
        <ele>312.09</ele>
        <time>2014-03-28T13:05:07Z</time>
      </trkpt>
      <trkpt lat="43.78151" lon="3.80564">
        <ele>310.16</ele>
        <time>2014-03-28T13:05:24Z</time>
      </trkpt>
      <trkpt lat="43.7815" lon="3.8056">
        <ele>310.16</ele>
        <time>2014-03-28T13:05:26Z</time>
      </trkpt>
      <trkpt lat="43.78148" lon="3.80552">
        <ele>309.2</ele>
        <time>2014-03-28T13:05:31Z</time>
      </trkpt>
      <trkpt lat="43.78147" lon="3.80542">
        <ele>308.72</ele>
        <time>2014-03-28T13:05:36Z</time>
      </trkpt>
      <trkpt lat="43.78143" lon="3.80526">
        <ele>308.72</ele>
        <time>2014-03-28T13:05:47Z</time>
      </trkpt>
      <trkpt lat="43.78143" lon="3.80518">
        <ele>308.24</ele>
        <time>2014-03-28T13:05:51Z</time>
      </trkpt>
      <trkpt lat="43.78144" lon="3.80509">
        <ele>307.28</ele>
        <time>2014-03-28T13:05:56Z</time>
      </trkpt>
      <trkpt lat="43.78141" lon="3.80483">
        <ele>306.8</ele>
        <time>2014-03-28T13:06:12Z</time>
      </trkpt>
      <trkpt lat="43.7814" lon="3.8048">
        <ele>307.28</ele>
        <time>2014-03-28T13:06:14Z</time>
      </trkpt>
      <trkpt lat="43.78137" lon="3.80462">
        <ele>307.28</ele>
        <time>2014-03-28T13:06:24Z</time>
      </trkpt>
      <trkpt lat="43.78138" lon="3.80441">
        <ele>306.8</ele>
        <time>2014-03-28T13:06:34Z</time>
      </trkpt>
      <trkpt lat="43.78137" lon="3.80437">
        <ele>306.8</ele>
        <time>2014-03-28T13:06:36Z</time>
      </trkpt>
      <trkpt lat="43.78134" lon="3.80409">
        <ele>304.88</ele>
        <time>2014-03-28T13:06:52Z</time>
      </trkpt>
      <trkpt lat="43.78132" lon="3.80398">
        <ele>304.39</ele>
        <time>2014-03-28T13:06:57Z</time>
      </trkpt>
      <trkpt lat="43.78129" lon="3.80369">
        <ele>302.47</ele>
        <time>2014-03-28T13:07:12Z</time>
      </trkpt>
      <trkpt lat="43.7813" lon="3.80361">
        <ele>301.99</ele>
        <time>2014-03-28T13:07:17Z</time>
      </trkpt>
      <trkpt lat="43.78128" lon="3.80347">
        <ele>301.51</ele>
        <time>2014-03-28T13:07:25Z</time>
      </trkpt>
      <trkpt lat="43.78128" lon="3.80336">
        <ele>299.11</ele>
        <time>2014-03-28T13:07:34Z</time>
      </trkpt>
      <trkpt lat="43.7813" lon="3.80328">
        <ele>298.15</ele>
        <time>2014-03-28T13:07:39Z</time>
      </trkpt>
      <trkpt lat="43.78135" lon="3.80319">
        <ele>296.7</ele>
        <time>2014-03-28T13:07:46Z</time>
      </trkpt>
      <trkpt lat="43.78134" lon="3.80316">
        <ele>295.74</ele>
        <time>2014-03-28T13:07:48Z</time>
      </trkpt>
      <trkpt lat="43.78133" lon="3.8031">
        <ele>294.78</ele>
        <time>2014-03-28T13:07:53Z</time>
      </trkpt>
      <trkpt lat="43.78133" lon="3.80305">
        <ele>294.3</ele>
        <time>2014-03-28T13:07:56Z</time>
      </trkpt>
      <trkpt lat="43.78137" lon="3.80301">
        <ele>294.3</ele>
        <time>2014-03-28T13:07:59Z</time>
      </trkpt>
      <trkpt lat="43.78136" lon="3.80293">
        <ele>293.82</ele>
        <time>2014-03-28T13:08:03Z</time>
      </trkpt>
      <trkpt lat="43.78135" lon="3.80273">
        <ele>291.42</ele>
        <time>2014-03-28T13:08:15Z</time>
      </trkpt>
      <trkpt lat="43.78135" lon="3.80264">
        <ele>290.46</ele>
        <time>2014-03-28T13:08:21Z</time>
      </trkpt>
      <trkpt lat="43.78135" lon="3.80252">
        <ele>289.01</ele>
        <time>2014-03-28T13:08:28Z</time>
      </trkpt>
      <trkpt lat="43.78136" lon="3.80249">
        <ele>289.01</ele>
        <time>2014-03-28T13:08:30Z</time>
      </trkpt>
      <trkpt lat="43.78136" lon="3.80245">
        <ele>288.05</ele>
        <time>2014-03-28T13:08:32Z</time>
      </trkpt>
      <trkpt lat="43.78134" lon="3.80229">
        <ele>287.09</ele>
        <time>2014-03-28T13:08:50Z</time>
      </trkpt>
      <trkpt lat="43.78133" lon="3.80227">
        <ele>286.61</ele>
        <time>2014-03-28T13:08:52Z</time>
      </trkpt>
      <trkpt lat="43.78131" lon="3.80221">
        <ele>286.61</ele>
        <time>2014-03-28T13:08:56Z</time>
      </trkpt>
      <trkpt lat="43.78129" lon="3.80207">
        <ele>286.13</ele>
        <time>2014-03-28T13:09:05Z</time>
      </trkpt>
      <trkpt lat="43.78124" lon="3.80189">
        <ele>284.69</ele>
        <time>2014-03-28T13:09:18Z</time>
      </trkpt>
      <trkpt lat="43.78114" lon="3.80165">
        <ele>281.8</ele>
        <time>2014-03-28T13:09:35Z</time>
      </trkpt>
      <trkpt lat="43.78111" lon="3.80158">
        <ele>281.32</ele>
        <time>2014-03-28T13:10:02Z</time>
      </trkpt>
      <trkpt lat="43.78112" lon="3.80155">
        <ele>281.32</ele>
        <time>2014-03-28T13:10:30Z</time>
      </trkpt>
      <trkpt lat="43.78111" lon="3.80154">
        <ele>281.8</ele>
        <time>2014-03-28T13:11:01Z</time>
      </trkpt>
      <trkpt lat="43.78108" lon="3.80151">
        <ele>280.36</ele>
        <time>2014-03-28T13:11:30Z</time>
      </trkpt>
      <trkpt lat="43.78104" lon="3.80146">
        <ele>280.36</ele>
        <time>2014-03-28T13:11:36Z</time>
      </trkpt>
      <trkpt lat="43.78102" lon="3.8014">
        <ele>279.88</ele>
        <time>2014-03-28T13:11:41Z</time>
      </trkpt>
      <trkpt lat="43.78101" lon="3.80137">
        <ele>279.88</ele>
        <time>2014-03-28T13:11:43Z</time>
      </trkpt>
      <trkpt lat="43.78102" lon="3.8013">
        <ele>279.4</ele>
        <time>2014-03-28T13:11:47Z</time>
      </trkpt>
      <trkpt lat="43.781" lon="3.80121">
        <ele>279.4</ele>
        <time>2014-03-28T13:11:53Z</time>
      </trkpt>
      <trkpt lat="43.78098" lon="3.80115">
        <ele>279.4</ele>
        <time>2014-03-28T13:11:58Z</time>
      </trkpt>
      <trkpt lat="43.781" lon="3.80095">
        <ele>278.92</ele>
        <time>2014-03-28T13:12:10Z</time>
      </trkpt>
      <trkpt lat="43.78099" lon="3.80087">
        <ele>278.92</ele>
        <time>2014-03-28T13:12:15Z</time>
      </trkpt>
      <trkpt lat="43.78099" lon="3.80078">
        <ele>278.44</ele>
        <time>2014-03-28T13:12:20Z</time>
      </trkpt>
      <trkpt lat="43.78099" lon="3.80071">
        <ele>278.44</ele>
        <time>2014-03-28T13:12:24Z</time>
      </trkpt>
      <trkpt lat="43.78098" lon="3.80067">
        <ele>278.44</ele>
        <time>2014-03-28T13:12:26Z</time>
      </trkpt>
      <trkpt lat="43.78099" lon="3.8006">
        <ele>277.96</ele>
        <time>2014-03-28T13:12:31Z</time>
      </trkpt>
      <trkpt lat="43.78098" lon="3.80057">
        <ele>277.96</ele>
        <time>2014-03-28T13:12:33Z</time>
      </trkpt>
      <trkpt lat="43.78091" lon="3.80034">
        <ele>276.04</ele>
        <time>2014-03-28T13:12:47Z</time>
      </trkpt>
      <trkpt lat="43.78089" lon="3.80032">
        <ele>276.04</ele>
        <time>2014-03-28T13:12:49Z</time>
      </trkpt>
      <trkpt lat="43.78082" lon="3.80008">
        <ele>274.11</ele>
        <time>2014-03-28T13:13:08Z</time>
      </trkpt>
      <trkpt lat="43.78085" lon="3.79993">
        <ele>271.23</ele>
        <time>2014-03-28T13:13:18Z</time>
      </trkpt>
      <trkpt lat="43.78094" lon="3.79977">
        <ele>268.35</ele>
        <time>2014-03-28T13:13:33Z</time>
      </trkpt>
      <trkpt lat="43.78103" lon="3.79956">
        <ele>264.98</ele>
        <time>2014-03-28T13:13:48Z</time>
      </trkpt>
      <trkpt lat="43.78104" lon="3.79955">
        <ele>264.98</ele>
        <time>2014-03-28T13:13:49Z</time>
      </trkpt>
      <trkpt lat="43.78105" lon="3.79953">
        <ele>264.02</ele>
        <time>2014-03-28T13:13:51Z</time>
      </trkpt>
      <trkpt lat="43.78108" lon="3.79945">
        <ele>263.06</ele>
        <time>2014-03-28T13:13:58Z</time>
      </trkpt>
      <trkpt lat="43.78109" lon="3.7994">
        <ele>261.62</ele>
        <time>2014-03-28T13:14:02Z</time>
      </trkpt>
      <trkpt lat="43.7811" lon="3.79935">
        <ele>261.62</ele>
        <time>2014-03-28T13:14:05Z</time>
      </trkpt>
      <trkpt lat="43.7811" lon="3.79926">
        <ele>261.14</ele>
        <time>2014-03-28T13:14:10Z</time>
      </trkpt>
      <trkpt lat="43.78107" lon="3.79905">
        <ele>260.17</ele>
        <time>2014-03-28T13:14:21Z</time>
      </trkpt>
      <trkpt lat="43.78105" lon="3.79899">
        <ele>260.65</ele>
        <time>2014-03-28T13:14:24Z</time>
      </trkpt>
      <trkpt lat="43.78094" lon="3.7987">
        <ele>259.21</ele>
        <time>2014-03-28T13:14:43Z</time>
      </trkpt>
      <trkpt lat="43.78092" lon="3.79862">
        <ele>259.21</ele>
        <time>2014-03-28T13:14:48Z</time>
      </trkpt>
      <trkpt lat="43.78086" lon="3.7984">
        <ele>258.73</ele>
        <time>2014-03-28T13:15:03Z</time>
      </trkpt>
      <trkpt lat="43.78086" lon="3.79837">
        <ele>258.73</ele>
        <time>2014-03-28T13:15:05Z</time>
      </trkpt>
      <trkpt lat="43.78086" lon="3.79809">
        <ele>255.85</ele>
        <time>2014-03-28T13:15:22Z</time>
      </trkpt>
      <trkpt lat="43.78085" lon="3.79782">
        <ele>252.48</ele>
        <time>2014-03-28T13:15:37Z</time>
      </trkpt>
      <trkpt lat="43.78084" lon="3.79777">
        <ele>252.48</ele>
        <time>2014-03-28T13:15:40Z</time>
      </trkpt>
      <trkpt lat="43.78085" lon="3.79749">
        <ele>251.04</ele>
        <time>2014-03-28T13:15:56Z</time>
      </trkpt>
      <trkpt lat="43.78085" lon="3.79746">
        <ele>250.56</ele>
        <time>2014-03-28T13:15:58Z</time>
      </trkpt>
      <trkpt lat="43.78082" lon="3.79734">
        <ele>250.08</ele>
        <time>2014-03-28T13:16:05Z</time>
      </trkpt>
      <trkpt lat="43.78083" lon="3.79717">
        <ele>249.6</ele>
        <time>2014-03-28T13:16:15Z</time>
      </trkpt>
      <trkpt lat="43.78085" lon="3.79699">
        <ele>249.6</ele>
        <time>2014-03-28T13:16:26Z</time>
      </trkpt>
      <trkpt lat="43.78094" lon="3.79671">
        <ele>247.2</ele>
        <time>2014-03-28T13:16:43Z</time>
      </trkpt>
      <trkpt lat="43.78098" lon="3.79661">
        <ele>246.23</ele>
        <time>2014-03-28T13:16:49Z</time>
      </trkpt>
      <trkpt lat="43.78102" lon="3.79655">
        <ele>246.23</ele>
        <time>2014-03-28T13:16:54Z</time>
      </trkpt>
      <trkpt lat="43.78105" lon="3.79648">
        <ele>245.27</ele>
        <time>2014-03-28T13:16:58Z</time>
      </trkpt>
      <trkpt lat="43.78107" lon="3.79642">
        <ele>245.27</ele>
        <time>2014-03-28T13:17:02Z</time>
      </trkpt>
      <trkpt lat="43.78111" lon="3.79637">
        <ele>244.79</ele>
        <time>2014-03-28T13:17:06Z</time>
      </trkpt>
      <trkpt lat="43.78113" lon="3.79631">
        <ele>244.31</ele>
        <time>2014-03-28T13:17:10Z</time>
      </trkpt>
      <trkpt lat="43.78113" lon="3.79626">
        <ele>244.31</ele>
        <time>2014-03-28T13:17:25Z</time>
      </trkpt>
      <trkpt lat="43.78113" lon="3.79626">
        <ele>241.43</ele>
        <time>2014-03-28T13:17:28Z</time>
      </trkpt>
      <trkpt lat="43.78113" lon="3.79626">
        <ele>245.75</ele>
        <time>2014-03-28T13:17:29Z</time>
      </trkpt>
      <trkpt lat="43.78113" lon="3.79626">
        <ele>244.79</ele>
        <time>2014-03-28T13:17:30Z</time>
      </trkpt>
      <trkpt lat="43.78112" lon="3.79626">
        <ele>248.64</ele>
        <time>2014-03-28T13:17:47Z</time>
      </trkpt>
      <trkpt lat="43.78112" lon="3.79626">
        <ele>243.83</ele>
        <time>2014-03-28T13:17:48Z</time>
      </trkpt>
      <trkpt lat="43.78112" lon="3.79627">
        <ele>242.87</ele>
        <time>2014-03-28T13:17:55Z</time>
      </trkpt>
      <trkpt lat="43.78112" lon="3.79626">
        <ele>243.83</ele>
        <time>2014-03-28T13:18:22Z</time>
      </trkpt>
      <trkpt lat="43.78114" lon="3.79619">
        <ele>243.35</ele>
        <time>2014-03-28T13:18:36Z</time>
      </trkpt>
      <trkpt lat="43.78115" lon="3.79609">
        <ele>243.35</ele>
        <time>2014-03-28T13:18:42Z</time>
      </trkpt>
      <trkpt lat="43.78115" lon="3.79605">
        <ele>242.87</ele>
        <time>2014-03-28T13:18:44Z</time>
      </trkpt>
      <trkpt lat="43.78114" lon="3.79601">
        <ele>243.35</ele>
        <time>2014-03-28T13:18:47Z</time>
      </trkpt>
      <trkpt lat="43.78113" lon="3.79596">
        <ele>242.87</ele>
        <time>2014-03-28T13:19:14Z</time>
      </trkpt>
      <trkpt lat="43.78112" lon="3.79592">
        <ele>243.35</ele>
        <time>2014-03-28T13:19:32Z</time>
      </trkpt>
      <trkpt lat="43.78111" lon="3.79586">
        <ele>243.83</ele>
        <time>2014-03-28T13:19:36Z</time>
      </trkpt>
      <trkpt lat="43.781" lon="3.79569">
        <ele>245.75</ele>
        <time>2014-03-28T13:19:55Z</time>
      </trkpt>
      <trkpt lat="43.781" lon="3.79568">
        <ele>245.27</ele>
        <time>2014-03-28T13:20:33Z</time>
      </trkpt>
      <trkpt lat="43.781" lon="3.79568">
        <ele>245.27</ele>
        <time>2014-03-28T13:20:40Z</time>
      </trkpt>
      <trkpt lat="43.781" lon="3.79567">
        <ele>245.27</ele>
        <time>2014-03-28T13:20:42Z</time>
      </trkpt>
      <trkpt lat="43.78098" lon="3.79563">
        <ele>246.23</ele>
        <time>2014-03-28T13:20:46Z</time>
      </trkpt>
      <trkpt lat="43.78093" lon="3.79553">
        <ele>246.23</ele>
        <time>2014-03-28T13:20:55Z</time>
      </trkpt>
      <trkpt lat="43.7809" lon="3.79544">
        <ele>246.23</ele>
        <time>2014-03-28T13:21:01Z</time>
      </trkpt>
      <trkpt lat="43.78087" lon="3.79531">
        <ele>246.72</ele>
        <time>2014-03-28T13:21:09Z</time>
      </trkpt>
      <trkpt lat="43.78082" lon="3.79521">
        <ele>246.72</ele>
        <time>2014-03-28T13:21:17Z</time>
      </trkpt>
      <trkpt lat="43.78078" lon="3.79513">
        <ele>247.2</ele>
        <time>2014-03-28T13:21:23Z</time>
      </trkpt>
      <trkpt lat="43.78076" lon="3.79507">
        <ele>247.2</ele>
        <time>2014-03-28T13:21:27Z</time>
      </trkpt>
      <trkpt lat="43.78069" lon="3.79495">
        <ele>248.16</ele>
        <time>2014-03-28T13:21:37Z</time>
      </trkpt>
      <trkpt lat="43.78068" lon="3.79485">
        <ele>248.16</ele>
        <time>2014-03-28T13:21:44Z</time>
      </trkpt>
      <trkpt lat="43.7806" lon="3.79461">
        <ele>248.16</ele>
        <time>2014-03-28T13:21:59Z</time>
      </trkpt>
      <trkpt lat="43.78058" lon="3.79455">
        <ele>248.64</ele>
        <time>2014-03-28T13:22:04Z</time>
      </trkpt>
      <trkpt lat="43.78055" lon="3.79447">
        <ele>248.16</ele>
        <time>2014-03-28T13:22:09Z</time>
      </trkpt>
      <trkpt lat="43.78054" lon="3.79439">
        <ele>248.64</ele>
        <time>2014-03-28T13:22:13Z</time>
      </trkpt>
      <trkpt lat="43.78045" lon="3.79421">
        <ele>248.64</ele>
        <time>2014-03-28T13:22:26Z</time>
      </trkpt>
      <trkpt lat="43.78045" lon="3.79422">
        <ele>248.64</ele>
        <time>2014-03-28T13:22:46Z</time>
      </trkpt>
      <trkpt lat="43.78046" lon="3.79423">
        <ele>248.16</ele>
        <time>2014-03-28T13:23:28Z</time>
      </trkpt>
      <trkpt lat="43.7804" lon="3.79426">
        <ele>249.6</ele>
        <time>2014-03-28T13:24:05Z</time>
      </trkpt>
      <trkpt lat="43.78032" lon="3.79434">
        <ele>252.48</ele>
        <time>2014-03-28T13:24:17Z</time>
      </trkpt>
      <trkpt lat="43.78024" lon="3.79446">
        <ele>253.93</ele>
        <time>2014-03-28T13:24:37Z</time>
      </trkpt>
      <trkpt lat="43.78022" lon="3.79448">
        <ele>254.41</ele>
        <time>2014-03-28T13:24:42Z</time>
      </trkpt>
      <trkpt lat="43.78014" lon="3.79461">
        <ele>256.33</ele>
        <time>2014-03-28T13:24:57Z</time>
      </trkpt>
      <trkpt lat="43.78002" lon="3.79474">
        <ele>260.17</ele>
        <time>2014-03-28T13:25:15Z</time>
      </trkpt>
      <trkpt lat="43.77991" lon="3.79485">
        <ele>263.06</ele>
        <time>2014-03-28T13:25:32Z</time>
      </trkpt>
      <trkpt lat="43.77982" lon="3.79497">
        <ele>265.46</ele>
        <time>2014-03-28T13:25:49Z</time>
      </trkpt>
      <trkpt lat="43.77969" lon="3.79512">
        <ele>268.83</ele>
        <time>2014-03-28T13:26:08Z</time>
      </trkpt>
      <trkpt lat="43.7796" lon="3.79525">
        <ele>271.71</ele>
        <time>2014-03-28T13:26:28Z</time>
      </trkpt>
      <trkpt lat="43.7795" lon="3.79537">
        <ele>275.07</ele>
        <time>2014-03-28T13:26:45Z</time>
      </trkpt>
      <trkpt lat="43.77937" lon="3.79546">
        <ele>278.44</ele>
        <time>2014-03-28T13:27:02Z</time>
      </trkpt>
      <trkpt lat="43.7793" lon="3.79537">
        <ele>281.32</ele>
        <time>2014-03-28T13:27:18Z</time>
      </trkpt>
      <trkpt lat="43.77928" lon="3.79524">
        <ele>283.25</ele>
        <time>2014-03-28T13:27:33Z</time>
      </trkpt>
      <trkpt lat="43.77921" lon="3.79523">
        <ele>286.13</ele>
        <time>2014-03-28T13:27:47Z</time>
      </trkpt>
      <trkpt lat="43.7791" lon="3.79531">
        <ele>289.01</ele>
        <time>2014-03-28T13:28:03Z</time>
      </trkpt>
      <trkpt lat="43.77904" lon="3.79536">
        <ele>291.9</ele>
        <time>2014-03-28T13:28:19Z</time>
      </trkpt>
      <trkpt lat="43.779" lon="3.7954">
        <ele>294.78</ele>
        <time>2014-03-28T13:28:33Z</time>
      </trkpt>
      <trkpt lat="43.77893" lon="3.79547">
        <ele>295.74</ele>
        <time>2014-03-28T13:28:41Z</time>
      </trkpt>
      <trkpt lat="43.7788" lon="3.79559">
        <ele>299.11</ele>
        <time>2014-03-28T13:28:56Z</time>
      </trkpt>
      <trkpt lat="43.77877" lon="3.79561">
        <ele>302.47</ele>
        <time>2014-03-28T13:29:12Z</time>
      </trkpt>
      <trkpt lat="43.77873" lon="3.79559">
        <ele>304.88</ele>
        <time>2014-03-28T13:29:29Z</time>
      </trkpt>
      <trkpt lat="43.77871" lon="3.79552">
        <ele>305.84</ele>
        <time>2014-03-28T13:29:38Z</time>
      </trkpt>
      <trkpt lat="43.77871" lon="3.79549">
        <ele>305.36</ele>
        <time>2014-03-28T13:29:40Z</time>
      </trkpt>
      <trkpt lat="43.7787" lon="3.79542">
        <ele>305.84</ele>
        <time>2014-03-28T13:29:47Z</time>
      </trkpt>
      <trkpt lat="43.77873" lon="3.79538">
        <ele>305.36</ele>
        <time>2014-03-28T13:29:51Z</time>
      </trkpt>
      <trkpt lat="43.77874" lon="3.79524">
        <ele>305.36</ele>
        <time>2014-03-28T13:30:10Z</time>
      </trkpt>
      <trkpt lat="43.77873" lon="3.79523">
        <ele>305.36</ele>
        <time>2014-03-28T13:30:11Z</time>
      </trkpt>
      <trkpt lat="43.77874" lon="3.79519">
        <ele>305.84</ele>
        <time>2014-03-28T13:30:13Z</time>
      </trkpt>
      <trkpt lat="43.77877" lon="3.7949">
        <ele>308.24</ele>
        <time>2014-03-28T13:30:32Z</time>
      </trkpt>
      <trkpt lat="43.77877" lon="3.79464">
        <ele>311.6</ele>
        <time>2014-03-28T13:30:50Z</time>
      </trkpt>
      <trkpt lat="43.77877" lon="3.79444">
        <ele>312.57</ele>
        <time>2014-03-28T13:31:04Z</time>
      </trkpt>
      <trkpt lat="43.77878" lon="3.79421">
        <ele>314.49</ele>
        <time>2014-03-28T13:31:21Z</time>
      </trkpt>
      <trkpt lat="43.77877" lon="3.79402">
        <ele>316.89</ele>
        <time>2014-03-28T13:31:36Z</time>
      </trkpt>
      <trkpt lat="43.77875" lon="3.79376">
        <ele>318.81</ele>
        <time>2014-03-28T13:31:54Z</time>
      </trkpt>
      <trkpt lat="43.77875" lon="3.79363">
        <ele>317.85</ele>
        <time>2014-03-28T13:32:05Z</time>
      </trkpt>
      <trkpt lat="43.77874" lon="3.79342">
        <ele>318.33</ele>
        <time>2014-03-28T13:32:21Z</time>
      </trkpt>
      <trkpt lat="43.77876" lon="3.79329">
        <ele>319.3</ele>
        <time>2014-03-28T13:32:31Z</time>
      </trkpt>
      <trkpt lat="43.77877" lon="3.79326">
        <ele>319.3</ele>
        <time>2014-03-28T13:32:33Z</time>
      </trkpt>
      <trkpt lat="43.77878" lon="3.79307">
        <ele>319.3</ele>
        <time>2014-03-28T13:32:43Z</time>
      </trkpt>
      <trkpt lat="43.77876" lon="3.79296">
        <ele>320.26</ele>
        <time>2014-03-28T13:32:50Z</time>
      </trkpt>
      <trkpt lat="43.77872" lon="3.79268">
        <ele>322.18</ele>
        <time>2014-03-28T13:33:08Z</time>
      </trkpt>
      <trkpt lat="43.77868" lon="3.79244">
        <ele>322.18</ele>
        <time>2014-03-28T13:33:25Z</time>
      </trkpt>
      <trkpt lat="43.77868" lon="3.79242">
        <ele>322.18</ele>
        <time>2014-03-28T13:33:26Z</time>
      </trkpt>
      <trkpt lat="43.77863" lon="3.79211">
        <ele>321.7</ele>
        <time>2014-03-28T13:33:45Z</time>
      </trkpt>
      <trkpt lat="43.77862" lon="3.79202">
        <ele>321.7</ele>
        <time>2014-03-28T13:33:51Z</time>
      </trkpt>
      <trkpt lat="43.77863" lon="3.79198">
        <ele>321.7</ele>
        <time>2014-03-28T13:33:54Z</time>
      </trkpt>
      <trkpt lat="43.77863" lon="3.79193">
        <ele>321.22</ele>
        <time>2014-03-28T13:33:57Z</time>
      </trkpt>
      <trkpt lat="43.77863" lon="3.79183">
        <ele>321.7</ele>
        <time>2014-03-28T13:34:02Z</time>
      </trkpt>
      <trkpt lat="43.77861" lon="3.79178">
        <ele>322.18</ele>
        <time>2014-03-28T13:34:05Z</time>
      </trkpt>
      <trkpt lat="43.77861" lon="3.79175">
        <ele>322.18</ele>
        <time>2014-03-28T13:34:07Z</time>
      </trkpt>
      <trkpt lat="43.77851" lon="3.7916">
        <ele>323.14</ele>
        <time>2014-03-28T13:34:17Z</time>
      </trkpt>
      <trkpt lat="43.77845" lon="3.79147">
        <ele>322.66</ele>
        <time>2014-03-28T13:34:25Z</time>
      </trkpt>
      <trkpt lat="43.77844" lon="3.79144">
        <ele>323.14</ele>
        <time>2014-03-28T13:34:27Z</time>
      </trkpt>
      <trkpt lat="43.77841" lon="3.79138">
        <ele>322.66</ele>
        <time>2014-03-28T13:34:31Z</time>
      </trkpt>
      <trkpt lat="43.77832" lon="3.7912">
        <ele>323.14</ele>
        <time>2014-03-28T13:34:42Z</time>
      </trkpt>
      <trkpt lat="43.77816" lon="3.79096">
        <ele>323.62</ele>
        <time>2014-03-28T13:35:02Z</time>
      </trkpt>
      <trkpt lat="43.77813" lon="3.79091">
        <ele>324.1</ele>
        <time>2014-03-28T13:35:06Z</time>
      </trkpt>
      <trkpt lat="43.778" lon="3.7907">
        <ele>325.06</ele>
        <time>2014-03-28T13:35:25Z</time>
      </trkpt>
      <trkpt lat="43.77799" lon="3.79068">
        <ele>325.06</ele>
        <time>2014-03-28T13:35:27Z</time>
      </trkpt>
      <trkpt lat="43.77794" lon="3.79059">
        <ele>325.54</ele>
        <time>2014-03-28T13:35:34Z</time>
      </trkpt>
      <trkpt lat="43.77792" lon="3.79057">
        <ele>325.54</ele>
        <time>2014-03-28T13:35:36Z</time>
      </trkpt>
      <trkpt lat="43.77788" lon="3.79049">
        <ele>326.02</ele>
        <time>2014-03-28T13:35:41Z</time>
      </trkpt>
      <trkpt lat="43.77787" lon="3.79043">
        <ele>326.02</ele>
        <time>2014-03-28T13:35:46Z</time>
      </trkpt>
      <trkpt lat="43.77777" lon="3.79027">
        <ele>328.43</ele>
        <time>2014-03-28T13:36:03Z</time>
      </trkpt>
      <trkpt lat="43.77778" lon="3.79027">
        <ele>328.43</ele>
        <time>2014-03-28T13:36:04Z</time>
      </trkpt>
      <trkpt lat="43.77771" lon="3.7901">
        <ele>328.43</ele>
        <time>2014-03-28T13:36:20Z</time>
      </trkpt>
      <trkpt lat="43.77772" lon="3.79002">
        <ele>328.91</ele>
        <time>2014-03-28T13:36:26Z</time>
      </trkpt>
      <trkpt lat="43.77773" lon="3.78994">
        <ele>330.35</ele>
        <time>2014-03-28T13:36:32Z</time>
      </trkpt>
      <trkpt lat="43.77778" lon="3.78978">
        <ele>333.23</ele>
        <time>2014-03-28T13:36:48Z</time>
      </trkpt>
      <trkpt lat="43.77784" lon="3.78963">
        <ele>335.64</ele>
        <time>2014-03-28T13:37:02Z</time>
      </trkpt>
      <trkpt lat="43.77781" lon="3.78942">
        <ele>336.6</ele>
        <time>2014-03-28T13:37:19Z</time>
      </trkpt>
      <trkpt lat="43.77782" lon="3.78934">
        <ele>336.6</ele>
        <time>2014-03-28T13:37:24Z</time>
      </trkpt>
      <trkpt lat="43.77778" lon="3.78913">
        <ele>336.6</ele>
        <time>2014-03-28T13:37:39Z</time>
      </trkpt>
      <trkpt lat="43.77768" lon="3.789">
        <ele>339.48</ele>
        <time>2014-03-28T13:37:54Z</time>
      </trkpt>
      <trkpt lat="43.77766" lon="3.78897">
        <ele>339.96</ele>
        <time>2014-03-28T13:37:57Z</time>
      </trkpt>
      <trkpt lat="43.77763" lon="3.78893">
        <ele>340.44</ele>
        <time>2014-03-28T13:38:01Z</time>
      </trkpt>
      <trkpt lat="43.77755" lon="3.78879">
        <ele>342.37</ele>
        <time>2014-03-28T13:38:16Z</time>
      </trkpt>
      <trkpt lat="43.77737" lon="3.78873">
        <ele>343.33</ele>
        <time>2014-03-28T13:38:40Z</time>
      </trkpt>
      <trkpt lat="43.77724" lon="3.78865">
        <ele>344.77</ele>
        <time>2014-03-28T13:39:07Z</time>
      </trkpt>
      <trkpt lat="43.77717" lon="3.78858">
        <ele>345.73</ele>
        <time>2014-03-28T13:39:15Z</time>
      </trkpt>
      <trkpt lat="43.7771" lon="3.78838">
        <ele>347.65</ele>
        <time>2014-03-28T13:39:33Z</time>
      </trkpt>
      <trkpt lat="43.77709" lon="3.78832">
        <ele>349.1</ele>
        <time>2014-03-28T13:39:39Z</time>
      </trkpt>
      <trkpt lat="43.77705" lon="3.7882">
        <ele>351.5</ele>
        <time>2014-03-28T13:39:55Z</time>
      </trkpt>
      <trkpt lat="43.77698" lon="3.78812">
        <ele>354.38</ele>
        <time>2014-03-28T13:40:12Z</time>
      </trkpt>
      <trkpt lat="43.77698" lon="3.78811">
        <ele>354.38</ele>
        <time>2014-03-28T13:40:13Z</time>
      </trkpt>
      <trkpt lat="43.77691" lon="3.78798">
        <ele>356.79</ele>
        <time>2014-03-28T13:40:30Z</time>
      </trkpt>
      <trkpt lat="43.77685" lon="3.78782">
        <ele>360.15</ele>
        <time>2014-03-28T13:40:46Z</time>
      </trkpt>
      <trkpt lat="43.77683" lon="3.78767">
        <ele>362.07</ele>
        <time>2014-03-28T13:41:02Z</time>
      </trkpt>
      <trkpt lat="43.77681" lon="3.78766">
        <ele>363.52</ele>
        <time>2014-03-28T13:41:08Z</time>
      </trkpt>
      <trkpt lat="43.77679" lon="3.78767">
        <ele>365.44</ele>
        <time>2014-03-28T13:41:24Z</time>
      </trkpt>
      <trkpt lat="43.77676" lon="3.7876">
        <ele>368.8</ele>
        <time>2014-03-28T13:41:41Z</time>
      </trkpt>
      <trkpt lat="43.77673" lon="3.78754">
        <ele>371.21</ele>
        <time>2014-03-28T13:41:57Z</time>
      </trkpt>
      <trkpt lat="43.77673" lon="3.78742">
        <ele>372.17</ele>
        <time>2014-03-28T13:42:08Z</time>
      </trkpt>
      <trkpt lat="43.77673" lon="3.78732">
        <ele>371.69</ele>
        <time>2014-03-28T13:42:16Z</time>
      </trkpt>
      <trkpt lat="43.77671" lon="3.7872">
        <ele>371.69</ele>
        <time>2014-03-28T13:42:25Z</time>
      </trkpt>
      <trkpt lat="43.77663" lon="3.78699">
        <ele>373.13</ele>
        <time>2014-03-28T13:42:44Z</time>
      </trkpt>
      <trkpt lat="43.77654" lon="3.78698">
        <ele>375.53</ele>
        <time>2014-03-28T13:42:54Z</time>
      </trkpt>
      <trkpt lat="43.77652" lon="3.78699">
        <ele>376.49</ele>
        <time>2014-03-28T13:42:59Z</time>
      </trkpt>
      <trkpt lat="43.77644" lon="3.78679">
        <ele>378.42</ele>
        <time>2014-03-28T13:43:18Z</time>
      </trkpt>
      <trkpt lat="43.77638" lon="3.78678">
        <ele>379.86</ele>
        <time>2014-03-28T13:43:26Z</time>
      </trkpt>
      <trkpt lat="43.77632" lon="3.787">
        <ele>380.34</ele>
        <time>2014-03-28T13:43:45Z</time>
      </trkpt>
      <trkpt lat="43.77628" lon="3.78721">
        <ele>382.74</ele>
        <time>2014-03-28T13:44:02Z</time>
      </trkpt>
      <trkpt lat="43.77616" lon="3.78729">
        <ele>384.66</ele>
        <time>2014-03-28T13:44:20Z</time>
      </trkpt>
      <trkpt lat="43.77607" lon="3.78727">
        <ele>385.63</ele>
        <time>2014-03-28T13:44:33Z</time>
      </trkpt>
      <trkpt lat="43.77601" lon="3.78727">
        <ele>386.11</ele>
        <time>2014-03-28T13:44:39Z</time>
      </trkpt>
      <trkpt lat="43.77589" lon="3.78721">
        <ele>385.15</ele>
        <time>2014-03-28T13:44:59Z</time>
      </trkpt>
      <trkpt lat="43.77588" lon="3.78721">
        <ele>384.66</ele>
        <time>2014-03-28T13:45:23Z</time>
      </trkpt>
      <trkpt lat="43.77588" lon="3.7872">
        <ele>384.18</ele>
        <time>2014-03-28T13:45:40Z</time>
      </trkpt>
      <trkpt lat="43.77588" lon="3.7872">
        <ele>388.03</ele>
        <time>2014-03-28T13:45:50Z</time>
      </trkpt>
      <trkpt lat="43.77588" lon="3.78719">
        <ele>384.66</ele>
        <time>2014-03-28T13:46:02Z</time>
      </trkpt>
      <trkpt lat="43.77588" lon="3.78718">
        <ele>384.18</ele>
        <time>2014-03-28T13:46:38Z</time>
      </trkpt>
      <trkpt lat="43.77587" lon="3.7872">
        <ele>384.66</ele>
        <time>2014-03-28T13:47:04Z</time>
      </trkpt>
      <trkpt lat="43.77587" lon="3.78719">
        <ele>384.66</ele>
        <time>2014-03-28T13:47:42Z</time>
      </trkpt>
      <trkpt lat="43.77585" lon="3.78715">
        <ele>383.22</ele>
        <time>2014-03-28T13:48:03Z</time>
      </trkpt>
      <trkpt lat="43.77583" lon="3.78707">
        <ele>382.26</ele>
        <time>2014-03-28T13:48:11Z</time>
      </trkpt>
      <trkpt lat="43.77578" lon="3.78702">
        <ele>381.3</ele>
        <time>2014-03-28T13:48:17Z</time>
      </trkpt>
      <trkpt lat="43.77566" lon="3.787">
        <ele>380.34</ele>
        <time>2014-03-28T13:48:27Z</time>
      </trkpt>
      <trkpt lat="43.77556" lon="3.7869">
        <ele>377.94</ele>
        <time>2014-03-28T13:48:42Z</time>
      </trkpt>
      <trkpt lat="43.77551" lon="3.78686">
        <ele>377.45</ele>
        <time>2014-03-28T13:48:48Z</time>
      </trkpt>
      <trkpt lat="43.77542" lon="3.78681">
        <ele>376.49</ele>
        <time>2014-03-28T13:48:55Z</time>
      </trkpt>
      <trkpt lat="43.77539" lon="3.78681">
        <ele>376.01</ele>
        <time>2014-03-28T13:48:58Z</time>
      </trkpt>
      <trkpt lat="43.77535" lon="3.7868">
        <ele>375.05</ele>
        <time>2014-03-28T13:49:01Z</time>
      </trkpt>
      <trkpt lat="43.77524" lon="3.78672">
        <ele>374.09</ele>
        <time>2014-03-28T13:49:12Z</time>
      </trkpt>
      <trkpt lat="43.77513" lon="3.78657">
        <ele>373.61</ele>
        <time>2014-03-28T13:49:24Z</time>
      </trkpt>
      <trkpt lat="43.77512" lon="3.78654">
        <ele>373.61</ele>
        <time>2014-03-28T13:49:27Z</time>
      </trkpt>
      <trkpt lat="43.77511" lon="3.78651">
        <ele>373.61</ele>
        <time>2014-03-28T13:49:29Z</time>
      </trkpt>
      <trkpt lat="43.77502" lon="3.78645">
        <ele>373.13</ele>
        <time>2014-03-28T13:49:37Z</time>
      </trkpt>
      <trkpt lat="43.77482" lon="3.78629">
        <ele>372.65</ele>
        <time>2014-03-28T13:49:56Z</time>
      </trkpt>
      <trkpt lat="43.77481" lon="3.78628">
        <ele>372.17</ele>
        <time>2014-03-28T13:49:57Z</time>
      </trkpt>
      <trkpt lat="43.77467" lon="3.78619">
        <ele>371.69</ele>
        <time>2014-03-28T13:50:09Z</time>
      </trkpt>
      <trkpt lat="43.77447" lon="3.78608">
        <ele>368.8</ele>
        <time>2014-03-28T13:50:27Z</time>
      </trkpt>
      <trkpt lat="43.77432" lon="3.78608">
        <ele>367.36</ele>
        <time>2014-03-28T13:50:41Z</time>
      </trkpt>
      <trkpt lat="43.77412" lon="3.78616">
        <ele>364.96</ele>
        <time>2014-03-28T13:50:58Z</time>
      </trkpt>
      <trkpt lat="43.7741" lon="3.78618">
        <ele>364.96</ele>
        <time>2014-03-28T13:51:00Z</time>
      </trkpt>
      <trkpt lat="43.77403" lon="3.7862">
        <ele>364.48</ele>
        <time>2014-03-28T13:51:06Z</time>
      </trkpt>
      <trkpt lat="43.77392" lon="3.78621">
        <ele>362.55</ele>
        <time>2014-03-28T13:51:15Z</time>
      </trkpt>
      <trkpt lat="43.77381" lon="3.78627">
        <ele>360.63</ele>
        <time>2014-03-28T13:51:26Z</time>
      </trkpt>
      <trkpt lat="43.77375" lon="3.78628">
        <ele>359.19</ele>
        <time>2014-03-28T13:51:46Z</time>
      </trkpt>
      <trkpt lat="43.77378" lon="3.78628">
        <ele>359.67</ele>
        <time>2014-03-28T13:51:59Z</time>
      </trkpt>
      <trkpt lat="43.77385" lon="3.78635">
        <ele>361.59</ele>
        <time>2014-03-28T13:52:18Z</time>
      </trkpt>
      <trkpt lat="43.77392" lon="3.78642">
        <ele>364.48</ele>
        <time>2014-03-28T13:52:32Z</time>
      </trkpt>
      <trkpt lat="43.77398" lon="3.78651">
        <ele>366.88</ele>
        <time>2014-03-28T13:52:45Z</time>
      </trkpt>
      <trkpt lat="43.77402" lon="3.7866">
        <ele>369.28</ele>
        <time>2014-03-28T13:53:00Z</time>
      </trkpt>
      <trkpt lat="43.77402" lon="3.7867">
        <ele>370.73</ele>
        <time>2014-03-28T13:53:12Z</time>
      </trkpt>
      <trkpt lat="43.77403" lon="3.78672">
        <ele>370.73</ele>
        <time>2014-03-28T13:53:14Z</time>
      </trkpt>
      <trkpt lat="43.77409" lon="3.78682">
        <ele>373.61</ele>
        <time>2014-03-28T13:53:29Z</time>
      </trkpt>
      <trkpt lat="43.77409" lon="3.78698">
        <ele>376.49</ele>
        <time>2014-03-28T13:53:47Z</time>
      </trkpt>
      <trkpt lat="43.77415" lon="3.78705">
        <ele>379.38</ele>
        <time>2014-03-28T13:54:04Z</time>
      </trkpt>
      <trkpt lat="43.77422" lon="3.78715">
        <ele>382.26</ele>
        <time>2014-03-28T13:54:19Z</time>
      </trkpt>
      <trkpt lat="43.7743" lon="3.78723">
        <ele>385.15</ele>
        <time>2014-03-28T13:54:35Z</time>
      </trkpt>
      <trkpt lat="43.77431" lon="3.78724">
        <ele>385.15</ele>
        <time>2014-03-28T13:54:36Z</time>
      </trkpt>
      <trkpt lat="43.77432" lon="3.7873">
        <ele>386.59</ele>
        <time>2014-03-28T13:54:55Z</time>
      </trkpt>
      <trkpt lat="43.77432" lon="3.78731">
        <ele>387.55</ele>
        <time>2014-03-28T13:55:09Z</time>
      </trkpt>
      <trkpt lat="43.77436" lon="3.78741">
        <ele>390.43</ele>
        <time>2014-03-28T13:55:25Z</time>
      </trkpt>
      <trkpt lat="43.77438" lon="3.78745">
        <ele>391.87</ele>
        <time>2014-03-28T13:55:41Z</time>
      </trkpt>
      <trkpt lat="43.77439" lon="3.78744">
        <ele>391.87</ele>
        <time>2014-03-28T13:55:43Z</time>
      </trkpt>
      <trkpt lat="43.77441" lon="3.78753">
        <ele>394.28</ele>
        <time>2014-03-28T13:55:58Z</time>
      </trkpt>
      <trkpt lat="43.77444" lon="3.78757">
        <ele>397.16</ele>
        <time>2014-03-28T13:56:11Z</time>
      </trkpt>
      <trkpt lat="43.7745" lon="3.78764">
        <ele>399.08</ele>
        <time>2014-03-28T13:56:29Z</time>
      </trkpt>
      <trkpt lat="43.77451" lon="3.78771">
        <ele>399.57</ele>
        <time>2014-03-28T13:56:35Z</time>
      </trkpt>
      <trkpt lat="43.77455" lon="3.78776">
        <ele>401.01</ele>
        <time>2014-03-28T13:56:50Z</time>
      </trkpt>
      <trkpt lat="43.77457" lon="3.78781">
        <ele>402.45</ele>
        <time>2014-03-28T13:57:06Z</time>
      </trkpt>
      <trkpt lat="43.77459" lon="3.78783">
        <ele>403.89</ele>
        <time>2014-03-28T13:57:21Z</time>
      </trkpt>
      <trkpt lat="43.77464" lon="3.78789">
        <ele>404.85</ele>
        <time>2014-03-28T13:57:39Z</time>
      </trkpt>
      <trkpt lat="43.77466" lon="3.78791">
        <ele>405.33</ele>
        <time>2014-03-28T13:57:55Z</time>
      </trkpt>
      <trkpt lat="43.77468" lon="3.78797">
        <ele>405.33</ele>
        <time>2014-03-28T13:58:15Z</time>
      </trkpt>
      <trkpt lat="43.77469" lon="3.78797">
        <ele>406.29</ele>
        <time>2014-03-28T13:58:39Z</time>
      </trkpt>
      <trkpt lat="43.7747" lon="3.78797">
        <ele>405.33</ele>
        <time>2014-03-28T13:58:46Z</time>
      </trkpt>
      <trkpt lat="43.7747" lon="3.78797">
        <ele>405.81</ele>
        <time>2014-03-28T13:59:00Z</time>
      </trkpt>
      <trkpt lat="43.7747" lon="3.78795">
        <ele>404.85</ele>
        <time>2014-03-28T13:59:17Z</time>
      </trkpt>
      <trkpt lat="43.77465" lon="3.78789">
        <ele>403.89</ele>
        <time>2014-03-28T13:59:32Z</time>
      </trkpt>
      <trkpt lat="43.7746" lon="3.7879">
        <ele>403.41</ele>
        <time>2014-03-28T13:59:49Z</time>
      </trkpt>
      <trkpt lat="43.7746" lon="3.7879">
        <ele>403.41</ele>
        <time>2014-03-28T13:59:50Z</time>
      </trkpt>
      <trkpt lat="43.77461" lon="3.78788">
        <ele>404.85</ele>
        <time>2014-03-28T14:00:04Z</time>
      </trkpt>
      <trkpt lat="43.77461" lon="3.78787">
        <ele>402.93</ele>
        <time>2014-03-28T14:00:06Z</time>
      </trkpt>
      <trkpt lat="43.77462" lon="3.78782">
        <ele>402.93</ele>
        <time>2014-03-28T14:00:21Z</time>
      </trkpt>
      <trkpt lat="43.77463" lon="3.7878">
        <ele>402.45</ele>
        <time>2014-03-28T14:00:37Z</time>
      </trkpt>
      <trkpt lat="43.77463" lon="3.78776">
        <ele>401.49</ele>
        <time>2014-03-28T14:00:55Z</time>
      </trkpt>
      <trkpt lat="43.77463" lon="3.78775">
        <ele>400.05</ele>
        <time>2014-03-28T14:01:09Z</time>
      </trkpt>
      <trkpt lat="43.77462" lon="3.78774">
        <ele>399.57</ele>
        <time>2014-03-28T14:01:14Z</time>
      </trkpt>
      <trkpt lat="43.77458" lon="3.78773">
        <ele>399.57</ele>
        <time>2014-03-28T14:01:27Z</time>
      </trkpt>
      <trkpt lat="43.77454" lon="3.7876">
        <ele>398.6</ele>
        <time>2014-03-28T14:01:48Z</time>
      </trkpt>
      <trkpt lat="43.77454" lon="3.7876">
        <ele>398.6</ele>
        <time>2014-03-28T14:01:49Z</time>
      </trkpt>
      <trkpt lat="43.77449" lon="3.7876">
        <ele>397.16</ele>
        <time>2014-03-28T14:02:05Z</time>
      </trkpt>
      <trkpt lat="43.77445" lon="3.78754">
        <ele>393.8</ele>
        <time>2014-03-28T14:02:22Z</time>
      </trkpt>
      <trkpt lat="43.77444" lon="3.78754">
        <ele>393.8</ele>
        <time>2014-03-28T14:02:23Z</time>
      </trkpt>
      <trkpt lat="43.77444" lon="3.78754">
        <ele>393.32</ele>
        <time>2014-03-28T14:02:24Z</time>
      </trkpt>
      <trkpt lat="43.77442" lon="3.78746">
        <ele>391.39</ele>
        <time>2014-03-28T14:02:36Z</time>
      </trkpt>
      <trkpt lat="43.77432" lon="3.78744">
        <ele>388.99</ele>
        <time>2014-03-28T14:02:51Z</time>
      </trkpt>
      <trkpt lat="43.77432" lon="3.78735">
        <ele>386.11</ele>
        <time>2014-03-28T14:03:04Z</time>
      </trkpt>
      <trkpt lat="43.77432" lon="3.78732">
        <ele>385.63</ele>
        <time>2014-03-28T14:03:12Z</time>
      </trkpt>
      <trkpt lat="43.77432" lon="3.7873">
        <ele>386.11</ele>
        <time>2014-03-28T14:03:30Z</time>
      </trkpt>
      <trkpt lat="43.77433" lon="3.7873">
        <ele>385.15</ele>
        <time>2014-03-28T14:03:58Z</time>
      </trkpt>
      <trkpt lat="43.77433" lon="3.78726">
        <ele>384.18</ele>
        <time>2014-03-28T14:04:23Z</time>
      </trkpt>
      <trkpt lat="43.77429" lon="3.78722">
        <ele>383.22</ele>
        <time>2014-03-28T14:04:30Z</time>
      </trkpt>
      <trkpt lat="43.77423" lon="3.78715">
        <ele>380.34</ele>
        <time>2014-03-28T14:04:46Z</time>
      </trkpt>
      <trkpt lat="43.77417" lon="3.78713">
        <ele>378.9</ele>
        <time>2014-03-28T14:05:05Z</time>
      </trkpt>
      <trkpt lat="43.77414" lon="3.78701">
        <ele>375.53</ele>
        <time>2014-03-28T14:05:21Z</time>
      </trkpt>
      <trkpt lat="43.77409" lon="3.78691">
        <ele>373.13</ele>
        <time>2014-03-28T14:05:35Z</time>
      </trkpt>
      <trkpt lat="43.77406" lon="3.78676">
        <ele>370.24</ele>
        <time>2014-03-28T14:05:49Z</time>
      </trkpt>
      <trkpt lat="43.77404" lon="3.78668">
        <ele>367.84</ele>
        <time>2014-03-28T14:05:58Z</time>
      </trkpt>
      <trkpt lat="43.774" lon="3.78652">
        <ele>364.96</ele>
        <time>2014-03-28T14:06:16Z</time>
      </trkpt>
      <trkpt lat="43.77394" lon="3.78645">
        <ele>361.59</ele>
        <time>2014-03-28T14:06:27Z</time>
      </trkpt>
      <trkpt lat="43.77394" lon="3.78643">
        <ele>361.59</ele>
        <time>2014-03-28T14:06:28Z</time>
      </trkpt>
      <trkpt lat="43.77391" lon="3.78639">
        <ele>361.59</ele>
        <time>2014-03-28T14:06:35Z</time>
      </trkpt>
      <trkpt lat="43.77381" lon="3.78631">
        <ele>358.23</ele>
        <time>2014-03-28T14:06:49Z</time>
      </trkpt>
      <trkpt lat="43.77379" lon="3.78629">
        <ele>357.75</ele>
        <time>2014-03-28T14:06:52Z</time>
      </trkpt>
      <trkpt lat="43.77374" lon="3.7863">
        <ele>357.27</ele>
        <time>2014-03-28T14:06:57Z</time>
      </trkpt>
      <trkpt lat="43.77371" lon="3.78634">
        <ele>356.79</ele>
        <time>2014-03-28T14:07:02Z</time>
      </trkpt>
      <trkpt lat="43.77369" lon="3.78635">
        <ele>355.83</ele>
        <time>2014-03-28T14:07:04Z</time>
      </trkpt>
      <trkpt lat="43.77362" lon="3.78636">
        <ele>353.9</ele>
        <time>2014-03-28T14:07:13Z</time>
      </trkpt>
      <trkpt lat="43.77355" lon="3.78645">
        <ele>351.5</ele>
        <time>2014-03-28T14:07:29Z</time>
      </trkpt>
      <trkpt lat="43.77353" lon="3.78652">
        <ele>351.5</ele>
        <time>2014-03-28T14:07:37Z</time>
      </trkpt>
      <trkpt lat="43.77352" lon="3.78658">
        <ele>350.54</ele>
        <time>2014-03-28T14:07:41Z</time>
      </trkpt>
      <trkpt lat="43.77348" lon="3.78667">
        <ele>349.58</ele>
        <time>2014-03-28T14:07:48Z</time>
      </trkpt>
      <trkpt lat="43.77342" lon="3.78687">
        <ele>347.65</ele>
        <time>2014-03-28T14:08:02Z</time>
      </trkpt>
      <trkpt lat="43.77341" lon="3.78696">
        <ele>346.21</ele>
        <time>2014-03-28T14:08:10Z</time>
      </trkpt>
      <trkpt lat="43.77336" lon="3.78705">
        <ele>345.25</ele>
        <time>2014-03-28T14:08:17Z</time>
      </trkpt>
      <trkpt lat="43.77326" lon="3.78728">
        <ele>342.37</ele>
        <time>2014-03-28T14:08:37Z</time>
      </trkpt>
      <trkpt lat="43.77319" lon="3.7874">
        <ele>339.96</ele>
        <time>2014-03-28T14:08:54Z</time>
      </trkpt>
      <trkpt lat="43.77315" lon="3.78747">
        <ele>339</ele>
        <time>2014-03-28T14:09:01Z</time>
      </trkpt>
      <trkpt lat="43.77311" lon="3.78751">
        <ele>338.04</ele>
        <time>2014-03-28T14:09:06Z</time>
      </trkpt>
      <trkpt lat="43.7731" lon="3.78756">
        <ele>338.04</ele>
        <time>2014-03-28T14:09:25Z</time>
      </trkpt>
      <trkpt lat="43.77309" lon="3.78759">
        <ele>338.04</ele>
        <time>2014-03-28T14:09:34Z</time>
      </trkpt>
      <trkpt lat="43.77308" lon="3.78759">
        <ele>337.08</ele>
        <time>2014-03-28T14:09:36Z</time>
      </trkpt>
      <trkpt lat="43.77307" lon="3.78763">
        <ele>337.08</ele>
        <time>2014-03-28T14:09:39Z</time>
      </trkpt>
      <trkpt lat="43.77301" lon="3.78781">
        <ele>335.16</ele>
        <time>2014-03-28T14:09:53Z</time>
      </trkpt>
      <trkpt lat="43.77285" lon="3.78807">
        <ele>332.27</ele>
        <time>2014-03-28T14:10:14Z</time>
      </trkpt>
      <trkpt lat="43.77278" lon="3.78823">
        <ele>330.35</ele>
        <time>2014-03-28T14:10:27Z</time>
      </trkpt>
      <trkpt lat="43.77273" lon="3.78838">
        <ele>329.87</ele>
        <time>2014-03-28T14:10:38Z</time>
      </trkpt>
      <trkpt lat="43.77268" lon="3.78842">
        <ele>329.87</ele>
        <time>2014-03-28T14:10:43Z</time>
      </trkpt>
      <trkpt lat="43.77264" lon="3.78856">
        <ele>328.43</ele>
        <time>2014-03-28T14:10:53Z</time>
      </trkpt>
      <trkpt lat="43.77261" lon="3.7886">
        <ele>328.43</ele>
        <time>2014-03-28T14:10:57Z</time>
      </trkpt>
      <trkpt lat="43.77257" lon="3.78869">
        <ele>327.95</ele>
        <time>2014-03-28T14:11:03Z</time>
      </trkpt>
      <trkpt lat="43.77245" lon="3.7889">
        <ele>327.47</ele>
        <time>2014-03-28T14:11:22Z</time>
      </trkpt>
      <trkpt lat="43.77244" lon="3.78893">
        <ele>327.47</ele>
        <time>2014-03-28T14:11:24Z</time>
      </trkpt>
      <trkpt lat="43.77239" lon="3.78901">
        <ele>326.5</ele>
        <time>2014-03-28T14:11:33Z</time>
      </trkpt>
      <trkpt lat="43.77236" lon="3.78905">
        <ele>326.02</ele>
        <time>2014-03-28T14:11:38Z</time>
      </trkpt>
      <trkpt lat="43.77221" lon="3.78918">
        <ele>324.1</ele>
        <time>2014-03-28T14:11:58Z</time>
      </trkpt>
      <trkpt lat="43.77215" lon="3.78921">
        <ele>324.1</ele>
        <time>2014-03-28T14:12:03Z</time>
      </trkpt>
      <trkpt lat="43.77212" lon="3.78923">
        <ele>323.62</ele>
        <time>2014-03-28T14:12:06Z</time>
      </trkpt>
      <trkpt lat="43.77184" lon="3.78936">
        <ele>321.7</ele>
        <time>2014-03-28T14:12:28Z</time>
      </trkpt>
      <trkpt lat="43.77155" lon="3.78939">
        <ele>321.22</ele>
        <time>2014-03-28T14:12:52Z</time>
      </trkpt>
      <trkpt lat="43.77139" lon="3.78932">
        <ele>318.81</ele>
        <time>2014-03-28T14:13:06Z</time>
      </trkpt>
      <trkpt lat="43.77135" lon="3.7893">
        <ele>318.81</ele>
        <time>2014-03-28T14:13:09Z</time>
      </trkpt>
      <trkpt lat="43.77125" lon="3.78917">
        <ele>317.37</ele>
        <time>2014-03-28T14:13:20Z</time>
      </trkpt>
      <trkpt lat="43.77121" lon="3.78913">
        <ele>317.37</ele>
        <time>2014-03-28T14:13:24Z</time>
      </trkpt>
      <trkpt lat="43.77106" lon="3.789">
        <ele>315.45</ele>
        <time>2014-03-28T14:13:39Z</time>
      </trkpt>
      <trkpt lat="43.77099" lon="3.78895">
        <ele>314.97</ele>
        <time>2014-03-28T14:13:45Z</time>
      </trkpt>
      <trkpt lat="43.7707" lon="3.78877">
        <ele>312.09</ele>
        <time>2014-03-28T14:14:09Z</time>
      </trkpt>
      <trkpt lat="43.77049" lon="3.78852">
        <ele>309.68</ele>
        <time>2014-03-28T14:14:31Z</time>
      </trkpt>
      <trkpt lat="43.77045" lon="3.78846">
        <ele>309.2</ele>
        <time>2014-03-28T14:14:36Z</time>
      </trkpt>
      <trkpt lat="43.77024" lon="3.78824">
        <ele>307.28</ele>
        <time>2014-03-28T14:14:58Z</time>
      </trkpt>
      <trkpt lat="43.77004" lon="3.78807">
        <ele>305.84</ele>
        <time>2014-03-28T14:15:16Z</time>
      </trkpt>
      <trkpt lat="43.76997" lon="3.788">
        <ele>304.88</ele>
        <time>2014-03-28T14:15:23Z</time>
      </trkpt>
      <trkpt lat="43.76988" lon="3.78793">
        <ele>303.91</ele>
        <time>2014-03-28T14:15:30Z</time>
      </trkpt>
      <trkpt lat="43.76982" lon="3.78782">
        <ele>303.43</ele>
        <time>2014-03-28T14:15:38Z</time>
      </trkpt>
      <trkpt lat="43.76963" lon="3.78775">
        <ele>301.99</ele>
        <time>2014-03-28T14:15:54Z</time>
      </trkpt>
      <trkpt lat="43.7696" lon="3.78777">
        <ele>301.99</ele>
        <time>2014-03-28T14:15:57Z</time>
      </trkpt>
      <trkpt lat="43.76959" lon="3.78784">
        <ele>302.47</ele>
        <time>2014-03-28T14:16:02Z</time>
      </trkpt>
      <trkpt lat="43.76967" lon="3.78814">
        <ele>301.99</ele>
        <time>2014-03-28T14:16:20Z</time>
      </trkpt>
      <trkpt lat="43.76978" lon="3.78853">
        <ele>302.47</ele>
        <time>2014-03-28T14:16:43Z</time>
      </trkpt>
      <trkpt lat="43.76989" lon="3.78885">
        <ele>302.95</ele>
        <time>2014-03-28T14:17:03Z</time>
      </trkpt>
      <trkpt lat="43.76992" lon="3.78903">
        <ele>303.43</ele>
        <time>2014-03-28T14:17:14Z</time>
      </trkpt>
      <trkpt lat="43.76993" lon="3.78914">
        <ele>302.95</ele>
        <time>2014-03-28T14:17:20Z</time>
      </trkpt>
      <trkpt lat="43.76998" lon="3.78952">
        <ele>301.99</ele>
        <time>2014-03-28T14:17:42Z</time>
      </trkpt>
      <trkpt lat="43.76999" lon="3.78958">
        <ele>301.51</ele>
        <time>2014-03-28T14:17:46Z</time>
      </trkpt>
      <trkpt lat="43.76994" lon="3.79004">
        <ele>300.07</ele>
        <time>2014-03-28T14:18:11Z</time>
      </trkpt>
      <trkpt lat="43.76984" lon="3.7904">
        <ele>297.67</ele>
        <time>2014-03-28T14:18:32Z</time>
      </trkpt>
      <trkpt lat="43.76978" lon="3.79083">
        <ele>295.74</ele>
        <time>2014-03-28T14:18:56Z</time>
      </trkpt>
      <trkpt lat="43.7697" lon="3.79118">
        <ele>294.78</ele>
        <time>2014-03-28T14:19:16Z</time>
      </trkpt>
      <trkpt lat="43.7697" lon="3.79162">
        <ele>294.3</ele>
        <time>2014-03-28T14:19:41Z</time>
      </trkpt>
      <trkpt lat="43.76989" lon="3.79198">
        <ele>297.18</ele>
        <time>2014-03-28T14:20:06Z</time>
      </trkpt>
      <trkpt lat="43.77014" lon="3.79239">
        <ele>299.59</ele>
        <time>2014-03-28T14:20:36Z</time>
      </trkpt>
      <trkpt lat="43.77034" lon="3.79271">
        <ele>300.55</ele>
        <time>2014-03-28T14:21:00Z</time>
      </trkpt>
      <trkpt lat="43.77037" lon="3.79274">
        <ele>301.03</ele>
        <time>2014-03-28T14:21:04Z</time>
      </trkpt>
      <trkpt lat="43.77039" lon="3.79276">
        <ele>299.59</ele>
        <time>2014-03-28T14:21:10Z</time>
      </trkpt>
      <trkpt lat="43.77039" lon="3.79276">
        <ele>300.07</ele>
        <time>2014-03-28T14:21:13Z</time>
      </trkpt>
      <trkpt lat="43.77039" lon="3.79274">
        <ele>300.07</ele>
        <time>2014-03-28T14:21:39Z</time>
      </trkpt>
      <trkpt lat="43.77038" lon="3.79277">
        <ele>300.07</ele>
        <time>2014-03-28T14:22:02Z</time>
      </trkpt>
      <trkpt lat="43.77038" lon="3.79279">
        <ele>299.59</ele>
        <time>2014-03-28T14:22:56Z</time>
      </trkpt>
      <trkpt lat="43.77038" lon="3.79279">
        <ele>303.91</ele>
        <time>2014-03-28T14:23:22Z</time>
      </trkpt>
      <trkpt lat="43.77038" lon="3.79279">
        <ele>300.07</ele>
        <time>2014-03-28T14:23:23Z</time>
      </trkpt>
      <trkpt lat="43.77038" lon="3.79279">
        <ele>300.55</ele>
        <time>2014-03-28T14:23:27Z</time>
      </trkpt>
    </trkseg>
  </trk>
</gpx>